PWSweather.com
Personal Weather Stations
Station Observations
GHWX1
Golden Heights, Sturgeon County, AB T0A1N5

Golden HeightsSturgeon County, AB T0A1N5

Lat: 53.919, Lon: -113.37

Elevation: 2159

Station Type:

http://www.ghwx.ca

Latest ConditionsUpdated 7:38:01 PM MST Saturday, Dec 15, 2018
Currently Today's Max Today's Min Today's Average
Temperature 19.2°F-7.1°C 41.1°F5.1°C 19.2°F-7.1°C 32.5°F0.3°C
Dew Point 12.5°F-10.8°C 29.3°F-1.5°C 12.5°F-10.8°C 22.5°F-5.3°C
Winds 6.0 mph W9.7 kmh W 27.0 mph -43.5 kmh - - 9.7 mph 15.6 kmh
Wind Gusts -- -- - -
Humidity 75% 79% 56% 67%
Pressure 29.99 in1015.6 mb 29.99 in1015.6 mb 29.23 in989.8 mb -
Precipitation - 0.02 in0.5 mm - -
Hour Temp Dew Point Humidity Winds Wind Gusts Pressure Precip Precip Rate Daily Precip Total
07:38 PM 19.2°F-7.1°C 12.5°F-10.8°C 75% 6.0 mph W9.7 kmh W -- 29.99 in1015.6 mb 0.00 in0.0 mm 0.00 in0.0 mm 0.02 in0.5 mm
07:37 PM 19.4°F-7.0°C 13.0°F-10.6°C 76% 5.0 mph WNW8.0 kmh WNW -- 29.98 in1015.2 mb 0.00 in0.0 mm 0.00 in0.0 mm 0.02 in0.5 mm
07:36 PM 19.3°F-7.1°C 12.5°F-10.8°C 75% 8.0 mph WNW12.9 kmh WNW -- 29.98 in1015.2 mb 0.00 in0.0 mm 0.00 in0.0 mm 0.02 in0.5 mm
07:35 PM 19.3°F-7.1°C 12.5°F-10.8°C 75% 6.0 mph W9.7 kmh W -- 29.98 in1015.2 mb 0.00 in0.0 mm 0.00 in0.0 mm 0.02 in0.5 mm
07:34 PM 19.7°F-6.8°C 13.0°F-10.6°C 75% 6.0 mph W9.7 kmh W -- 29.98 in1015.2 mb 0.00 in0.0 mm 0.00 in0.0 mm 0.02 in0.5 mm
07:33 PM 19.8°F-6.8°C 13.0°F-10.6°C 75% 5.0 mph W8.0 kmh W -- 29.98 in1015.2 mb 0.00 in0.0 mm 0.00 in0.0 mm 0.02 in0.5 mm
07:32 PM 19.9°F-6.7°C 13.2°F-10.4°C 75% 6.0 mph W9.7 kmh W -- 29.98 in1015.2 mb 0.00 in0.0 mm 0.00 in0.0 mm 0.02 in0.5 mm
07:31 PM 20.0°F-6.7°C 13.2°F-10.4°C 75% 8.0 mph W12.9 kmh W -- 29.98 in1015.2 mb 0.00 in0.0 mm 0.00 in0.0 mm 0.02 in0.5 mm
07:30 PM 20.0°F-6.7°C 13.2°F-10.4°C 75% 6.0 mph W9.7 kmh W -- 29.97 in1014.9 mb 0.00 in0.0 mm 0.00 in0.0 mm 0.02 in0.5 mm
07:29 PM 20.0°F-6.7°C 13.2°F-10.4°C 75% 9.0 mph W14.5 kmh W -- 29.97 in1014.9 mb 0.00 in0.0 mm 0.00 in0.0 mm 0.02 in0.5 mm
07:28 PM 20.0°F-6.7°C 13.2°F-10.4°C 75% 10.0 mph W16.1 kmh W -- 29.98 in1015.2 mb 0.00 in0.0 mm 0.00 in0.0 mm 0.02 in0.5 mm
07:27 PM 20.1°F-6.6°C 13.4°F-10.3°C 75% 5.0 mph WNW8.0 kmh WNW -- 29.98 in1015.2 mb 0.00 in0.0 mm 0.00 in0.0 mm 0.02 in0.5 mm
07:26 PM 20.2°F-6.6°C 13.4°F-10.3°C 75% 5.0 mph WNW8.0 kmh WNW -- 29.98 in1015.2 mb 0.00 in0.0 mm 0.00 in0.0 mm 0.02 in0.5 mm
07:25 PM 20.2°F-6.6°C 13.4°F-10.3°C 75% 7.0 mph W11.3 kmh W -- 29.97 in1014.9 mb 0.00 in0.0 mm 0.00 in0.0 mm 0.02 in0.5 mm
07:24 PM 20.2°F-6.6°C 13.4°F-10.3°C 75% 8.0 mph NW12.9 kmh NW -- 29.97 in1014.9 mb 0.00 in0.0 mm 0.00 in0.0 mm 0.02 in0.5 mm
07:23 PM 20.2°F-6.6°C 13.4°F-10.3°C 75% 8.0 mph W12.9 kmh W -- 29.97 in1014.9 mb 0.00 in0.0 mm 0.00 in0.0 mm 0.02 in0.5 mm
07:22 PM 20.3°F-6.5°C 13.6°F-10.2°C 75% 10.0 mph WNW16.1 kmh WNW -- 29.97 in1014.9 mb 0.00 in0.0 mm 0.00 in0.0 mm 0.02 in0.5 mm
07:21 PM 20.2°F-6.6°C 13.4°F-10.3°C 75% 4.0 mph W6.4 kmh W -- 29.97 in1014.9 mb 0.00 in0.0 mm 0.00 in0.0 mm 0.02 in0.5 mm
07:20 PM 20.2°F-6.6°C 13.4°F-10.3°C 75% 4.0 mph WNW6.4 kmh WNW -- 29.98 in1015.2 mb 0.00 in0.0 mm 0.00 in0.0 mm 0.02 in0.5 mm
07:19 PM 20.2°F-6.6°C 13.4°F-10.3°C 75% 9.0 mph WNW14.5 kmh WNW -- 29.97 in1014.9 mb 0.00 in0.0 mm 0.00 in0.0 mm 0.02 in0.5 mm
07:18 PM 20.2°F-6.6°C 13.4°F-10.3°C 75% 6.0 mph W9.7 kmh W -- 29.97 in1014.9 mb 0.00 in0.0 mm 0.00 in0.0 mm 0.02 in0.5 mm
07:17 PM 20.3°F-6.5°C 13.6°F-10.2°C 75% 8.0 mph W12.9 kmh W -- 29.97 in1014.9 mb 0.00 in0.0 mm 0.00 in0.0 mm 0.02 in0.5 mm
07:16 PM 20.2°F-6.6°C 13.4°F-10.3°C 75% 5.0 mph W8.0 kmh W -- 29.97 in1014.9 mb 0.00 in0.0 mm 0.00 in0.0 mm 0.02 in0.5 mm
07:15 PM 20.2°F-6.6°C 13.4°F-10.3°C 75% 6.0 mph W9.7 kmh W -- 29.97 in1014.9 mb 0.00 in0.0 mm 0.00 in0.0 mm 0.02 in0.5 mm
07:14 PM 20.4°F-6.4°C 13.7°F-10.2°C 75% 5.0 mph WNW8.0 kmh WNW -- 29.96 in1014.6 mb 0.00 in0.0 mm 0.00 in0.0 mm 0.02 in0.5 mm
07:13 PM 20.4°F-6.4°C 13.4°F-10.3°C 74% 4.0 mph WNW6.4 kmh WNW -- 29.96 in1014.6 mb 0.00 in0.0 mm 0.00 in0.0 mm 0.02 in0.5 mm
07:12 PM 20.7°F-6.3°C 13.6°F-10.2°C 74% 8.0 mph W12.9 kmh W -- 29.96 in1014.6 mb 0.00 in0.0 mm 0.00 in0.0 mm 0.02 in0.5 mm
07:11 PM 20.7°F-6.3°C 13.6°F-10.2°C 74% 4.0 mph W6.4 kmh W -- 29.97 in1014.9 mb 0.00 in0.0 mm 0.00 in0.0 mm 0.02 in0.5 mm
07:10 PM 20.7°F-6.3°C 13.6°F-10.2°C 74% 5.0 mph W8.0 kmh W -- 29.97 in1014.9 mb 0.00 in0.0 mm 0.00 in0.0 mm 0.02 in0.5 mm
07:09 PM 20.9°F-6.2°C 13.8°F-10.1°C 74% 6.0 mph WNW9.7 kmh WNW -- 29.97 in1014.9 mb 0.00 in0.0 mm 0.00 in0.0 mm 0.02 in0.5 mm
07:08 PM 20.9°F-6.2°C 13.5°F-10.3°C 73% 7.0 mph W11.3 kmh W -- 29.96 in1014.6 mb 0.00 in0.0 mm 0.00 in0.0 mm 0.02 in0.5 mm
07:07 PM 21.2°F-6.0°C 13.8°F-10.1°C 73% 5.0 mph W8.0 kmh W -- 29.96 in1014.6 mb 0.00 in0.0 mm 0.00 in0.0 mm 0.02 in0.5 mm
07:06 PM 21.2°F-6.0°C 13.8°F-10.1°C 73% 9.0 mph W14.5 kmh W -- 29.96 in1014.6 mb 0.00 in0.0 mm 0.00 in0.0 mm 0.02 in0.5 mm
07:05 PM 21.3°F-5.9°C 14.0°F-10.0°C 73% 7.0 mph WNW11.3 kmh WNW -- 29.96 in1014.6 mb 0.00 in0.0 mm 0.00 in0.0 mm 0.02 in0.5 mm
07:04 PM 21.3°F-5.9°C 14.0°F-10.0°C 73% 9.0 mph WNW14.5 kmh WNW -- 29.96 in1014.6 mb 0.00 in0.0 mm 0.00 in0.0 mm 0.02 in0.5 mm
07:03 PM 21.3°F-5.9°C 14.0°F-10.0°C 73% 8.0 mph W12.9 kmh W -- 29.96 in1014.6 mb 0.00 in0.0 mm 0.00 in0.0 mm 0.02 in0.5 mm
07:02 PM 21.4°F-5.9°C 14.0°F-10.0°C 73% 7.0 mph W11.3 kmh W -- 29.96 in1014.6 mb 0.00 in0.0 mm 0.00 in0.0 mm 0.02 in0.5 mm
07:01 PM 21.3°F-5.9°C 14.0°F-10.0°C 73% 5.0 mph W8.0 kmh W -- 29.96 in1014.6 mb 0.00 in0.0 mm 0.00 in0.0 mm 0.02 in0.5 mm
07:00 PM 21.3°F-5.9°C 14.0°F-10.0°C 73% 6.0 mph W9.7 kmh W -- 29.96 in1014.6 mb 0.00 in0.0 mm 0.00 in0.0 mm 0.02 in0.5 mm
06:59 PM 21.3°F-5.9°C 14.0°F-10.0°C 73% 8.0 mph NNW12.9 kmh NNW -- 29.96 in1014.6 mb 0.00 in0.0 mm 0.00 in0.0 mm 0.02 in0.5 mm
06:58 PM 21.3°F-5.9°C 14.0°F-10.0°C 73% 5.0 mph WNW8.0 kmh WNW -- 29.96 in1014.6 mb 0.00 in0.0 mm 0.00 in0.0 mm 0.02 in0.5 mm
06:56 PM 21.6°F-5.8°C 14.1°F-9.9°C 73% 6.0 mph W9.7 kmh W -- 29.96 in1014.6 mb 0.00 in0.0 mm 0.00 in0.0 mm 0.02 in0.5 mm
06:55 PM 21.6°F-5.8°C 14.1°F-9.9°C 73% 5.0 mph W8.0 kmh W -- 29.96 in1014.6 mb 0.00 in0.0 mm 0.00 in0.0 mm 0.02 in0.5 mm
06:54 PM 21.6°F-5.8°C 14.1°F-9.9°C 73% 4.0 mph W6.4 kmh W -- 29.96 in1014.6 mb 0.00 in0.0 mm 0.00 in0.0 mm 0.02 in0.5 mm
06:53 PM 21.9°F-5.6°C 14.5°F-9.7°C 73% 4.0 mph W6.4 kmh W -- 29.96 in1014.6 mb 0.00 in0.0 mm 0.00 in0.0 mm 0.02 in0.5 mm
06:52 PM 22.1°F-5.5°C 14.7°F-9.6°C 73% 4.0 mph WNW6.4 kmh WNW -- 29.96 in1014.6 mb 0.00 in0.0 mm 0.00 in0.0 mm 0.02 in0.5 mm
06:51 PM 22.1°F-5.5°C 14.7°F-9.6°C 73% 5.0 mph W8.0 kmh W -- 29.96 in1014.6 mb 0.00 in0.0 mm 0.00 in0.0 mm 0.02 in0.5 mm
06:50 PM 22.5°F-5.3°C 14.4°F-9.8°C 71% 5.0 mph W8.0 kmh W -- 29.95 in1014.2 mb 0.00 in0.0 mm 0.00 in0.0 mm 0.02 in0.5 mm
06:49 PM 22.5°F-5.3°C 14.4°F-9.8°C 71% 11.0 mph W17.7 kmh W -- 29.95 in1014.2 mb 0.00 in0.0 mm 0.00 in0.0 mm 0.02 in0.5 mm
06:48 PM 22.5°F-5.3°C 14.0°F-10.0°C 70% 6.0 mph W9.7 kmh W -- 29.96 in1014.6 mb 0.00 in0.0 mm 0.00 in0.0 mm 0.02 in0.5 mm
06:47 PM 22.6°F-5.2°C 14.5°F-9.7°C 71% 10.0 mph W16.1 kmh W -- 29.96 in1014.6 mb 0.00 in0.0 mm 0.00 in0.0 mm 0.02 in0.5 mm
06:46 PM 22.5°F-5.3°C 14.0°F-10.0°C 70% 9.0 mph WNW14.5 kmh WNW -- 29.96 in1014.6 mb 0.00 in0.0 mm 0.00 in0.0 mm 0.02 in0.5 mm
06:45 PM 22.5°F-5.3°C 14.0°F-10.0°C 70% 6.0 mph W9.7 kmh W -- 29.96 in1014.6 mb 0.00 in0.0 mm 0.00 in0.0 mm 0.02 in0.5 mm
06:44 PM 22.7°F-5.2°C 14.2°F-9.9°C 70% 9.0 mph W14.5 kmh W -- 29.95 in1014.2 mb 0.00 in0.0 mm 0.00 in0.0 mm 0.02 in0.5 mm
06:43 PM 22.7°F-5.2°C 14.2°F-9.9°C 70% 5.0 mph WNW8.0 kmh WNW -- 29.95 in1014.2 mb 0.00 in0.0 mm 0.00 in0.0 mm 0.02 in0.5 mm
06:42 PM 23.0°F-5.0°C 14.9°F-9.5°C 71% 8.0 mph W12.9 kmh W -- 29.95 in1014.2 mb 0.00 in0.0 mm 0.00 in0.0 mm 0.02 in0.5 mm
06:41 PM 22.9°F-5.1°C 14.4°F-9.8°C 70% 7.0 mph WNW11.3 kmh WNW -- 29.95 in1014.2 mb 0.00 in0.0 mm 0.00 in0.0 mm 0.02 in0.5 mm
06:40 PM 23.2°F-4.9°C 14.7°F-9.6°C 70% 8.0 mph WNW12.9 kmh WNW -- 29.95 in1014.2 mb 0.00 in0.0 mm 0.00 in0.0 mm 0.02 in0.5 mm
06:39 PM 23.2°F-4.9°C 14.7°F-9.6°C 70% 9.0 mph WNW14.5 kmh WNW -- 29.95 in1014.2 mb 0.00 in0.0 mm 0.00 in0.0 mm 0.02 in0.5 mm
06:38 PM 23.2°F-4.9°C 14.7°F-9.6°C 70% 15.0 mph W24.1 kmh W -- 29.95 in1014.2 mb 0.00 in0.0 mm 0.00 in0.0 mm 0.02 in0.5 mm
06:37 PM 23.4°F-4.8°C 14.9°F-9.5°C 70% 11.0 mph WSW17.7 kmh WSW -- 29.94 in1013.9 mb 0.00 in0.0 mm 0.00 in0.0 mm 0.02 in0.5 mm
06:36 PM 23.3°F-4.8°C 14.9°F-9.5°C 70% 8.0 mph NW12.9 kmh NW -- 29.94 in1013.9 mb 0.00 in0.0 mm 0.00 in0.0 mm 0.02 in0.5 mm
06:35 PM 23.3°F-4.8°C 14.9°F-9.5°C 70% 9.0 mph WSW14.5 kmh WSW -- 29.94 in1013.9 mb 0.00 in0.0 mm 0.00 in0.0 mm 0.02 in0.5 mm
06:34 PM 23.3°F-4.8°C 14.9°F-9.5°C 70% 13.0 mph WSW20.9 kmh WSW -- 29.95 in1014.2 mb 0.00 in0.0 mm 0.00 in0.0 mm 0.02 in0.5 mm
06:33 PM 23.3°F-4.8°C 14.9°F-9.5°C 70% 10.0 mph SW16.1 kmh SW -- 29.94 in1013.9 mb 0.00 in0.0 mm 0.00 in0.0 mm 0.02 in0.5 mm
06:32 PM 23.4°F-4.8°C 14.9°F-9.5°C 70% 8.0 mph WNW12.9 kmh WNW -- 29.94 in1013.9 mb 0.00 in0.0 mm 0.00 in0.0 mm 0.02 in0.5 mm
06:31 PM 23.4°F-4.8°C 14.9°F-9.5°C 70% 10.0 mph WNW16.1 kmh WNW -- 29.95 in1014.2 mb 0.00 in0.0 mm 0.00 in0.0 mm 0.02 in0.5 mm
06:30 PM 23.4°F-4.8°C 14.9°F-9.5°C 70% 9.0 mph W14.5 kmh W -- 29.95 in1014.2 mb 0.00 in0.0 mm 0.00 in0.0 mm 0.02 in0.5 mm
06:29 PM 23.7°F-4.6°C 15.3°F-9.3°C 70% 11.0 mph W17.7 kmh W -- 29.94 in1013.9 mb 0.00 in0.0 mm 0.00 in0.0 mm 0.02 in0.5 mm
06:28 PM 23.7°F-4.6°C 15.3°F-9.3°C 70% 10.0 mph W16.1 kmh W -- 29.94 in1013.9 mb 0.00 in0.0 mm 0.00 in0.0 mm 0.02 in0.5 mm
06:27 PM 23.7°F-4.6°C 15.3°F-9.3°C 70% 11.0 mph WNW17.7 kmh WNW -- 29.94 in1013.9 mb 0.00 in0.0 mm 0.00 in0.0 mm 0.02 in0.5 mm
06:26 PM 23.7°F-4.6°C 15.3°F-9.3°C 70% 8.0 mph WNW12.9 kmh WNW -- 29.94 in1013.9 mb 0.00 in0.0 mm 0.00 in0.0 mm 0.02 in0.5 mm
06:25 PM 23.7°F-4.6°C 15.3°F-9.3°C 70% 10.0 mph NW16.1 kmh NW -- 29.94 in1013.9 mb 0.00 in0.0 mm 0.00 in0.0 mm 0.02 in0.5 mm
06:24 PM 23.7°F-4.6°C 15.3°F-9.3°C 70% 13.0 mph W20.9 kmh W -- 29.94 in1013.9 mb 0.00 in0.0 mm 0.00 in0.0 mm 0.02 in0.5 mm
06:23 PM 23.7°F-4.6°C 15.3°F-9.3°C 70% 10.0 mph W16.1 kmh W -- 29.94 in1013.9 mb 0.00 in0.0 mm 0.00 in0.0 mm 0.02 in0.5 mm
06:22 PM 23.7°F-4.6°C 15.3°F-9.3°C 70% 7.0 mph W11.3 kmh W -- 29.94 in1013.9 mb 0.00 in0.0 mm 0.00 in0.0 mm 0.02 in0.5 mm
06:21 PM 23.7°F-4.6°C 15.3°F-9.3°C 70% 13.0 mph WNW20.9 kmh WNW -- 29.94 in1013.9 mb 0.00 in0.0 mm 0.00 in0.0 mm 0.02 in0.5 mm
06:20 PM 23.7°F-4.6°C 15.3°F-9.3°C 70% 18.0 mph W29.0 kmh W -- 29.94 in1013.9 mb 0.00 in0.0 mm 0.00 in0.0 mm 0.02 in0.5 mm
06:19 PM 23.7°F-4.6°C 15.3°F-9.3°C 70% 8.0 mph W12.9 kmh W -- 29.94 in1013.9 mb 0.00 in0.0 mm 0.00 in0.0 mm 0.02 in0.5 mm
06:18 PM 23.7°F-4.6°C 15.3°F-9.3°C 70% 7.0 mph NW11.3 kmh NW -- 29.94 in1013.9 mb 0.00 in0.0 mm 0.00 in0.0 mm 0.02 in0.5 mm
06:17 PM 23.7°F-4.6°C 15.3°F-9.3°C 70% 4.0 mph SSW6.4 kmh SSW -- 29.93 in1013.5 mb 0.00 in0.0 mm 0.00 in0.0 mm 0.02 in0.5 mm
06:16 PM 23.8°F-4.6°C 15.3°F-9.3°C 70% 6.0 mph WSW9.7 kmh WSW -- 29.94 in1013.9 mb 0.00 in0.0 mm 0.00 in0.0 mm 0.02 in0.5 mm
06:15 PM 23.8°F-4.6°C 15.3°F-9.3°C 70% 8.0 mph W12.9 kmh W -- 29.94 in1013.9 mb 0.00 in0.0 mm 0.00 in0.0 mm 0.02 in0.5 mm
06:13 PM 23.8°F-4.6°C 15.3°F-9.3°C 70% 10.0 mph NW16.1 kmh NW -- 29.94 in1013.9 mb 0.00 in0.0 mm 0.00 in0.0 mm 0.02 in0.5 mm
06:12 PM 23.9°F-4.5°C 15.8°F-9.0°C 71% 15.0 mph W24.1 kmh W -- 29.94 in1013.9 mb 0.00 in0.0 mm 0.00 in0.0 mm 0.02 in0.5 mm
06:11 PM 23.8°F-4.6°C 15.3°F-9.3°C 70% 10.0 mph WSW16.1 kmh WSW -- 29.94 in1013.9 mb 0.00 in0.0 mm 0.00 in0.0 mm 0.02 in0.5 mm
06:10 PM 23.8°F-4.6°C 15.3°F-9.3°C 70% 8.0 mph W12.9 kmh W -- 29.94 in1013.9 mb 0.00 in0.0 mm 0.00 in0.0 mm 0.02 in0.5 mm
06:09 PM 23.8°F-4.6°C 15.3°F-9.3°C 70% 9.0 mph W14.5 kmh W -- 29.94 in1013.9 mb 0.00 in0.0 mm 0.00 in0.0 mm 0.02 in0.5 mm
06:08 PM 23.8°F-4.6°C 15.3°F-9.3°C 70% 8.0 mph WNW12.9 kmh WNW -- 29.94 in1013.9 mb 0.00 in0.0 mm 0.00 in0.0 mm 0.02 in0.5 mm
06:07 PM 23.9°F-4.5°C 15.8°F-9.0°C 71% 13.0 mph SSW20.9 kmh SSW -- 29.94 in1013.9 mb 0.00 in0.0 mm 0.00 in0.0 mm 0.02 in0.5 mm
06:06 PM 23.8°F-4.6°C 15.3°F-9.3°C 70% 10.0 mph W16.1 kmh W -- 29.94 in1013.9 mb 0.00 in0.0 mm 0.00 in0.0 mm 0.02 in0.5 mm
06:05 PM 23.8°F-4.6°C 15.3°F-9.3°C 70% 11.0 mph SSE17.7 kmh SSE -- 29.94 in1013.9 mb 0.00 in0.0 mm 0.00 in0.0 mm 0.02 in0.5 mm
06:04 PM 23.8°F-4.6°C 15.3°F-9.3°C 70% 8.0 mph W12.9 kmh W -- 29.94 in1013.9 mb 0.00 in0.0 mm 0.00 in0.0 mm 0.02 in0.5 mm
06:03 PM 24.1°F-4.4°C 15.9°F-8.9°C 71% 11.0 mph WNW17.7 kmh WNW -- 29.94 in1013.9 mb 0.00 in0.0 mm 0.00 in0.0 mm 0.02 in0.5 mm
06:02 PM 24.1°F-4.4°C 15.9°F-8.9°C 71% 13.0 mph W20.9 kmh W -- 29.93 in1013.5 mb 0.00 in0.0 mm 0.00 in0.0 mm 0.02 in0.5 mm
06:01 PM 24.1°F-4.4°C 15.6°F-9.1°C 70% 15.0 mph SW24.1 kmh SW -- 29.93 in1013.5 mb 0.00 in0.0 mm 0.00 in0.0 mm 0.02 in0.5 mm
06:00 PM 24.1°F-4.4°C 15.6°F-9.1°C 70% 11.0 mph W17.7 kmh W -- 29.93 in1013.5 mb 0.00 in0.0 mm 0.00 in0.0 mm 0.02 in0.5 mm
05:59 PM 24.1°F-4.4°C 15.6°F-9.1°C 70% 12.0 mph W19.3 kmh W -- 29.93 in1013.5 mb 0.00 in0.0 mm 0.00 in0.0 mm 0.02 in0.5 mm
05:58 PM 24.2°F-4.3°C 15.8°F-9.0°C 70% 8.0 mph W12.9 kmh W -- 29.93 in1013.5 mb 0.00 in0.0 mm 0.00 in0.0 mm 0.02 in0.5 mm
05:57 PM 24.3°F-4.3°C 15.8°F-9.0°C 70% 12.0 mph W19.3 kmh W -- 29.93 in1013.5 mb 0.00 in0.0 mm 0.00 in0.0 mm 0.02 in0.5 mm
05:56 PM 24.2°F-4.3°C 15.8°F-9.0°C 70% 8.0 mph WNW12.9 kmh WNW -- 29.93 in1013.5 mb 0.00 in0.0 mm 0.00 in0.0 mm 0.02 in0.5 mm
05:55 PM 24.2°F-4.3°C 15.8°F-9.0°C 70% 12.0 mph W19.3 kmh W -- 29.94 in1013.9 mb 0.00 in0.0 mm 0.00 in0.0 mm 0.02 in0.5 mm
05:54 PM 24.2°F-4.3°C 15.8°F-9.0°C 70% 12.0 mph NW19.3 kmh NW -- 29.94 in1013.9 mb 0.00 in0.0 mm 0.00 in0.0 mm 0.02 in0.5 mm
05:53 PM 24.2°F-4.3°C 15.8°F-9.0°C 70% 13.0 mph NW20.9 kmh NW -- 29.94 in1013.9 mb 0.00 in0.0 mm 0.00 in0.0 mm 0.02 in0.5 mm
05:52 PM 24.3°F-4.3°C 15.8°F-9.0°C 70% 15.0 mph WNW24.1 kmh WNW -- 29.93 in1013.5 mb 0.00 in0.0 mm 0.00 in0.0 mm 0.02 in0.5 mm
05:51 PM 24.4°F-4.2°C 15.9°F-8.9°C 70% 10.0 mph W16.1 kmh W -- 29.93 in1013.5 mb 0.00 in0.0 mm 0.00 in0.0 mm 0.02 in0.5 mm
05:50 PM 24.4°F-4.2°C 15.9°F-8.9°C 70% 10.0 mph 16.1 kmh -- 29.93 in1013.5 mb 0.00 in0.0 mm 0.00 in0.0 mm 0.02 in0.5 mm
05:49 PM 24.4°F-4.2°C 15.9°F-8.9°C 70% 6.0 mph W9.7 kmh W -- 29.93 in1013.5 mb 0.00 in0.0 mm 0.00 in0.0 mm 0.02 in0.5 mm
05:48 PM 24.4°F-4.2°C 15.9°F-8.9°C 70% 8.0 mph W12.9 kmh W -- 29.93 in1013.5 mb 0.00 in0.0 mm 0.00 in0.0 mm 0.02 in0.5 mm
05:47 PM 24.4°F-4.2°C 15.9°F-8.9°C 70% 11.0 mph W17.7 kmh W -- 29.93 in1013.5 mb 0.00 in0.0 mm 0.00 in0.0 mm 0.02 in0.5 mm
05:46 PM 24.6°F-4.1°C 15.8°F-9.0°C 69% 8.0 mph W12.9 kmh W -- 29.94 in1013.9 mb 0.00 in0.0 mm 0.00 in0.0 mm 0.02 in0.5 mm
05:45 PM 24.6°F-4.1°C 15.8°F-9.0°C 69% 11.0 mph SW17.7 kmh SW -- 29.93 in1013.5 mb 0.00 in0.0 mm 0.00 in0.0 mm 0.02 in0.5 mm
05:44 PM 24.8°F-4.0°C 16.0°F-8.9°C 69% 9.0 mph SW14.5 kmh SW -- 29.93 in1013.5 mb 0.00 in0.0 mm 0.00 in0.0 mm 0.02 in0.5 mm
05:43 PM 24.8°F-4.0°C 16.0°F-8.9°C 69% 12.0 mph W19.3 kmh W -- 29.93 in1013.5 mb 0.00 in0.0 mm 0.00 in0.0 mm 0.02 in0.5 mm
05:42 PM 24.8°F-4.0°C 16.0°F-8.9°C 69% 10.0 mph W16.1 kmh W -- 29.93 in1013.5 mb 0.00 in0.0 mm 0.00 in0.0 mm 0.02 in0.5 mm
05:41 PM 24.8°F-4.0°C 16.0°F-8.9°C 69% 9.0 mph WNW14.5 kmh WNW -- 29.93 in1013.5 mb 0.00 in0.0 mm 0.00 in0.0 mm 0.02 in0.5 mm
05:40 PM 24.8°F-4.0°C 16.0°F-8.9°C 69% 8.0 mph WNW12.9 kmh WNW -- 29.93 in1013.5 mb 0.00 in0.0 mm 0.00 in0.0 mm 0.02 in0.5 mm
05:39 PM 24.8°F-4.0°C 16.0°F-8.9°C 69% 12.0 mph WNW19.3 kmh WNW -- 29.93 in1013.5 mb 0.00 in0.0 mm 0.00 in0.0 mm 0.02 in0.5 mm
05:38 PM 24.8°F-4.0°C 16.0°F-8.9°C 69% 13.0 mph W20.9 kmh W -- 29.93 in1013.5 mb 0.00 in0.0 mm 0.00 in0.0 mm 0.02 in0.5 mm
05:37 PM 24.8°F-4.0°C 16.0°F-8.9°C 69% 11.0 mph W17.7 kmh W -- 29.93 in1013.5 mb 0.00 in0.0 mm 0.00 in0.0 mm 0.02 in0.5 mm
05:36 PM 24.8°F-4.0°C 16.0°F-8.9°C 69% 12.0 mph W19.3 kmh W -- 29.93 in1013.5 mb 0.00 in0.0 mm 0.00 in0.0 mm 0.02 in0.5 mm
05:35 PM 24.8°F-4.0°C 16.3°F-8.7°C 70% 12.0 mph W19.3 kmh W -- 29.93 in1013.5 mb 0.00 in0.0 mm 0.00 in0.0 mm 0.02 in0.5 mm
05:34 PM 24.8°F-4.0°C 16.3°F-8.7°C 70% 9.0 mph NW14.5 kmh NW -- 29.93 in1013.5 mb 0.00 in0.0 mm 0.00 in0.0 mm 0.02 in0.5 mm
05:33 PM 24.6°F-4.1°C 16.1°F-8.8°C 70% 16.0 mph NW25.7 kmh NW -- 29.93 in1013.5 mb 0.00 in0.0 mm 0.00 in0.0 mm 0.02 in0.5 mm
05:32 PM 24.4°F-4.2°C 15.9°F-8.9°C 70% 12.0 mph W19.3 kmh W -- 29.93 in1013.5 mb 0.00 in0.0 mm 0.00 in0.0 mm 0.02 in0.5 mm
05:31 PM 24.4°F-4.2°C 15.9°F-8.9°C 70% 8.0 mph W12.9 kmh W -- 29.93 in1013.5 mb 0.00 in0.0 mm 0.00 in0.0 mm 0.02 in0.5 mm
05:30 PM 24.4°F-4.2°C 15.9°F-8.9°C 70% 11.0 mph W17.7 kmh W -- 29.93 in1013.5 mb 0.00 in0.0 mm 0.00 in0.0 mm 0.02 in0.5 mm
05:29 PM 24.4°F-4.2°C 15.9°F-8.9°C 70% 13.0 mph W20.9 kmh W -- 29.93 in1013.5 mb 0.00 in0.0 mm 0.00 in0.0 mm 0.02 in0.5 mm
05:28 PM 24.4°F-4.2°C 15.9°F-8.9°C 70% 7.0 mph W11.3 kmh W -- 29.93 in1013.5 mb 0.00 in0.0 mm 0.00 in0.0 mm 0.02 in0.5 mm
05:27 PM 24.2°F-4.3°C 15.8°F-9.0°C 70% 10.0 mph W16.1 kmh W -- 29.93 in1013.5 mb 0.00 in0.0 mm 0.00 in0.0 mm 0.02 in0.5 mm
05:26 PM 24.2°F-4.3°C 15.8°F-9.0°C 70% 10.0 mph WNW16.1 kmh WNW -- 29.93 in1013.5 mb 0.00 in0.0 mm 0.00 in0.0 mm 0.02 in0.5 mm
05:25 PM 24.1°F-4.4°C 15.6°F-9.1°C 70% 10.0 mph WNW16.1 kmh WNW -- 29.93 in1013.5 mb 0.00 in0.0 mm 0.00 in0.0 mm 0.02 in0.5 mm
05:24 PM 24.1°F-4.4°C 15.6°F-9.1°C 70% 8.0 mph WNW12.9 kmh WNW -- 29.93 in1013.5 mb 0.00 in0.0 mm 0.00 in0.0 mm 0.02 in0.5 mm
05:23 PM 24.1°F-4.4°C 15.9°F-8.9°C 71% 8.0 mph W12.9 kmh W -- 29.93 in1013.5 mb 0.00 in0.0 mm 0.00 in0.0 mm 0.02 in0.5 mm
05:22 PM 23.8°F-4.6°C 15.6°F-9.1°C 71% 6.0 mph W9.7 kmh W -- 29.93 in1013.5 mb 0.00 in0.0 mm 0.00 in0.0 mm 0.02 in0.5 mm
05:21 PM 23.8°F-4.6°C 15.6°F-9.1°C 71% 8.0 mph W12.9 kmh W -- 29.93 in1013.5 mb 0.00 in0.0 mm 0.00 in0.0 mm 0.02 in0.5 mm
05:20 PM 23.8°F-4.6°C 15.6°F-9.1°C 71% 11.0 mph W17.7 kmh W -- 29.93 in1013.5 mb 0.00 in0.0 mm 0.00 in0.0 mm 0.02 in0.5 mm
05:19 PM 23.8°F-4.6°C 15.6°F-9.1°C 71% 6.0 mph W9.7 kmh W -- 29.93 in1013.5 mb 0.00 in0.0 mm 0.00 in0.0 mm 0.02 in0.5 mm
05:18 PM 23.9°F-4.5°C 16.1°F-8.8°C 72% 10.0 mph W16.1 kmh W -- 29.92 in1013.2 mb 0.00 in0.0 mm 0.00 in0.0 mm 0.02 in0.5 mm
05:17 PM 23.8°F-4.6°C 15.6°F-9.1°C 71% 7.0 mph W11.3 kmh W -- 29.92 in1013.2 mb 0.00 in0.0 mm 0.00 in0.0 mm 0.02 in0.5 mm
05:16 PM 23.8°F-4.6°C 15.6°F-9.1°C 71% 9.0 mph W14.5 kmh W -- 29.92 in1013.2 mb 0.00 in0.0 mm 0.00 in0.0 mm 0.02 in0.5 mm
05:15 PM 23.8°F-4.6°C 15.6°F-9.1°C 71% 13.0 mph WNW20.9 kmh WNW -- 29.92 in1013.2 mb 0.00 in0.0 mm 0.00 in0.0 mm 0.02 in0.5 mm
05:14 PM 23.8°F-4.6°C 15.6°F-9.1°C 71% 7.0 mph W11.3 kmh W -- 29.92 in1013.2 mb 0.00 in0.0 mm 0.00 in0.0 mm 0.02 in0.5 mm
05:13 PM 23.9°F-4.5°C 16.1°F-8.8°C 72% 6.0 mph W9.7 kmh W -- 29.92 in1013.2 mb 0.00 in0.0 mm 0.00 in0.0 mm 0.02 in0.5 mm
05:12 PM 23.9°F-4.5°C 16.1°F-8.8°C 72% 6.0 mph W9.7 kmh W -- 29.93 in1013.5 mb 0.00 in0.0 mm 0.00 in0.0 mm 0.02 in0.5 mm
05:11 PM 24.1°F-4.4°C 15.9°F-8.9°C 71% 5.0 mph W8.0 kmh W -- 29.92 in1013.2 mb 0.00 in0.0 mm 0.00 in0.0 mm 0.02 in0.5 mm
05:10 PM 24.1°F-4.4°C 15.6°F-9.1°C 70% 6.0 mph W9.7 kmh W -- 29.92 in1013.2 mb 0.00 in0.0 mm 0.00 in0.0 mm 0.02 in0.5 mm
05:08 PM 24.2°F-4.3°C 15.8°F-9.0°C 70% 7.0 mph W11.3 kmh W -- 29.92 in1013.2 mb 0.00 in0.0 mm 0.00 in0.0 mm 0.02 in0.5 mm
05:07 PM 24.3°F-4.3°C 16.1°F-8.8°C 71% 7.0 mph WNW11.3 kmh WNW -- 29.92 in1013.2 mb 0.00 in0.0 mm 0.00 in0.0 mm 0.02 in0.5 mm
05:06 PM 24.2°F-4.3°C 15.8°F-9.0°C 70% 7.0 mph WNW11.3 kmh WNW -- 29.92 in1013.2 mb 0.00 in0.0 mm 0.00 in0.0 mm 0.02 in0.5 mm
05:05 PM 24.4°F-4.2°C 15.9°F-8.9°C 70% 8.0 mph W12.9 kmh W -- 29.92 in1013.2 mb 0.00 in0.0 mm 0.00 in0.0 mm 0.02 in0.5 mm
05:04 PM 24.4°F-4.2°C 15.9°F-8.9°C 70% 6.0 mph W9.7 kmh W -- 29.92 in1013.2 mb 0.00 in0.0 mm 0.00 in0.0 mm 0.02 in0.5 mm
05:03 PM 24.8°F-4.0°C 16.3°F-8.7°C 70% 6.0 mph W9.7 kmh W -- 29.92 in1013.2 mb 0.00 in0.0 mm 0.00 in0.0 mm 0.02 in0.5 mm
05:02 PM 24.8°F-4.0°C 16.3°F-8.7°C 70% 9.0 mph W14.5 kmh W -- 29.92 in1013.2 mb 0.00 in0.0 mm 0.00 in0.0 mm 0.02 in0.5 mm
05:01 PM 24.8°F-4.0°C 16.3°F-8.7°C 70% 7.0 mph W11.3 kmh W -- 29.92 in1013.2 mb 0.00 in0.0 mm 0.00 in0.0 mm 0.02 in0.5 mm
05:00 PM 24.8°F-4.0°C 16.3°F-8.7°C 70% 9.0 mph W14.5 kmh W -- 29.92 in1013.2 mb 0.00 in0.0 mm 0.00 in0.0 mm 0.02 in0.5 mm
04:59 PM 24.8°F-4.0°C 16.3°F-8.7°C 70% 7.0 mph W11.3 kmh W -- 29.91 in1012.9 mb 0.00 in0.0 mm 0.00 in0.0 mm 0.02 in0.5 mm
04:58 PM 25.0°F-3.9°C 16.5°F-8.6°C 70% 8.0 mph W12.9 kmh W -- 29.92 in1013.2 mb 0.00 in0.0 mm 0.00 in0.0 mm 0.02 in0.5 mm
04:56 PM 25.0°F-3.9°C 16.5°F-8.6°C 70% 8.0 mph W12.9 kmh W -- 29.91 in1012.9 mb 0.00 in0.0 mm 0.00 in0.0 mm 0.02 in0.5 mm
04:55 PM 25.1°F-3.8°C 16.6°F-8.6°C 70% 7.0 mph W11.3 kmh W -- 29.91 in1012.9 mb 0.00 in0.0 mm 0.00 in0.0 mm 0.02 in0.5 mm
04:54 PM 25.2°F-3.8°C 16.3°F-8.7°C 69% 8.0 mph W12.9 kmh W -- 29.91 in1012.9 mb 0.00 in0.0 mm 0.00 in0.0 mm 0.02 in0.5 mm
04:53 PM 25.2°F-3.8°C 16.3°F-8.7°C 69% 10.0 mph W16.1 kmh W -- 29.91 in1012.9 mb 0.00 in0.0 mm 0.00 in0.0 mm 0.02 in0.5 mm
04:52 PM 25.3°F-3.7°C 16.5°F-8.6°C 69% 8.0 mph W12.9 kmh W -- 29.91 in1012.9 mb 0.00 in0.0 mm 0.00 in0.0 mm 0.02 in0.5 mm
04:51 PM 25.2°F-3.8°C 16.3°F-8.7°C 69% 9.0 mph WNW14.5 kmh WNW -- 29.91 in1012.9 mb 0.00 in0.0 mm 0.00 in0.0 mm 0.02 in0.5 mm
04:50 PM 25.1°F-3.8°C 16.3°F-8.7°C 69% 8.0 mph WNW12.9 kmh WNW -- 29.91 in1012.9 mb 0.00 in0.0 mm 0.00 in0.0 mm 0.02 in0.5 mm
04:49 PM 25.1°F-3.8°C 16.3°F-8.7°C 69% 6.0 mph W9.7 kmh W -- 29.91 in1012.9 mb 0.00 in0.0 mm 0.00 in0.0 mm 0.02 in0.5 mm
04:48 PM 25.2°F-3.8°C 16.6°F-8.6°C 70% 9.0 mph W14.5 kmh W -- 29.91 in1012.9 mb 0.00 in0.0 mm 0.00 in0.0 mm 0.02 in0.5 mm
04:47 PM 25.2°F-3.8°C 16.6°F-8.6°C 70% 10.0 mph W16.1 kmh W -- 29.91 in1012.9 mb 0.00 in0.0 mm 0.00 in0.0 mm 0.02 in0.5 mm
04:46 PM 25.1°F-3.8°C 16.6°F-8.6°C 70% 10.0 mph W16.1 kmh W -- 29.91 in1012.9 mb 0.00 in0.0 mm 0.00 in0.0 mm 0.02 in0.5 mm
04:44 PM 25.1°F-3.8°C 16.6°F-8.6°C 70% 8.0 mph W12.9 kmh W -- 29.90 in1012.5 mb 0.00 in0.0 mm 0.00 in0.0 mm 0.02 in0.5 mm
04:43 PM 25.1°F-3.8°C 16.6°F-8.6°C 70% 9.0 mph W14.5 kmh W -- 29.90 in1012.5 mb 0.00 in0.0 mm 0.00 in0.0 mm 0.02 in0.5 mm
04:42 PM 25.2°F-3.8°C 16.6°F-8.6°C 70% 7.0 mph W11.3 kmh W -- 29.90 in1012.5 mb 0.00 in0.0 mm 0.00 in0.0 mm 0.02 in0.5 mm
04:41 PM 25.1°F-3.8°C 16.6°F-8.6°C 70% 8.0 mph WNW12.9 kmh WNW -- 29.90 in1012.5 mb 0.00 in0.0 mm 0.00 in0.0 mm 0.02 in0.5 mm
04:40 PM 25.2°F-3.8°C 16.3°F-8.7°C 69% 8.0 mph W12.9 kmh W -- 29.90 in1012.5 mb 0.00 in0.0 mm 0.00 in0.0 mm 0.02 in0.5 mm
04:39 PM 25.4°F-3.7°C 16.5°F-8.6°C 69% 10.0 mph W16.1 kmh W -- 29.90 in1012.5 mb 0.00 in0.0 mm 0.00 in0.0 mm 0.02 in0.5 mm
04:38 PM 25.4°F-3.7°C 16.5°F-8.6°C 69% 6.0 mph W9.7 kmh W -- 29.89 in1012.2 mb 0.00 in0.0 mm 0.00 in0.0 mm 0.02 in0.5 mm
04:37 PM 25.5°F-3.6°C 16.6°F-8.6°C 69% 9.0 mph W14.5 kmh W -- 29.90 in1012.5 mb 0.00 in0.0 mm 0.00 in0.0 mm 0.02 in0.5 mm
04:36 PM 25.4°F-3.7°C 16.5°F-8.6°C 69% 11.0 mph W17.7 kmh W -- 29.90 in1012.5 mb 0.00 in0.0 mm 0.00 in0.0 mm 0.02 in0.5 mm
04:35 PM 25.7°F-3.5°C 16.8°F-8.4°C 69% 11.0 mph W17.7 kmh W -- 29.90 in1012.5 mb 0.00 in0.0 mm 0.00 in0.0 mm 0.02 in0.5 mm
04:34 PM 25.7°F-3.5°C 16.8°F-8.4°C 69% 9.0 mph WNW14.5 kmh WNW -- 29.89 in1012.2 mb 0.00 in0.0 mm 0.00 in0.0 mm 0.02 in0.5 mm
04:33 PM 25.7°F-3.5°C 16.8°F-8.4°C 69% 9.0 mph W14.5 kmh W -- 29.89 in1012.2 mb 0.00 in0.0 mm 0.00 in0.0 mm 0.02 in0.5 mm
04:32 PM 25.9°F-3.4°C 17.0°F-8.3°C 69% 10.0 mph W16.1 kmh W -- 29.89 in1012.2 mb 0.00 in0.0 mm 0.00 in0.0 mm 0.02 in0.5 mm
04:31 PM 26.1°F-3.3°C 17.2°F-8.2°C 69% 10.0 mph W16.1 kmh W -- 29.89 in1012.2 mb 0.00 in0.0 mm 0.00 in0.0 mm 0.02 in0.5 mm
04:30 PM 26.2°F-3.2°C 17.0°F-8.3°C 68% 10.0 mph W16.1 kmh W -- 29.89 in1012.2 mb 0.00 in0.0 mm 0.00 in0.0 mm 0.02 in0.5 mm
04:29 PM 26.2°F-3.2°C 17.0°F-8.3°C 68% 9.0 mph W14.5 kmh W -- 29.89 in1012.2 mb 0.00 in0.0 mm 0.00 in0.0 mm 0.02 in0.5 mm
04:27 PM 26.2°F-3.2°C 17.0°F-8.3°C 68% 10.0 mph WNW16.1 kmh WNW -- 29.89 in1012.2 mb 0.00 in0.0 mm 0.00 in0.0 mm 0.02 in0.5 mm
04:26 PM 26.2°F-3.2°C 17.0°F-8.3°C 68% 8.0 mph W12.9 kmh W -- 29.89 in1012.2 mb 0.00 in0.0 mm 0.00 in0.0 mm 0.02 in0.5 mm
04:25 PM 26.2°F-3.2°C 17.0°F-8.3°C 68% 10.0 mph W16.1 kmh W -- 29.89 in1012.2 mb 0.00 in0.0 mm 0.00 in0.0 mm 0.02 in0.5 mm
04:24 PM 26.2°F-3.2°C 17.0°F-8.3°C 68% 9.0 mph W14.5 kmh W -- 29.89 in1012.2 mb 0.00 in0.0 mm 0.00 in0.0 mm 0.02 in0.5 mm
04:23 PM 26.2°F-3.2°C 17.0°F-8.3°C 68% 11.0 mph W17.7 kmh W -- 29.89 in1012.2 mb 0.00 in0.0 mm 0.00 in0.0 mm 0.02 in0.5 mm
04:22 PM 26.4°F-3.1°C 17.2°F-8.2°C 68% 10.0 mph W16.1 kmh W -- 29.89 in1012.2 mb 0.00 in0.0 mm 0.00 in0.0 mm 0.02 in0.5 mm
04:21 PM 26.3°F-3.2°C 17.0°F-8.3°C 68% 12.0 mph W19.3 kmh W -- 29.89 in1012.2 mb 0.00 in0.0 mm 0.00 in0.0 mm 0.02 in0.5 mm
04:19 PM 26.6°F-3.0°C 17.3°F-8.2°C 68% 11.0 mph W17.7 kmh W -- 29.89 in1012.2 mb 0.00 in0.0 mm 0.00 in0.0 mm 0.02 in0.5 mm
04:18 PM 26.6°F-3.0°C 17.3°F-8.2°C 68% 8.0 mph W12.9 kmh W -- 29.89 in1012.2 mb 0.00 in0.0 mm 0.00 in0.0 mm 0.02 in0.5 mm
04:17 PM 26.6°F-3.0°C 17.3°F-8.2°C 68% 11.0 mph W17.7 kmh W -- 29.89 in1012.2 mb 0.00 in0.0 mm 0.00 in0.0 mm 0.02 in0.5 mm
04:16 PM 26.6°F-3.0°C 17.3°F-8.2°C 68% 10.0 mph W16.1 kmh W -- 29.89 in1012.2 mb 0.00 in0.0 mm 0.00 in0.0 mm 0.02 in0.5 mm
04:12 PM 27.0°F-2.8°C 17.3°F-8.2°C 67% 11.0 mph W17.7 kmh W -- 29.88 in1011.9 mb 0.00 in0.0 mm 0.00 in0.0 mm 0.02 in0.5 mm
04:09 PM 27.1°F-2.7°C 17.5°F-8.1°C 67% 9.0 mph W14.5 kmh W -- 29.88 in1011.9 mb 0.00 in0.0 mm 0.00 in0.0 mm 0.02 in0.5 mm
04:08 PM 27.1°F-2.7°C 17.5°F-8.1°C 67% 11.0 mph W17.7 kmh W -- 29.88 in1011.9 mb 0.00 in0.0 mm 0.00 in0.0 mm 0.02 in0.5 mm
04:07 PM 27.1°F-2.7°C 17.5°F-8.1°C 67% 13.0 mph W20.9 kmh W -- 29.87 in1011.5 mb 0.00 in0.0 mm 0.00 in0.0 mm 0.02 in0.5 mm
04:06 PM 27.5°F-2.5°C 17.1°F-8.3°C 65% 9.0 mph W14.5 kmh W -- 29.87 in1011.5 mb 0.00 in0.0 mm 0.00 in0.0 mm 0.02 in0.5 mm
04:04 PM 27.5°F-2.5°C 17.1°F-8.3°C 65% 8.0 mph W12.9 kmh W -- 29.87 in1011.5 mb 0.00 in0.0 mm 0.00 in0.0 mm 0.02 in0.5 mm
04:03 PM 27.6°F-2.4°C 17.3°F-8.2°C 65% 9.0 mph W14.5 kmh W -- 29.87 in1011.5 mb 0.00 in0.0 mm 0.00 in0.0 mm 0.02 in0.5 mm
04:02 PM 27.7°F-2.4°C 17.3°F-8.2°C 65% 13.0 mph W20.9 kmh W -- 29.87 in1011.5 mb 0.00 in0.0 mm 0.00 in0.0 mm 0.02 in0.5 mm
04:00 PM 27.7°F-2.4°C 17.7°F-7.9°C 66% 12.0 mph WNW19.3 kmh WNW -- 29.87 in1011.5 mb 0.00 in0.0 mm 0.00 in0.0 mm 0.02 in0.5 mm
03:58 PM 27.7°F-2.4°C 17.7°F-7.9°C 66% 10.0 mph W16.1 kmh W -- 29.86 in1011.2 mb 0.00 in0.0 mm 0.00 in0.0 mm 0.02 in0.5 mm
03:57 PM 27.7°F-2.4°C 17.7°F-7.9°C 66% 12.0 mph WNW19.3 kmh WNW -- 29.86 in1011.2 mb 0.00 in0.0 mm 0.00 in0.0 mm 0.02 in0.5 mm
03:55 PM 27.7°F-2.4°C 17.7°F-7.9°C 66% 13.0 mph W20.9 kmh W -- 29.86 in1011.2 mb 0.00 in0.0 mm 0.00 in0.0 mm 0.02 in0.5 mm
03:54 PM 27.7°F-2.4°C 17.7°F-7.9°C 66% 9.0 mph W14.5 kmh W -- 29.86 in1011.2 mb 0.00 in0.0 mm 0.00 in0.0 mm 0.02 in0.5 mm
03:52 PM 27.7°F-2.4°C 17.7°F-7.9°C 66% 11.0 mph W17.7 kmh W -- 29.86 in1011.2 mb 0.00 in0.0 mm 0.00 in0.0 mm 0.02 in0.5 mm
03:51 PM 27.6°F-2.4°C 17.3°F-8.2°C 65% 15.0 mph W24.1 kmh W -- 29.86 in1011.2 mb 0.00 in0.0 mm 0.00 in0.0 mm 0.02 in0.5 mm
03:50 PM 27.6°F-2.4°C 17.3°F-8.2°C 65% 10.0 mph W16.1 kmh W -- 29.86 in1011.2 mb 0.00 in0.0 mm 0.00 in0.0 mm 0.02 in0.5 mm
03:49 PM 27.8°F-2.3°C 17.5°F-8.1°C 65% 12.0 mph W19.3 kmh W -- 29.86 in1011.2 mb 0.00 in0.0 mm 0.00 in0.0 mm 0.02 in0.5 mm
03:48 PM 28.2°F-2.1°C 17.8°F-7.9°C 65% 13.0 mph W20.9 kmh W -- 29.86 in1011.2 mb 0.00 in0.0 mm 0.00 in0.0 mm 0.02 in0.5 mm
03:47 PM 28.2°F-2.1°C 17.8°F-7.9°C 65% 7.0 mph W11.3 kmh W -- 29.86 in1011.2 mb 0.00 in0.0 mm 0.00 in0.0 mm 0.02 in0.5 mm
03:46 PM 28.2°F-2.1°C 17.8°F-7.9°C 65% 13.0 mph W20.9 kmh W -- 29.86 in1011.2 mb 0.00 in0.0 mm 0.00 in0.0 mm 0.02 in0.5 mm
03:45 PM 28.2°F-2.1°C 17.8°F-7.9°C 65% 16.0 mph W25.7 kmh W -- 29.86 in1011.2 mb 0.00 in0.0 mm 0.00 in0.0 mm 0.02 in0.5 mm
03:44 PM 28.2°F-2.1°C 17.8°F-7.9°C 65% 21.0 mph W33.8 kmh W -- 29.86 in1011.2 mb 0.00 in0.0 mm 0.00 in0.0 mm 0.02 in0.5 mm
03:42 PM 28.2°F-2.1°C 17.8°F-7.9°C 65% 11.0 mph W17.7 kmh W -- 29.86 in1011.2 mb 0.00 in0.0 mm 0.00 in0.0 mm 0.02 in0.5 mm
03:39 PM 28.2°F-2.1°C 17.8°F-7.9°C 65% 13.0 mph WSW20.9 kmh WSW -- 29.86 in1011.2 mb 0.00 in0.0 mm 0.00 in0.0 mm 0.02 in0.5 mm
03:38 PM 28.2°F-2.1°C 17.8°F-7.9°C 65% 10.0 mph W16.1 kmh W -- 29.86 in1011.2 mb 0.00 in0.0 mm 0.00 in0.0 mm 0.02 in0.5 mm
03:37 PM 28.4°F-2.0°C 18.0°F-7.8°C 65% 8.0 mph W12.9 kmh W -- 29.86 in1011.2 mb 0.00 in0.0 mm 0.00 in0.0 mm 0.02 in0.5 mm
03:36 PM 28.3°F-2.1°C 17.8°F-7.9°C 65% 11.0 mph WNW17.7 kmh WNW -- 29.86 in1011.2 mb 0.00 in0.0 mm 0.00 in0.0 mm 0.02 in0.5 mm
03:35 PM 28.3°F-2.1°C 17.8°F-7.9°C 65% 13.0 mph W20.9 kmh W -- 29.86 in1011.2 mb 0.00 in0.0 mm 0.00 in0.0 mm 0.02 in0.5 mm
03:34 PM 28.6°F-1.9°C 18.2°F-7.7°C 65% 9.0 mph WNW14.5 kmh WNW -- 29.85 in1010.8 mb 0.00 in0.0 mm 0.00 in0.0 mm 0.02 in0.5 mm
03:33 PM 28.9°F-1.7°C 18.5°F-7.5°C 65% 9.0 mph WNW14.5 kmh WNW -- 29.85 in1010.8 mb 0.00 in0.0 mm 0.00 in0.0 mm 0.02 in0.5 mm
03:32 PM 28.9°F-1.7°C 18.5°F-7.5°C 65% 8.0 mph W12.9 kmh W -- 29.85 in1010.8 mb 0.00 in0.0 mm 0.00 in0.0 mm 0.02 in0.5 mm
03:31 PM 28.7°F-1.8°C 18.3°F-7.6°C 65% 9.0 mph W14.5 kmh W -- 29.85 in1010.8 mb 0.00 in0.0 mm 0.00 in0.0 mm 0.02 in0.5 mm
03:30 PM 28.7°F-1.8°C 18.3°F-7.6°C 65% 12.0 mph W19.3 kmh W -- 29.86 in1011.2 mb 0.00 in0.0 mm 0.00 in0.0 mm 0.02 in0.5 mm
03:29 PM 28.7°F-1.8°C 18.3°F-7.6°C 65% 11.0 mph W17.7 kmh W -- 29.86 in1011.2 mb 0.00 in0.0 mm 0.00 in0.0 mm 0.02 in0.5 mm
03:28 PM 28.8°F-1.8°C 18.3°F-7.6°C 65% 11.0 mph W17.7 kmh W -- 29.85 in1010.8 mb 0.00 in0.0 mm 0.00 in0.0 mm 0.02 in0.5 mm
03:27 PM 28.8°F-1.8°C 18.3°F-7.6°C 65% 9.0 mph W14.5 kmh W -- 29.85 in1010.8 mb 0.00 in0.0 mm 0.00 in0.0 mm 0.02 in0.5 mm
03:26 PM 28.8°F-1.8°C 18.3°F-7.6°C 65% 11.0 mph W17.7 kmh W -- 29.85 in1010.8 mb 0.00 in0.0 mm 0.00 in0.0 mm 0.02 in0.5 mm
03:25 PM 29.1°F-1.6°C 18.7°F-7.4°C 65% 9.0 mph W14.5 kmh W -- 29.85 in1010.8 mb 0.00 in0.0 mm 0.00 in0.0 mm 0.02 in0.5 mm
03:24 PM 29.1°F-1.6°C 18.7°F-7.4°C 65% 7.0 mph NW11.3 kmh NW -- 29.85 in1010.8 mb 0.00 in0.0 mm 0.00 in0.0 mm 0.02 in0.5 mm
03:23 PM 29.1°F-1.6°C 18.7°F-7.4°C 65% 6.0 mph W9.7 kmh W -- 29.85 in1010.8 mb 0.00 in0.0 mm 0.00 in0.0 mm 0.02 in0.5 mm
03:22 PM 29.3°F-1.5°C 18.9°F-7.3°C 65% 12.0 mph W19.3 kmh W -- 29.85 in1010.8 mb 0.00 in0.0 mm 0.00 in0.0 mm 0.02 in0.5 mm
03:20 PM 29.2°F-1.6°C 18.7°F-7.4°C 65% 11.0 mph W17.7 kmh W -- 29.85 in1010.8 mb 0.00 in0.0 mm 0.00 in0.0 mm 0.02 in0.5 mm
03:18 PM 29.2°F-1.6°C 18.7°F-7.4°C 65% 9.0 mph W14.5 kmh W -- 29.85 in1010.8 mb 0.00 in0.0 mm 0.00 in0.0 mm 0.02 in0.5 mm
03:17 PM 29.7°F-1.3°C 18.8°F-7.3°C 64% 7.0 mph W11.3 kmh W -- 29.85 in1010.8 mb 0.00 in0.0 mm 0.00 in0.0 mm 0.02 in0.5 mm
03:16 PM 29.6°F-1.3°C 18.5°F-7.5°C 63% 9.0 mph W14.5 kmh W -- 29.85 in1010.8 mb 0.00 in0.0 mm 0.00 in0.0 mm 0.02 in0.5 mm
03:15 PM 29.6°F-1.3°C 18.5°F-7.5°C 63% 12.0 mph W19.3 kmh W -- 29.85 in1010.8 mb 0.00 in0.0 mm 0.00 in0.0 mm 0.02 in0.5 mm
03:14 PM 29.6°F-1.3°C 18.5°F-7.5°C 63% 11.0 mph WNW17.7 kmh WNW -- 29.84 in1010.5 mb 0.00 in0.0 mm 0.00 in0.0 mm 0.02 in0.5 mm
03:13 PM 29.6°F-1.3°C 18.5°F-7.5°C 63% 9.0 mph WNW14.5 kmh WNW -- 29.84 in1010.5 mb 0.00 in0.0 mm 0.00 in0.0 mm 0.02 in0.5 mm
03:12 PM 29.7°F-1.3°C 18.8°F-7.3°C 64% 8.0 mph W12.9 kmh W -- 29.84 in1010.5 mb 0.00 in0.0 mm 0.00 in0.0 mm 0.02 in0.5 mm
03:11 PM 29.6°F-1.3°C 18.5°F-7.5°C 63% 8.0 mph W12.9 kmh W -- 29.84 in1010.5 mb 0.00 in0.0 mm 0.00 in0.0 mm 0.02 in0.5 mm
03:10 PM 29.6°F-1.3°C 18.5°F-7.5°C 63% 9.0 mph W14.5 kmh W -- 29.84 in1010.5 mb 0.00 in0.0 mm 0.00 in0.0 mm 0.02 in0.5 mm
03:08 PM 29.6°F-1.3°C 18.5°F-7.5°C 63% 10.0 mph W16.1 kmh W -- 29.84 in1010.5 mb 0.00 in0.0 mm 0.00 in0.0 mm 0.02 in0.5 mm
03:07 PM 29.7°F-1.3°C 18.8°F-7.3°C 64% 12.0 mph W19.3 kmh W -- 29.84 in1010.5 mb 0.00 in0.0 mm 0.00 in0.0 mm 0.02 in0.5 mm
03:06 PM 29.6°F-1.3°C 18.5°F-7.5°C 63% 13.0 mph W20.9 kmh W -- 29.84 in1010.5 mb 0.00 in0.0 mm 0.00 in0.0 mm 0.02 in0.5 mm
03:05 PM 29.6°F-1.3°C 19.2°F-7.1°C 65% 9.0 mph W14.5 kmh W -- 29.84 in1010.5 mb 0.00 in0.0 mm 0.00 in0.0 mm 0.02 in0.5 mm
03:04 PM 29.6°F-1.3°C 19.2°F-7.1°C 65% 13.0 mph W20.9 kmh W -- 29.84 in1010.5 mb 0.00 in0.0 mm 0.00 in0.0 mm 0.02 in0.5 mm
03:03 PM 29.8°F-1.2°C 19.4°F-7.0°C 65% 13.0 mph W20.9 kmh W -- 29.84 in1010.5 mb 0.00 in0.0 mm 0.00 in0.0 mm 0.02 in0.5 mm
03:02 PM 29.8°F-1.2°C 19.4°F-7.0°C 65% 17.0 mph W27.4 kmh W -- 29.84 in1010.5 mb 0.00 in0.0 mm 0.00 in0.0 mm 0.02 in0.5 mm
03:01 PM 29.8°F-1.2°C 19.4°F-7.0°C 65% 9.0 mph W14.5 kmh W -- 29.84 in1010.5 mb 0.00 in0.0 mm 0.00 in0.0 mm 0.02 in0.5 mm
03:00 PM 30.0°F-1.1°C 18.8°F-7.3°C 63% 6.0 mph W9.7 kmh W -- 29.84 in1010.5 mb 0.00 in0.0 mm 0.00 in0.0 mm 0.02 in0.5 mm
02:59 PM 30.1°F-1.1°C 18.8°F-7.3°C 63% 10.0 mph W16.1 kmh W -- 29.83 in1010.2 mb 0.00 in0.0 mm 0.00 in0.0 mm 0.02 in0.5 mm
02:58 PM 30.1°F-1.1°C 18.8°F-7.3°C 63% 11.0 mph W17.7 kmh W -- 29.83 in1010.2 mb 0.00 in0.0 mm 0.00 in0.0 mm 0.02 in0.5 mm
02:57 PM 30.2°F-1.0°C 19.3°F-7.1°C 64% 14.0 mph W22.5 kmh W -- 29.83 in1010.2 mb 0.00 in0.0 mm 0.00 in0.0 mm 0.02 in0.5 mm
02:56 PM 30.1°F-1.1°C 18.8°F-7.3°C 63% 10.0 mph W16.1 kmh W -- 29.83 in1010.2 mb 0.00 in0.0 mm 0.00 in0.0 mm 0.02 in0.5 mm
02:55 PM 30.1°F-1.1°C 18.8°F-7.3°C 63% 12.0 mph W19.3 kmh W -- 29.83 in1010.2 mb 0.00 in0.0 mm 0.00 in0.0 mm 0.02 in0.5 mm
02:54 PM 30.1°F-1.1°C 18.8°F-7.3°C 63% 8.0 mph WNW12.9 kmh WNW -- 29.83 in1010.2 mb 0.00 in0.0 mm 0.00 in0.0 mm 0.02 in0.5 mm
02:53 PM 30.1°F-1.1°C 18.8°F-7.3°C 63% 12.0 mph W19.3 kmh W -- 29.83 in1010.2 mb 0.00 in0.0 mm 0.00 in0.0 mm 0.02 in0.5 mm
02:52 PM 30.2°F-1.0°C 19.3°F-7.1°C 64% 10.0 mph W16.1 kmh W -- 29.83 in1010.2 mb 0.00 in0.0 mm 0.00 in0.0 mm 0.02 in0.5 mm
02:51 PM 30.1°F-1.1°C 18.8°F-7.3°C 63% 15.0 mph WNW24.1 kmh WNW -- 29.83 in1010.2 mb 0.00 in0.0 mm 0.00 in0.0 mm 0.02 in0.5 mm
02:50 PM 30.1°F-1.1°C 18.8°F-7.3°C 63% 14.0 mph W22.5 kmh W -- 29.83 in1010.2 mb 0.00 in0.0 mm 0.00 in0.0 mm 0.02 in0.5 mm
02:49 PM 30.1°F-1.1°C 18.8°F-7.3°C 63% 8.0 mph W12.9 kmh W -- 29.83 in1010.2 mb 0.00 in0.0 mm 0.00 in0.0 mm 0.02 in0.5 mm
02:48 PM 30.1°F-1.1°C 18.8°F-7.3°C 63% 9.0 mph W14.5 kmh W -- 29.82 in1009.8 mb 0.00 in0.0 mm 0.00 in0.0 mm 0.02 in0.5 mm
02:47 PM 30.2°F-1.0°C 19.3°F-7.1°C 64% 17.0 mph W27.4 kmh W -- 29.82 in1009.8 mb 0.00 in0.0 mm 0.00 in0.0 mm 0.02 in0.5 mm
02:46 PM 30.1°F-1.1°C 18.8°F-7.3°C 63% 16.0 mph W25.7 kmh W -- 29.82 in1009.8 mb 0.00 in0.0 mm 0.00 in0.0 mm 0.02 in0.5 mm
02:44 PM 30.1°F-1.1°C 18.8°F-7.3°C 63% 10.0 mph W16.1 kmh W -- 29.82 in1009.8 mb 0.00 in0.0 mm 0.00 in0.0 mm 0.02 in0.5 mm
02:43 PM 30.1°F-1.1°C 18.8°F-7.3°C 63% 11.0 mph W17.7 kmh W -- 29.82 in1009.8 mb 0.00 in0.0 mm 0.00 in0.0 mm 0.02 in0.5 mm
02:42 PM 30.4°F-0.9°C 19.5°F-6.9°C 64% 14.0 mph W22.5 kmh W -- 29.82 in1009.8 mb 0.00 in0.0 mm 0.00 in0.0 mm 0.02 in0.5 mm
02:40 PM 30.3°F-0.9°C 19.1°F-7.2°C 63% 8.0 mph W12.9 kmh W -- 29.82 in1009.8 mb 0.00 in0.0 mm 0.00 in0.0 mm 0.02 in0.5 mm
02:39 PM 30.3°F-0.9°C 19.1°F-7.2°C 63% 11.0 mph W17.7 kmh W -- 29.81 in1009.5 mb 0.00 in0.0 mm 0.00 in0.0 mm 0.02 in0.5 mm
02:38 PM 30.3°F-0.9°C 19.1°F-7.2°C 63% 8.0 mph W12.9 kmh W -- 29.81 in1009.5 mb 0.00 in0.0 mm 0.00 in0.0 mm 0.02 in0.5 mm
02:37 PM 30.4°F-0.9°C 19.5°F-6.9°C 64% 11.0 mph W17.7 kmh W -- 29.81 in1009.5 mb 0.00 in0.0 mm 0.00 in0.0 mm 0.02 in0.5 mm
02:36 PM 30.3°F-0.9°C 19.9°F-6.7°C 65% 12.0 mph W19.3 kmh W -- 29.81 in1009.5 mb 0.00 in0.0 mm 0.00 in0.0 mm 0.02 in0.5 mm
02:35 PM 30.3°F-0.9°C 19.9°F-6.7°C 65% 10.0 mph W16.1 kmh W -- 29.81 in1009.5 mb 0.00 in0.0 mm 0.00 in0.0 mm 0.02 in0.5 mm
02:34 PM 30.3°F-0.9°C 19.1°F-7.2°C 63% 10.0 mph WNW16.1 kmh WNW -- 29.81 in1009.5 mb 0.00 in0.0 mm 0.00 in0.0 mm 0.02 in0.5 mm
02:33 PM 30.5°F-0.8°C 19.3°F-7.1°C 63% 9.0 mph W14.5 kmh W -- 29.81 in1009.5 mb 0.00 in0.0 mm 0.00 in0.0 mm 0.02 in0.5 mm
02:32 PM 30.6°F-0.8°C 19.7°F-6.8°C 64% 10.0 mph W16.1 kmh W -- 29.81 in1009.5 mb 0.00 in0.0 mm 0.00 in0.0 mm 0.02 in0.5 mm
02:31 PM 30.5°F-0.8°C 19.3°F-7.1°C 63% 10.0 mph NW16.1 kmh NW -- 29.81 in1009.5 mb 0.00 in0.0 mm 0.00 in0.0 mm 0.02 in0.5 mm
02:30 PM 30.5°F-0.8°C 19.3°F-7.1°C 63% 11.0 mph W17.7 kmh W -- 29.81 in1009.5 mb 0.00 in0.0 mm 0.00 in0.0 mm 0.02 in0.5 mm
02:29 PM 30.5°F-0.8°C 19.3°F-7.1°C 63% 15.0 mph W24.1 kmh W -- 29.81 in1009.5 mb 0.00 in0.0 mm 0.00 in0.0 mm 0.02 in0.5 mm
02:28 PM 30.5°F-0.8°C 19.3°F-7.1°C 63% 14.0 mph W22.5 kmh W -- 29.81 in1009.5 mb 0.00 in0.0 mm 0.00 in0.0 mm 0.02 in0.5 mm
02:27 PM 30.6°F-0.8°C 19.7°F-6.8°C 64% 15.0 mph NW24.1 kmh NW -- 29.80 in1009.1 mb 0.00 in0.0 mm 0.00 in0.0 mm 0.02 in0.5 mm
02:25 PM 30.5°F-0.8°C 20.1°F-6.6°C 65% 9.0 mph W14.5 kmh W -- 29.80 in1009.1 mb 0.00 in0.0 mm 0.00 in0.0 mm 0.02 in0.5 mm
02:24 PM 30.7°F-0.7°C 20.2°F-6.6°C 65% 12.0 mph W19.3 kmh W -- 29.80 in1009.1 mb 0.00 in0.0 mm 0.00 in0.0 mm 0.02 in0.5 mm
02:23 PM 30.7°F-0.7°C 19.5°F-6.9°C 63% 10.0 mph WNW16.1 kmh WNW -- 29.80 in1009.1 mb 0.00 in0.0 mm 0.00 in0.0 mm 0.02 in0.5 mm
02:22 PM 30.7°F-0.7°C 19.5°F-6.9°C 63% 10.0 mph W16.1 kmh W -- 29.80 in1009.1 mb 0.00 in0.0 mm 0.00 in0.0 mm 0.02 in0.5 mm
02:21 PM 30.7°F-0.7°C 19.5°F-6.9°C 63% 15.0 mph W24.1 kmh W -- 29.80 in1009.1 mb 0.00 in0.0 mm 0.00 in0.0 mm 0.02 in0.5 mm
02:20 PM 30.7°F-0.7°C 19.5°F-6.9°C 63% 13.0 mph W20.9 kmh W -- 29.80 in1009.1 mb 0.00 in0.0 mm 0.00 in0.0 mm 0.02 in0.5 mm
02:19 PM 30.7°F-0.7°C 19.5°F-6.9°C 63% 9.0 mph W14.5 kmh W -- 29.80 in1009.1 mb 0.00 in0.0 mm 0.00 in0.0 mm 0.02 in0.5 mm
02:18 PM 30.7°F-0.7°C 19.5°F-6.9°C 63% 15.0 mph W24.1 kmh W -- 29.80 in1009.1 mb 0.00 in0.0 mm 0.00 in0.0 mm 0.02 in0.5 mm
02:17 PM 30.7°F-0.7°C 19.9°F-6.7°C 64% 11.0 mph W17.7 kmh W -- 29.80 in1009.1 mb 0.00 in0.0 mm 0.00 in0.0 mm 0.02 in0.5 mm
02:16 PM 30.7°F-0.7°C 19.5°F-6.9°C 63% 11.0 mph W17.7 kmh W -- 29.80 in1009.1 mb 0.00 in0.0 mm 0.00 in0.0 mm 0.02 in0.5 mm
02:15 PM 30.7°F-0.7°C 19.5°F-6.9°C 63% 14.0 mph W22.5 kmh W -- 29.80 in1009.1 mb 0.00 in0.0 mm 0.00 in0.0 mm 0.02 in0.5 mm
02:14 PM 30.7°F-0.7°C 19.5°F-6.9°C 63% 11.0 mph W17.7 kmh W -- 29.80 in1009.1 mb 0.00 in0.0 mm 0.00 in0.0 mm 0.02 in0.5 mm
02:13 PM 30.7°F-0.7°C 19.5°F-6.9°C 63% 9.0 mph W14.5 kmh W -- 29.79 in1008.8 mb 0.00 in0.0 mm 0.00 in0.0 mm 0.02 in0.5 mm
02:12 PM 30.9°F-0.6°C 20.0°F-6.7°C 64% 10.0 mph W16.1 kmh W -- 29.79 in1008.8 mb 0.00 in0.0 mm 0.00 in0.0 mm 0.02 in0.5 mm
02:11 PM 30.8°F-0.7°C 19.5°F-6.9°C 63% 12.0 mph W19.3 kmh W -- 29.79 in1008.8 mb 0.00 in0.0 mm 0.00 in0.0 mm 0.02 in0.5 mm
02:09 PM 30.8°F-0.7°C 19.5°F-6.9°C 63% 11.0 mph W17.7 kmh W -- 29.79 in1008.8 mb 0.00 in0.0 mm 0.00 in0.0 mm 0.02 in0.5 mm
02:08 PM 30.8°F-0.7°C 20.2°F-6.6°C 65% 11.0 mph W17.7 kmh W -- 29.79 in1008.8 mb 0.00 in0.0 mm 0.00 in0.0 mm 0.02 in0.5 mm
02:07 PM 30.9°F-0.6°C 20.0°F-6.7°C 64% 11.0 mph W17.7 kmh W -- 29.79 in1008.8 mb 0.00 in0.0 mm 0.00 in0.0 mm 0.02 in0.5 mm
02:06 PM 30.8°F-0.7°C 19.5°F-6.9°C 63% 10.0 mph W16.1 kmh W -- 29.78 in1008.5 mb 0.00 in0.0 mm 0.00 in0.0 mm 0.02 in0.5 mm
02:05 PM 30.8°F-0.7°C 19.5°F-6.9°C 63% 13.0 mph W20.9 kmh W -- 29.78 in1008.5 mb 0.00 in0.0 mm 0.00 in0.0 mm 0.02 in0.5 mm
02:04 PM 30.8°F-0.7°C 19.5°F-6.9°C 63% 14.0 mph W22.5 kmh W -- 29.78 in1008.5 mb 0.00 in0.0 mm 0.00 in0.0 mm 0.02 in0.5 mm
02:03 PM 30.8°F-0.7°C 19.5°F-6.9°C 63% 8.0 mph W12.9 kmh W -- 29.78 in1008.5 mb 0.00 in0.0 mm 0.00 in0.0 mm 0.02 in0.5 mm
02:02 PM 30.9°F-0.6°C 20.0°F-6.7°C 64% 10.0 mph W16.1 kmh W -- 29.78 in1008.5 mb 0.00 in0.0 mm 0.00 in0.0 mm 0.02 in0.5 mm
02:01 PM 30.8°F-0.7°C 19.5°F-6.9°C 63% 12.0 mph W19.3 kmh W -- 29.78 in1008.5 mb 0.00 in0.0 mm 0.00 in0.0 mm 0.02 in0.5 mm
02:00 PM 30.8°F-0.7°C 19.5°F-6.9°C 63% 13.0 mph NNW20.9 kmh NNW -- 29.78 in1008.5 mb 0.00 in0.0 mm 0.00 in0.0 mm 0.02 in0.5 mm
01:59 PM 30.8°F-0.7°C 19.5°F-6.9°C 63% 12.0 mph W19.3 kmh W -- 29.78 in1008.5 mb 0.00 in0.0 mm 0.00 in0.0 mm 0.02 in0.5 mm
01:58 PM 30.8°F-0.7°C 19.5°F-6.9°C 63% 11.0 mph WNW17.7 kmh WNW -- 29.78 in1008.5 mb 0.00 in0.0 mm 0.00 in0.0 mm 0.02 in0.5 mm
01:57 PM 30.9°F-0.6°C 20.4°F-6.4°C 65% 16.0 mph W25.7 kmh W -- 29.78 in1008.5 mb 0.00 in0.0 mm 0.00 in0.0 mm 0.02 in0.5 mm
01:56 PM 30.8°F-0.7°C 20.2°F-6.6°C 65% 11.0 mph W17.7 kmh W -- 29.77 in1008.1 mb 0.00 in0.0 mm 0.00 in0.0 mm 0.02 in0.5 mm
01:55 PM 30.7°F-0.7°C 20.2°F-6.6°C 65% 15.0 mph W24.1 kmh W -- 29.78 in1008.5 mb 0.00 in0.0 mm 0.00 in0.0 mm 0.02 in0.5 mm
01:54 PM 30.7°F-0.7°C 20.2°F-6.6°C 65% 13.0 mph WNW20.9 kmh WNW -- 29.78 in1008.5 mb 0.00 in0.0 mm 0.00 in0.0 mm 0.02 in0.5 mm
01:53 PM 30.7°F-0.7°C 20.2°F-6.6°C 65% 13.0 mph W20.9 kmh W -- 29.77 in1008.1 mb 0.00 in0.0 mm 0.00 in0.0 mm 0.02 in0.5 mm
01:52 PM 30.7°F-0.7°C 20.2°F-6.6°C 65% 16.0 mph W25.7 kmh W -- 29.77 in1008.1 mb 0.00 in0.0 mm 0.00 in0.0 mm 0.02 in0.5 mm
01:51 PM 30.7°F-0.7°C 20.2°F-6.6°C 65% 12.0 mph W19.3 kmh W -- 29.77 in1008.1 mb 0.00 in0.0 mm 0.00 in0.0 mm 0.02 in0.5 mm
01:50 PM 30.7°F-0.7°C 20.2°F-6.6°C 65% 13.0 mph W20.9 kmh W -- 29.77 in1008.1 mb 0.00 in0.0 mm 0.00 in0.0 mm 0.02 in0.5 mm
01:49 PM 30.7°F-0.7°C 20.2°F-6.6°C 65% 19.0 mph NW30.6 kmh NW -- 29.77 in1008.1 mb 0.00 in0.0 mm 0.00 in0.0 mm 0.02 in0.5 mm
01:48 PM 30.7°F-0.7°C 20.2°F-6.6°C 65% 13.0 mph W20.9 kmh W -- 29.77 in1008.1 mb 0.00 in0.0 mm 0.00 in0.0 mm 0.02 in0.5 mm
01:47 PM 30.9°F-0.6°C 20.4°F-6.4°C 65% 11.0 mph WSW17.7 kmh WSW -- 29.77 in1008.1 mb 0.00 in0.0 mm 0.00 in0.0 mm 0.02 in0.5 mm
01:46 PM 30.8°F-0.7°C 20.2°F-6.6°C 65% 10.0 mph W16.1 kmh W -- 29.77 in1008.1 mb 0.00 in0.0 mm 0.00 in0.0 mm 0.02 in0.5 mm
01:45 PM 30.8°F-0.7°C 19.5°F-6.9°C 63% 17.0 mph NW27.4 kmh NW -- 29.77 in1008.1 mb 0.00 in0.0 mm 0.00 in0.0 mm 0.02 in0.5 mm
01:44 PM 30.8°F-0.7°C 19.5°F-6.9°C 63% 19.0 mph WNW30.6 kmh WNW -- 29.77 in1008.1 mb 0.00 in0.0 mm 0.00 in0.0 mm 0.02 in0.5 mm
01:43 PM 31.1°F-0.5°C 19.8°F-6.8°C 63% 22.0 mph W35.4 kmh W -- 29.76 in1007.8 mb 0.00 in0.0 mm 0.00 in0.0 mm 0.02 in0.5 mm
01:42 PM 31.1°F-0.5°C 20.2°F-6.6°C 64% 12.0 mph W19.3 kmh W -- 29.77 in1008.1 mb 0.00 in0.0 mm 0.00 in0.0 mm 0.02 in0.5 mm
01:41 PM 31.1°F-0.5°C 19.8°F-6.8°C 63% 12.0 mph WNW19.3 kmh WNW -- 29.77 in1008.1 mb 0.00 in0.0 mm 0.00 in0.0 mm 0.02 in0.5 mm
01:40 PM 31.1°F-0.5°C 19.8°F-6.8°C 63% 15.0 mph NW24.1 kmh NW -- 29.76 in1007.8 mb 0.00 in0.0 mm 0.00 in0.0 mm 0.02 in0.5 mm
01:39 PM 31.1°F-0.5°C 19.8°F-6.8°C 63% 14.0 mph W22.5 kmh W -- 29.76 in1007.8 mb 0.00 in0.0 mm 0.00 in0.0 mm 0.02 in0.5 mm
01:38 PM 31.2°F-0.4°C 20.0°F-6.7°C 63% 19.0 mph W30.6 kmh W -- 29.76 in1007.8 mb 0.00 in0.0 mm 0.00 in0.0 mm 0.02 in0.5 mm
01:37 PM 31.3°F-0.4°C 20.4°F-6.4°C 64% 10.0 mph W16.1 kmh W -- 29.76 in1007.8 mb 0.00 in0.0 mm 0.00 in0.0 mm 0.02 in0.5 mm
01:36 PM 31.2°F-0.4°C 20.0°F-6.7°C 63% 10.0 mph W16.1 kmh W -- 29.76 in1007.8 mb 0.00 in0.0 mm 0.00 in0.0 mm 0.02 in0.5 mm
01:35 PM 31.2°F-0.4°C 20.0°F-6.7°C 63% 15.0 mph WSW24.1 kmh WSW -- 29.76 in1007.8 mb 0.00 in0.0 mm 0.00 in0.0 mm 0.02 in0.5 mm
01:34 PM 31.2°F-0.4°C 20.0°F-6.7°C 63% 12.0 mph W19.3 kmh W -- 29.76 in1007.8 mb 0.00 in0.0 mm 0.00 in0.0 mm 0.02 in0.5 mm
01:33 PM 31.2°F-0.4°C 20.0°F-6.7°C 63% 13.0 mph W20.9 kmh W -- 29.75 in1007.5 mb 0.00 in0.0 mm 0.00 in0.0 mm 0.02 in0.5 mm
01:32 PM 31.3°F-0.4°C 20.4°F-6.4°C 64% 17.0 mph W27.4 kmh W -- 29.76 in1007.8 mb 0.00 in0.0 mm 0.00 in0.0 mm 0.02 in0.5 mm
01:31 PM 31.2°F-0.4°C 20.7°F-6.3°C 65% 15.0 mph W24.1 kmh W -- 29.76 in1007.8 mb 0.00 in0.0 mm 0.00 in0.0 mm 0.02 in0.5 mm
01:30 PM 31.2°F-0.4°C 20.7°F-6.3°C 65% 11.0 mph W17.7 kmh W -- 29.75 in1007.5 mb 0.00 in0.0 mm 0.00 in0.0 mm 0.02 in0.5 mm
01:29 PM 31.5°F-0.3°C 20.2°F-6.6°C 63% 9.0 mph NW14.5 kmh NW -- 29.75 in1007.5 mb 0.00 in0.0 mm 0.00 in0.0 mm 0.02 in0.5 mm
01:28 PM 31.5°F-0.3°C 20.2°F-6.6°C 63% 15.0 mph W24.1 kmh W -- 29.76 in1007.8 mb 0.00 in0.0 mm 0.00 in0.0 mm 0.02 in0.5 mm
01:27 PM 31.5°F-0.3°C 20.5°F-6.4°C 64% 18.0 mph W29.0 kmh W -- 29.75 in1007.5 mb 0.00 in0.0 mm 0.00 in0.0 mm 0.02 in0.5 mm
01:26 PM 31.5°F-0.3°C 20.2°F-6.6°C 63% 16.0 mph W25.7 kmh W -- 29.75 in1007.5 mb 0.00 in0.0 mm 0.00 in0.0 mm 0.02 in0.5 mm
01:25 PM 31.5°F-0.3°C 20.2°F-6.6°C 63% 16.0 mph WNW25.7 kmh WNW -- 29.75 in1007.5 mb 0.00 in0.0 mm 0.00 in0.0 mm 0.02 in0.5 mm
01:24 PM 31.5°F-0.3°C 20.2°F-6.6°C 63% 11.0 mph WSW17.7 kmh WSW -- 29.75 in1007.5 mb 0.00 in0.0 mm 0.00 in0.0 mm 0.02 in0.5 mm
01:23 PM 31.5°F-0.3°C 20.2°F-6.6°C 63% 10.0 mph W16.1 kmh W -- 29.75 in1007.5 mb 0.00 in0.0 mm 0.00 in0.0 mm 0.02 in0.5 mm
01:22 PM 31.5°F-0.3°C 20.5°F-6.4°C 64% 16.0 mph W25.7 kmh W -- 29.75 in1007.5 mb 0.00 in0.0 mm 0.00 in0.0 mm 0.02 in0.5 mm
01:21 PM 31.5°F-0.3°C 20.2°F-6.6°C 63% 14.0 mph NW22.5 kmh NW -- 29.75 in1007.5 mb 0.00 in0.0 mm 0.00 in0.0 mm 0.02 in0.5 mm
01:20 PM 31.5°F-0.3°C 20.2°F-6.6°C 63% 16.0 mph WNW25.7 kmh WNW -- 29.75 in1007.5 mb 0.00 in0.0 mm 0.00 in0.0 mm 0.02 in0.5 mm
01:19 PM 31.5°F-0.3°C 20.2°F-6.6°C 63% 18.0 mph W29.0 kmh W -- 29.75 in1007.5 mb 0.00 in0.0 mm 0.00 in0.0 mm 0.02 in0.5 mm
01:18 PM 31.5°F-0.3°C 20.2°F-6.6°C 63% 13.0 mph WNW20.9 kmh WNW -- 29.74 in1007.1 mb 0.00 in0.0 mm 0.00 in0.0 mm 0.02 in0.5 mm
01:17 PM 31.5°F-0.3°C 20.9°F-6.2°C 65% 20.0 mph W32.2 kmh W -- 29.74 in1007.1 mb 0.00 in0.0 mm 0.00 in0.0 mm 0.02 in0.5 mm
01:16 PM 31.5°F-0.3°C 20.9°F-6.2°C 65% 10.0 mph W16.1 kmh W -- 29.75 in1007.5 mb 0.00 in0.0 mm 0.00 in0.0 mm 0.02 in0.5 mm
01:15 PM 31.5°F-0.3°C 20.9°F-6.2°C 65% 17.0 mph W27.4 kmh W -- 29.75 in1007.5 mb 0.00 in0.0 mm 0.00 in0.0 mm 0.02 in0.5 mm
01:14 PM 31.5°F-0.3°C 20.9°F-6.2°C 65% 13.0 mph W20.9 kmh W -- 29.75 in1007.5 mb 0.00 in0.0 mm 0.00 in0.0 mm 0.02 in0.5 mm
01:13 PM 31.5°F-0.3°C 20.9°F-6.2°C 65% 11.0 mph W17.7 kmh W -- 29.74 in1007.1 mb 0.00 in0.0 mm 0.00 in0.0 mm 0.02 in0.5 mm
01:12 PM 31.5°F-0.3°C 20.9°F-6.2°C 65% 15.0 mph W24.1 kmh W -- 29.74 in1007.1 mb 0.00 in0.0 mm 0.00 in0.0 mm 0.02 in0.5 mm
01:11 PM 31.5°F-0.3°C 20.2°F-6.6°C 63% 12.0 mph W19.3 kmh W -- 29.74 in1007.1 mb 0.00 in0.0 mm 0.00 in0.0 mm 0.02 in0.5 mm
01:10 PM 31.5°F-0.3°C 20.9°F-6.2°C 65% 14.0 mph W22.5 kmh W -- 29.74 in1007.1 mb 0.00 in0.0 mm 0.00 in0.0 mm 0.02 in0.5 mm
01:09 PM 31.5°F-0.3°C 20.9°F-6.2°C 65% 18.0 mph WNW29.0 kmh WNW -- 29.74 in1007.1 mb 0.00 in0.0 mm 0.00 in0.0 mm 0.02 in0.5 mm
01:08 PM 31.5°F-0.3°C 20.9°F-6.2°C 65% 9.0 mph WNW14.5 kmh WNW -- 29.75 in1007.5 mb 0.00 in0.0 mm 0.00 in0.0 mm 0.02 in0.5 mm
01:07 PM 31.5°F-0.3°C 20.9°F-6.2°C 65% 11.0 mph W17.7 kmh W -- 29.74 in1007.1 mb 0.00 in0.0 mm 0.00 in0.0 mm 0.02 in0.5 mm
01:06 PM 31.5°F-0.3°C 20.9°F-6.2°C 65% 15.0 mph WNW24.1 kmh WNW -- 29.74 in1007.1 mb 0.00 in0.0 mm 0.00 in0.0 mm 0.02 in0.5 mm
01:05 PM 31.5°F-0.3°C 20.9°F-6.2°C 65% 14.0 mph WNW22.5 kmh WNW -- 29.74 in1007.1 mb 0.00 in0.0 mm 0.00 in0.0 mm 0.02 in0.5 mm
01:04 PM 31.5°F-0.3°C 20.9°F-6.2°C 65% 11.0 mph WNW17.7 kmh WNW -- 29.74 in1007.1 mb 0.00 in0.0 mm 0.00 in0.0 mm 0.02 in0.5 mm
01:03 PM 31.5°F-0.3°C 20.9°F-6.2°C 65% 13.0 mph WNW20.9 kmh WNW -- 29.74 in1007.1 mb 0.00 in0.0 mm 0.00 in0.0 mm 0.02 in0.5 mm
01:02 PM 31.5°F-0.3°C 20.9°F-6.2°C 65% 27.0 mph WNW43.5 kmh WNW -- 29.74 in1007.1 mb 0.00 in0.0 mm 0.00 in0.0 mm 0.02 in0.5 mm
01:01 PM 31.5°F-0.3°C 20.9°F-6.2°C 65% 24.0 mph W38.6 kmh W -- 29.74 in1007.1 mb 0.00 in0.0 mm 0.00 in0.0 mm 0.02 in0.5 mm
01:00 PM 31.6°F-0.2°C 21.1°F-6.1°C 65% 11.0 mph WSW17.7 kmh WSW -- 29.74 in1007.1 mb 0.00 in0.0 mm 0.00 in0.0 mm 0.02 in0.5 mm
12:59 PM 31.6°F-0.2°C 21.1°F-6.1°C 65% 16.0 mph W25.7 kmh W -- 29.73 in1006.8 mb 0.00 in0.0 mm 0.00 in0.0 mm 0.02 in0.5 mm
12:58 PM 31.6°F-0.2°C 21.1°F-6.1°C 65% 17.0 mph W27.4 kmh W -- 29.74 in1007.1 mb 0.00 in0.0 mm 0.00 in0.0 mm 0.02 in0.5 mm
12:57 PM 31.6°F-0.2°C 21.1°F-6.1°C 65% 14.0 mph W22.5 kmh W -- 29.73 in1006.8 mb 0.00 in0.0 mm 0.00 in0.0 mm 0.02 in0.5 mm
12:56 PM 31.7°F-0.2°C 21.1°F-6.1°C 65% 19.0 mph WNW30.6 kmh WNW -- 29.73 in1006.8 mb 0.00 in0.0 mm 0.00 in0.0 mm 0.02 in0.5 mm
12:55 PM 31.7°F-0.2°C 21.1°F-6.1°C 65% 19.0 mph W30.6 kmh W -- 29.73 in1006.8 mb 0.00 in0.0 mm 0.00 in0.0 mm 0.02 in0.5 mm
12:54 PM 31.7°F-0.2°C 20.3°F-6.5°C 63% 9.0 mph WNW14.5 kmh WNW -- 29.73 in1006.8 mb 0.00 in0.0 mm 0.00 in0.0 mm 0.02 in0.5 mm
12:53 PM 31.7°F-0.2°C 20.3°F-6.5°C 63% 13.0 mph W20.9 kmh W -- 29.73 in1006.8 mb 0.00 in0.0 mm 0.00 in0.0 mm 0.02 in0.5 mm
12:52 PM 31.8°F-0.1°C 21.3°F-5.9°C 65% 19.0 mph WNW30.6 kmh WNW -- 29.73 in1006.8 mb 0.00 in0.0 mm 0.00 in0.0 mm 0.02 in0.5 mm
12:51 PM 31.7°F-0.2°C 21.1°F-6.1°C 65% 12.0 mph W19.3 kmh W -- 29.73 in1006.8 mb 0.00 in0.0 mm 0.00 in0.0 mm 0.02 in0.5 mm
12:50 PM 31.7°F-0.2°C 21.1°F-6.1°C 65% 8.0 mph W12.9 kmh W -- 29.73 in1006.8 mb 0.00 in0.0 mm 0.00 in0.0 mm 0.02 in0.5 mm
12:49 PM 31.7°F-0.2°C 21.1°F-6.1°C 65% 13.0 mph W20.9 kmh W -- 29.72 in1006.4 mb 0.00 in0.0 mm 0.00 in0.0 mm 0.02 in0.5 mm
12:48 PM 31.7°F-0.2°C 21.1°F-6.1°C 65% 17.0 mph WNW27.4 kmh WNW -- 29.73 in1006.8 mb 0.00 in0.0 mm 0.00 in0.0 mm 0.02 in0.5 mm
12:47 PM 31.8°F-0.1°C 21.3°F-5.9°C 65% 11.0 mph W17.7 kmh W -- 29.73 in1006.8 mb 0.00 in0.0 mm 0.00 in0.0 mm 0.02 in0.5 mm
12:46 PM 31.7°F-0.2°C 21.1°F-6.1°C 65% 16.0 mph NW25.7 kmh NW -- 29.73 in1006.8 mb 0.00 in0.0 mm 0.00 in0.0 mm 0.02 in0.5 mm
12:45 PM 31.7°F-0.2°C 21.1°F-6.1°C 65% 14.0 mph W22.5 kmh W -- 29.73 in1006.8 mb 0.00 in0.0 mm 0.00 in0.0 mm 0.02 in0.5 mm
12:44 PM 31.7°F-0.2°C 21.1°F-6.1°C 65% 15.0 mph WNW24.1 kmh WNW -- 29.72 in1006.4 mb 0.00 in0.0 mm 0.00 in0.0 mm 0.02 in0.5 mm
12:43 PM 31.7°F-0.2°C 21.1°F-6.1°C 65% 10.0 mph NW16.1 kmh NW -- 29.72 in1006.4 mb 0.00 in0.0 mm 0.00 in0.0 mm 0.02 in0.5 mm
12:42 PM 31.8°F-0.1°C 21.3°F-5.9°C 65% 16.0 mph WNW25.7 kmh WNW -- 29.73 in1006.8 mb 0.00 in0.0 mm 0.00 in0.0 mm 0.02 in0.5 mm
12:41 PM 31.7°F-0.2°C 21.1°F-6.1°C 65% 11.0 mph WNW17.7 kmh WNW -- 29.73 in1006.8 mb 0.00 in0.0 mm 0.00 in0.0 mm 0.02 in0.5 mm
12:40 PM 31.7°F-0.2°C 21.1°F-6.1°C 65% 17.0 mph W27.4 kmh W -- 29.73 in1006.8 mb 0.00 in0.0 mm 0.00 in0.0 mm 0.02 in0.5 mm
12:39 PM 31.7°F-0.2°C 21.1°F-6.1°C 65% 12.0 mph W19.3 kmh W -- 29.73 in1006.8 mb 0.00 in0.0 mm 0.00 in0.0 mm 0.02 in0.5 mm
12:38 PM 31.7°F-0.2°C 21.1°F-6.1°C 65% 16.0 mph WNW25.7 kmh WNW -- 29.73 in1006.8 mb 0.00 in0.0 mm 0.00 in0.0 mm 0.02 in0.5 mm
12:37 PM 31.6°F-0.2°C 21.5°F-5.8°C 66% 9.0 mph W14.5 kmh W -- 29.73 in1006.8 mb 0.00 in0.0 mm 0.00 in0.0 mm 0.02 in0.5 mm
12:36 PM 31.6°F-0.2°C 21.1°F-6.1°C 65% 11.0 mph W17.7 kmh W -- 29.72 in1006.4 mb 0.00 in0.0 mm 0.00 in0.0 mm 0.02 in0.5 mm
12:35 PM 31.6°F-0.2°C 21.1°F-6.1°C 65% 17.0 mph WNW27.4 kmh WNW -- 29.72 in1006.4 mb 0.00 in0.0 mm 0.00 in0.0 mm 0.02 in0.5 mm
12:34 PM 31.6°F-0.2°C 21.1°F-6.1°C 65% 10.0 mph NW16.1 kmh NW -- 29.73 in1006.8 mb 0.00 in0.0 mm 0.00 in0.0 mm 0.02 in0.5 mm
12:33 PM 31.6°F-0.2°C 21.1°F-6.1°C 65% 10.0 mph W16.1 kmh W -- 29.72 in1006.4 mb 0.00 in0.0 mm 0.00 in0.0 mm 0.02 in0.5 mm
12:32 PM 31.6°F-0.2°C 21.5°F-5.8°C 66% 12.0 mph WNW19.3 kmh WNW -- 29.72 in1006.4 mb 0.00 in0.0 mm 0.00 in0.0 mm 0.02 in0.5 mm
12:31 PM 31.6°F-0.2°C 21.1°F-6.1°C 65% 17.0 mph WNW27.4 kmh WNW -- 29.72 in1006.4 mb 0.00 in0.0 mm 0.00 in0.0 mm 0.02 in0.5 mm
12:30 PM 31.6°F-0.2°C 21.1°F-6.1°C 65% 10.0 mph NNW16.1 kmh NNW -- 29.72 in1006.4 mb 0.00 in0.0 mm 0.00 in0.0 mm 0.02 in0.5 mm
12:29 PM 31.6°F-0.2°C 21.5°F-5.8°C 66% 10.0 mph W16.1 kmh W -- 29.72 in1006.4 mb 0.00 in0.0 mm 0.00 in0.0 mm 0.02 in0.5 mm
12:27 PM 31.6°F-0.2°C 21.5°F-5.8°C 66% 11.0 mph W17.7 kmh W -- 29.72 in1006.4 mb 0.00 in0.0 mm 0.00 in0.0 mm 0.02 in0.5 mm
12:26 PM 31.6°F-0.2°C 21.1°F-6.1°C 65% 20.0 mph W32.2 kmh W -- 29.72 in1006.4 mb 0.00 in0.0 mm 0.00 in0.0 mm 0.02 in0.5 mm
12:25 PM 31.6°F-0.2°C 21.1°F-6.1°C 65% 17.0 mph W27.4 kmh W -- 29.72 in1006.4 mb 0.00 in0.0 mm 0.00 in0.0 mm 0.02 in0.5 mm
12:24 PM 31.6°F-0.2°C 21.1°F-6.1°C 65% 18.0 mph W29.0 kmh W -- 29.72 in1006.4 mb 0.00 in0.0 mm 0.00 in0.0 mm 0.02 in0.5 mm
12:23 PM 31.6°F-0.2°C 21.1°F-6.1°C 65% 11.0 mph NW17.7 kmh NW -- 29.72 in1006.4 mb 0.00 in0.0 mm 0.00 in0.0 mm 0.02 in0.5 mm
12:22 PM 31.6°F-0.2°C 21.1°F-6.1°C 65% 18.0 mph WNW29.0 kmh WNW -- 29.72 in1006.4 mb 0.00 in0.0 mm 0.00 in0.0 mm 0.02 in0.5 mm
12:21 PM 31.6°F-0.2°C 21.1°F-6.1°C 65% 12.0 mph W19.3 kmh W -- 29.71 in1006.1 mb 0.00 in0.0 mm 0.00 in0.0 mm 0.02 in0.5 mm
12:20 PM 31.5°F-0.3°C 20.9°F-6.2°C 65% 18.0 mph WNW29.0 kmh WNW -- 29.71 in1006.1 mb 0.00 in0.0 mm 0.00 in0.0 mm 0.02 in0.5 mm
12:19 PM 31.5°F-0.3°C 20.9°F-6.2°C 65% 16.0 mph WNW25.7 kmh WNW -- 29.71 in1006.1 mb 0.00 in0.0 mm 0.00 in0.0 mm 0.02 in0.5 mm
12:18 PM 31.5°F-0.3°C 20.9°F-6.2°C 65% 21.0 mph NW33.8 kmh NW -- 29.72 in1006.4 mb 0.00 in0.0 mm 0.00 in0.0 mm 0.02 in0.5 mm
12:17 PM 31.5°F-0.3°C 21.3°F-5.9°C 66% 17.0 mph WNW27.4 kmh WNW -- 29.72 in1006.4 mb 0.00 in0.0 mm 0.00 in0.0 mm 0.02 in0.5 mm
12:16 PM 31.5°F-0.3°C 20.9°F-6.2°C 65% 17.0 mph WNW27.4 kmh WNW -- 29.72 in1006.4 mb 0.00 in0.0 mm 0.00 in0.0 mm 0.02 in0.5 mm
12:15 PM 31.5°F-0.3°C 20.9°F-6.2°C 65% 13.0 mph W20.9 kmh W -- 29.71 in1006.1 mb 0.00 in0.0 mm 0.00 in0.0 mm 0.02 in0.5 mm
12:14 PM 31.5°F-0.3°C 20.9°F-6.2°C 65% 16.0 mph WNW25.7 kmh WNW -- 29.71 in1006.1 mb 0.00 in0.0 mm 0.00 in0.0 mm 0.02 in0.5 mm
12:13 PM 31.5°F-0.3°C 21.3°F-5.9°C 66% 15.0 mph W24.1 kmh W -- 29.71 in1006.1 mb 0.00 in0.0 mm 0.00 in0.0 mm 0.02 in0.5 mm
12:12 PM 31.5°F-0.3°C 21.6°F-5.8°C 67% 14.0 mph WNW22.5 kmh WNW -- 29.71 in1006.1 mb 0.00 in0.0 mm 0.00 in0.0 mm 0.02 in0.5 mm
12:11 PM 31.5°F-0.3°C 20.9°F-6.2°C 65% 10.0 mph WNW16.1 kmh WNW -- 29.71 in1006.1 mb 0.00 in0.0 mm 0.00 in0.0 mm 0.02 in0.5 mm
12:10 PM 31.5°F-0.3°C 20.9°F-6.2°C 65% 12.0 mph W19.3 kmh W -- 29.71 in1006.1 mb 0.00 in0.0 mm 0.00 in0.0 mm 0.02 in0.5 mm
12:09 PM 31.5°F-0.3°C 20.9°F-6.2°C 65% 15.0 mph W24.1 kmh W -- 29.71 in1006.1 mb 0.00 in0.0 mm 0.00 in0.0 mm 0.02 in0.5 mm
12:08 PM 31.5°F-0.3°C 21.3°F-5.9°C 66% 21.0 mph W33.8 kmh W -- 29.71 in1006.1 mb 0.00 in0.0 mm 0.00 in0.0 mm 0.02 in0.5 mm
12:07 PM 31.5°F-0.3°C 21.6°F-5.8°C 67% 11.0 mph W17.7 kmh W -- 29.71 in1006.1 mb 0.00 in0.0 mm 0.00 in0.0 mm 0.02 in0.5 mm
12:06 PM 31.5°F-0.3°C 21.3°F-5.9°C 66% 18.0 mph W29.0 kmh W -- 29.71 in1006.1 mb 0.00 in0.0 mm 0.00 in0.0 mm 0.02 in0.5 mm
12:05 PM 31.5°F-0.3°C 21.3°F-5.9°C 66% 16.0 mph W25.7 kmh W -- 29.71 in1006.1 mb 0.00 in0.0 mm 0.00 in0.0 mm 0.02 in0.5 mm
12:04 PM 31.2°F-0.4°C 21.1°F-6.1°C 66% 11.0 mph W17.7 kmh W -- 29.71 in1006.1 mb 0.00 in0.0 mm 0.00 in0.0 mm 0.02 in0.5 mm
12:03 PM 31.2°F-0.4°C 21.1°F-6.1°C 66% 17.0 mph NW27.4 kmh NW -- 29.70 in1005.8 mb 0.00 in0.0 mm 0.00 in0.0 mm 0.02 in0.5 mm
12:02 PM 31.3°F-0.4°C 21.5°F-5.8°C 67% 13.0 mph WNW20.9 kmh WNW -- 29.71 in1006.1 mb 0.00 in0.0 mm 0.00 in0.0 mm 0.02 in0.5 mm
12:01 PM 31.2°F-0.4°C 21.1°F-6.1°C 66% 15.0 mph W24.1 kmh W -- 29.70 in1005.8 mb 0.00 in0.0 mm 0.00 in0.0 mm 0.02 in0.5 mm
12:00 PM 31.2°F-0.4°C 21.1°F-6.1°C 66% 8.0 mph W12.9 kmh W -- 29.70 in1005.8 mb 0.00 in0.0 mm 0.00 in0.0 mm 0.02 in0.5 mm
11:59 AM 31.2°F-0.4°C 21.1°F-6.1°C 66% 17.0 mph W27.4 kmh W -- 29.70 in1005.8 mb 0.00 in0.0 mm 0.00 in0.0 mm 0.02 in0.5 mm
11:58 AM 31.2°F-0.4°C 21.8°F-5.7°C 68% 12.0 mph W19.3 kmh W -- 29.70 in1005.8 mb 0.00 in0.0 mm 0.00 in0.0 mm 0.02 in0.5 mm
11:57 AM 31.1°F-0.5°C 21.6°F-5.8°C 68% 11.0 mph W17.7 kmh W -- 29.70 in1005.8 mb 0.00 in0.0 mm 0.00 in0.0 mm 0.02 in0.5 mm
11:56 AM 31.1°F-0.5°C 21.6°F-5.8°C 68% 12.0 mph W19.3 kmh W -- 29.70 in1005.8 mb 0.00 in0.0 mm 0.00 in0.0 mm 0.02 in0.5 mm
11:55 AM 31.1°F-0.5°C 21.6°F-5.8°C 68% 9.0 mph NW14.5 kmh NW -- 29.70 in1005.8 mb 0.00 in0.0 mm 0.00 in0.0 mm 0.02 in0.5 mm
11:54 AM 31.1°F-0.5°C 21.6°F-5.8°C 68% 13.0 mph NW20.9 kmh NW -- 29.70 in1005.8 mb 0.00 in0.0 mm 0.00 in0.0 mm 0.02 in0.5 mm
11:53 AM 31.1°F-0.5°C 21.6°F-5.8°C 68% 12.0 mph W19.3 kmh W -- 29.69 in1005.4 mb 0.00 in0.0 mm 0.00 in0.0 mm 0.02 in0.5 mm
11:52 AM 31.1°F-0.5°C 21.6°F-5.8°C 68% 16.0 mph WNW25.7 kmh WNW -- 29.70 in1005.8 mb 0.00 in0.0 mm 0.00 in0.0 mm 0.02 in0.5 mm
11:51 AM 30.8°F-0.7°C 21.3°F-5.9°C 68% 11.0 mph W17.7 kmh W -- 29.70 in1005.8 mb 0.00 in0.0 mm 0.00 in0.0 mm 0.02 in0.5 mm
11:50 AM 30.8°F-0.7°C 21.3°F-5.9°C 68% 9.0 mph NNW14.5 kmh NNW -- 29.70 in1005.8 mb 0.00 in0.0 mm 0.00 in0.0 mm 0.02 in0.5 mm
11:49 AM 30.8°F-0.7°C 21.3°F-5.9°C 68% 11.0 mph WNW17.7 kmh WNW -- 29.70 in1005.8 mb 0.00 in0.0 mm 0.00 in0.0 mm 0.02 in0.5 mm
11:48 AM 30.8°F-0.7°C 21.3°F-5.9°C 68% 10.0 mph WNW16.1 kmh WNW -- 29.70 in1005.8 mb 0.00 in0.0 mm 0.00 in0.0 mm 0.02 in0.5 mm
11:47 AM 30.8°F-0.7°C 21.3°F-5.9°C 68% 9.0 mph W14.5 kmh W -- 29.69 in1005.4 mb 0.00 in0.0 mm 0.00 in0.0 mm 0.02 in0.5 mm
11:46 AM 30.7°F-0.7°C 21.3°F-5.9°C 68% 12.0 mph WNW19.3 kmh WNW -- 29.69 in1005.4 mb 0.00 in0.0 mm 0.00 in0.0 mm 0.02 in0.5 mm
11:45 AM 30.5°F-0.8°C 21.1°F-6.1°C 68% 9.0 mph W14.5 kmh W -- 29.69 in1005.4 mb 0.00 in0.0 mm 0.00 in0.0 mm 0.02 in0.5 mm
11:44 AM 30.3°F-0.9°C 21.3°F-5.9°C 69% 9.0 mph W14.5 kmh W -- 29.69 in1005.4 mb 0.00 in0.0 mm 0.00 in0.0 mm 0.02 in0.5 mm
11:43 AM 30.0°F-1.1°C 21.0°F-6.1°C 69% 10.0 mph W16.1 kmh W -- 29.69 in1005.4 mb 0.00 in0.0 mm 0.00 in0.0 mm 0.02 in0.5 mm
11:42 AM 30.0°F-1.1°C 21.0°F-6.1°C 69% 11.0 mph W17.7 kmh W -- 29.69 in1005.4 mb 0.00 in0.0 mm 0.00 in0.0 mm 0.02 in0.5 mm
11:41 AM 30.0°F-1.1°C 21.0°F-6.1°C 69% 15.0 mph W24.1 kmh W -- 29.69 in1005.4 mb 0.00 in0.0 mm 0.00 in0.0 mm 0.02 in0.5 mm
11:40 AM 30.0°F-1.1°C 21.0°F-6.1°C 69% 14.0 mph NW22.5 kmh NW -- 29.69 in1005.4 mb 0.00 in0.0 mm 0.00 in0.0 mm 0.02 in0.5 mm
11:39 AM 29.8°F-1.2°C 20.8°F-6.2°C 69% 12.0 mph W19.3 kmh W -- 29.69 in1005.4 mb 0.00 in0.0 mm 0.00 in0.0 mm 0.02 in0.5 mm
11:38 AM 29.8°F-1.2°C 20.8°F-6.2°C 69% 18.0 mph W29.0 kmh W -- 29.69 in1005.4 mb 0.00 in0.0 mm 0.00 in0.0 mm 0.02 in0.5 mm
11:37 AM 29.7°F-1.3°C 20.6°F-6.3°C 69% 19.0 mph W30.6 kmh W -- 29.69 in1005.4 mb 0.00 in0.0 mm 0.00 in0.0 mm 0.02 in0.5 mm
11:36 AM 29.6°F-1.3°C 20.6°F-6.3°C 69% 13.0 mph WNW20.9 kmh WNW -- 29.69 in1005.4 mb 0.00 in0.0 mm 0.00 in0.0 mm 0.02 in0.5 mm
11:35 AM 29.6°F-1.3°C 20.6°F-6.3°C 69% 11.0 mph NW17.7 kmh NW -- 29.69 in1005.4 mb 0.00 in0.0 mm 0.00 in0.0 mm 0.02 in0.5 mm
11:34 AM 29.8°F-1.2°C 20.8°F-6.2°C 69% 9.0 mph NW14.5 kmh NW -- 29.69 in1005.4 mb 0.00 in0.0 mm 0.00 in0.0 mm 0.02 in0.5 mm
11:33 AM 29.8°F-1.2°C 20.8°F-6.2°C 69% 15.0 mph W24.1 kmh W -- 29.69 in1005.4 mb 0.00 in0.0 mm 0.00 in0.0 mm 0.02 in0.5 mm
11:31 AM 29.8°F-1.2°C 20.8°F-6.2°C 69% 15.0 mph W24.1 kmh W -- 29.68 in1005.1 mb 0.00 in0.0 mm 0.00 in0.0 mm 0.02 in0.5 mm
11:30 AM 29.8°F-1.2°C 20.8°F-6.2°C 69% 12.0 mph W19.3 kmh W -- 29.68 in1005.1 mb 0.00 in0.0 mm 0.00 in0.0 mm 0.02 in0.5 mm
11:29 AM 30.0°F-1.1°C 21.0°F-6.1°C 69% 17.0 mph W27.4 kmh W -- 29.69 in1005.4 mb 0.00 in0.0 mm 0.00 in0.0 mm 0.02 in0.5 mm
11:28 AM 30.0°F-1.1°C 21.0°F-6.1°C 69% 15.0 mph WNW24.1 kmh WNW -- 29.68 in1005.1 mb 0.00 in0.0 mm 0.00 in0.0 mm 0.02 in0.5 mm
11:27 AM 30.1°F-1.1°C 20.6°F-6.3°C 68% 9.0 mph W14.5 kmh W -- 29.69 in1005.4 mb 0.00 in0.0 mm 0.00 in0.0 mm 0.02 in0.5 mm
11:26 AM 30.1°F-1.1°C 20.6°F-6.3°C 68% 12.0 mph W19.3 kmh W -- 29.69 in1005.4 mb 0.00 in0.0 mm 0.00 in0.0 mm 0.02 in0.5 mm
11:25 AM 30.1°F-1.1°C 20.6°F-6.3°C 68% 16.0 mph W25.7 kmh W -- 29.69 in1005.4 mb 0.00 in0.0 mm 0.00 in0.0 mm 0.02 in0.5 mm
11:24 AM 30.1°F-1.1°C 20.6°F-6.3°C 68% 12.0 mph W19.3 kmh W -- 29.69 in1005.4 mb 0.00 in0.0 mm 0.00 in0.0 mm 0.02 in0.5 mm
11:23 AM 30.1°F-1.1°C 20.6°F-6.3°C 68% 15.0 mph WNW24.1 kmh WNW -- 29.68 in1005.1 mb 0.00 in0.0 mm 0.00 in0.0 mm 0.02 in0.5 mm
11:22 AM 30.1°F-1.1°C 20.6°F-6.3°C 68% 13.0 mph NW20.9 kmh NW -- 29.68 in1005.1 mb 0.00 in0.0 mm 0.00 in0.0 mm 0.02 in0.5 mm
11:21 AM 30.1°F-1.1°C 20.6°F-6.3°C 68% 17.0 mph W27.4 kmh W -- 29.68 in1005.1 mb 0.00 in0.0 mm 0.00 in0.0 mm 0.02 in0.5 mm
11:20 AM 30.1°F-1.1°C 21.0°F-6.1°C 69% 18.0 mph W29.0 kmh W -- 29.68 in1005.1 mb 0.00 in0.0 mm 0.00 in0.0 mm 0.02 in0.5 mm
11:19 AM 30.1°F-1.1°C 21.0°F-6.1°C 69% 11.0 mph W17.7 kmh W -- 29.68 in1005.1 mb 0.00 in0.0 mm 0.00 in0.0 mm 0.02 in0.5 mm
11:18 AM 30.5°F-0.8°C 21.1°F-6.1°C 68% 9.0 mph W14.5 kmh W -- 29.68 in1005.1 mb 0.00 in0.0 mm 0.00 in0.0 mm 0.02 in0.5 mm
11:17 AM 30.5°F-0.8°C 21.1°F-6.1°C 68% 11.0 mph W17.7 kmh W -- 29.68 in1005.1 mb 0.00 in0.0 mm 0.00 in0.0 mm 0.02 in0.5 mm
11:16 AM 30.5°F-0.8°C 20.4°F-6.4°C 66% 9.0 mph W14.5 kmh W -- 29.68 in1005.1 mb 0.00 in0.0 mm 0.00 in0.0 mm 0.02 in0.5 mm
11:15 AM 30.7°F-0.7°C 20.6°F-6.3°C 66% 15.0 mph NW24.1 kmh NW -- 29.67 in1004.7 mb 0.00 in0.0 mm 0.00 in0.0 mm 0.02 in0.5 mm
11:14 AM 30.9°F-0.6°C 20.8°F-6.2°C 66% 14.0 mph WNW22.5 kmh WNW -- 29.67 in1004.7 mb 0.00 in0.0 mm 0.00 in0.0 mm 0.02 in0.5 mm
11:13 AM 30.8°F-0.7°C 20.2°F-6.6°C 65% 15.0 mph W24.1 kmh W -- 29.67 in1004.7 mb 0.00 in0.0 mm 0.00 in0.0 mm 0.02 in0.5 mm
11:12 AM 30.8°F-0.7°C 20.2°F-6.6°C 65% 13.0 mph WNW20.9 kmh WNW -- 29.67 in1004.7 mb 0.00 in0.0 mm 0.00 in0.0 mm 0.02 in0.5 mm
11:11 AM 31.1°F-0.5°C 20.6°F-6.3°C 65% 15.0 mph WNW24.1 kmh WNW -- 29.67 in1004.7 mb 0.00 in0.0 mm 0.00 in0.0 mm 0.02 in0.5 mm
11:10 AM 31.1°F-0.5°C 20.6°F-6.3°C 65% 19.0 mph W30.6 kmh W -- 29.67 in1004.7 mb 0.00 in0.0 mm 0.00 in0.0 mm 0.02 in0.5 mm
11:08 AM 31.1°F-0.5°C 20.6°F-6.3°C 65% 12.0 mph WSW19.3 kmh WSW -- 29.67 in1004.7 mb 0.00 in0.0 mm 0.00 in0.0 mm 0.02 in0.5 mm
11:07 AM 31.1°F-0.5°C 20.6°F-6.3°C 65% 11.0 mph W17.7 kmh W -- 29.67 in1004.7 mb 0.00 in0.0 mm 0.00 in0.0 mm 0.02 in0.5 mm
11:06 AM 31.1°F-0.5°C 20.6°F-6.3°C 65% 20.0 mph WNW32.2 kmh WNW -- 29.67 in1004.7 mb 0.00 in0.0 mm 0.00 in0.0 mm 0.02 in0.5 mm
11:05 AM 31.2°F-0.4°C 20.7°F-6.3°C 65% 14.0 mph WNW22.5 kmh WNW -- 29.68 in1005.1 mb 0.00 in0.0 mm 0.00 in0.0 mm 0.02 in0.5 mm
11:04 AM 31.5°F-0.3°C 20.9°F-6.2°C 65% 17.0 mph SSW27.4 kmh SSW -- 29.68 in1005.1 mb 0.00 in0.0 mm 0.00 in0.0 mm 0.02 in0.5 mm
11:03 AM 31.5°F-0.3°C 20.9°F-6.2°C 65% 17.0 mph W27.4 kmh W -- 29.67 in1004.7 mb 0.00 in0.0 mm 0.00 in0.0 mm 0.02 in0.5 mm
11:02 AM 31.5°F-0.3°C 20.9°F-6.2°C 65% 10.0 mph W16.1 kmh W -- 29.67 in1004.7 mb 0.00 in0.0 mm 0.00 in0.0 mm 0.02 in0.5 mm
11:01 AM 31.5°F-0.3°C 20.9°F-6.2°C 65% 12.0 mph WNW19.3 kmh WNW -- 29.67 in1004.7 mb 0.00 in0.0 mm 0.00 in0.0 mm 0.02 in0.5 mm
11:00 AM 31.6°F-0.2°C 21.1°F-6.1°C 65% 20.0 mph WNW32.2 kmh WNW -- 29.68 in1005.1 mb 0.00 in0.0 mm 0.00 in0.0 mm 0.02 in0.5 mm
10:59 AM 31.6°F-0.2°C 21.5°F-5.8°C 66% 19.0 mph W30.6 kmh W -- 29.67 in1004.7 mb 0.00 in0.0 mm 0.00 in0.0 mm 0.02 in0.5 mm
10:58 AM 31.6°F-0.2°C 21.1°F-6.1°C 65% 13.0 mph W20.9 kmh W -- 29.67 in1004.7 mb 0.00 in0.0 mm 0.00 in0.0 mm 0.02 in0.5 mm
10:57 AM 31.6°F-0.2°C 21.1°F-6.1°C 65% 11.0 mph W17.7 kmh W -- 29.67 in1004.7 mb 0.00 in0.0 mm 0.00 in0.0 mm 0.02 in0.5 mm
10:56 AM 31.6°F-0.2°C 21.1°F-6.1°C 65% 19.0 mph W30.6 kmh W -- 29.67 in1004.7 mb 0.00 in0.0 mm 0.00 in0.0 mm 0.02 in0.5 mm
10:55 AM 31.6°F-0.2°C 21.1°F-6.1°C 65% 15.0 mph WNW24.1 kmh WNW -- 29.67 in1004.7 mb 0.00 in0.0 mm 0.00 in0.0 mm 0.02 in0.5 mm
10:54 AM 32.0°F0.0°C 21.8°F-5.7°C 66% 16.0 mph WNW25.7 kmh WNW -- 29.68 in1005.1 mb 0.00 in0.0 mm 0.00 in0.0 mm 0.02 in0.5 mm
10:53 AM 32.2°F0.1°C 20.9°F-6.2°C 63% 12.0 mph WNW19.3 kmh WNW -- 29.67 in1004.7 mb 0.00 in0.0 mm 0.00 in0.0 mm 0.02 in0.5 mm
10:52 AM 32.2°F0.1°C 20.9°F-6.2°C 63% 7.0 mph W11.3 kmh W -- 29.67 in1004.7 mb 0.00 in0.0 mm 0.00 in0.0 mm 0.02 in0.5 mm
10:51 AM 32.5°F0.3°C 21.2°F-6.0°C 63% 12.0 mph WNW19.3 kmh WNW -- 29.67 in1004.7 mb 0.00 in0.0 mm 0.00 in0.0 mm 0.02 in0.5 mm
10:50 AM 32.6°F0.3°C 21.2°F-6.0°C 63% 20.0 mph NW32.2 kmh NW -- 29.67 in1004.7 mb 0.00 in0.0 mm 0.00 in0.0 mm 0.02 in0.5 mm
10:49 AM 32.7°F0.4°C 21.4°F-5.9°C 63% 21.0 mph W33.8 kmh W -- 29.67 in1004.7 mb 0.00 in0.0 mm 0.00 in0.0 mm 0.02 in0.5 mm
10:48 AM 32.6°F0.3°C 21.2°F-6.0°C 63% 17.0 mph W27.4 kmh W -- 29.67 in1004.7 mb 0.00 in0.0 mm 0.00 in0.0 mm 0.02 in0.5 mm
10:47 AM 32.6°F0.3°C 21.2°F-6.0°C 63% 14.0 mph W22.5 kmh W -- 29.66 in1004.4 mb 0.00 in0.0 mm 0.00 in0.0 mm 0.02 in0.5 mm
10:46 AM 32.6°F0.3°C 21.2°F-6.0°C 63% 12.0 mph WSW19.3 kmh WSW -- 29.66 in1004.4 mb 0.00 in0.0 mm 0.00 in0.0 mm 0.02 in0.5 mm
10:45 AM 32.6°F0.3°C 21.2°F-6.0°C 63% 21.0 mph W33.8 kmh W -- 29.66 in1004.4 mb 0.00 in0.0 mm 0.00 in0.0 mm 0.02 in0.5 mm
10:44 AM 32.7°F0.4°C 21.0°F-6.1°C 62% 14.0 mph W22.5 kmh W -- 29.67 in1004.7 mb 0.00 in0.0 mm 0.00 in0.0 mm 0.02 in0.5 mm
10:43 AM 32.6°F0.3°C 20.4°F-6.4°C 61% 23.0 mph W37.0 kmh W -- 29.66 in1004.4 mb 0.00 in0.0 mm 0.00 in0.0 mm 0.02 in0.5 mm
10:42 AM 32.6°F0.3°C 20.4°F-6.4°C 61% 11.0 mph W17.7 kmh W -- 29.66 in1004.4 mb 0.00 in0.0 mm 0.00 in0.0 mm 0.02 in0.5 mm
10:41 AM 32.6°F0.3°C 20.4°F-6.4°C 61% 21.0 mph WNW33.8 kmh WNW -- 29.66 in1004.4 mb 0.00 in0.0 mm 0.00 in0.0 mm 0.02 in0.5 mm
10:40 AM 32.6°F0.3°C 20.4°F-6.4°C 61% 18.0 mph W29.0 kmh W -- 29.66 in1004.4 mb 0.00 in0.0 mm 0.00 in0.0 mm 0.02 in0.5 mm
10:39 AM 32.7°F0.4°C 21.0°F-6.1°C 62% 19.0 mph W30.6 kmh W -- 29.65 in1004.1 mb 0.00 in0.0 mm 0.00 in0.0 mm 0.02 in0.5 mm
10:38 AM 32.6°F0.3°C 20.4°F-6.4°C 61% 14.0 mph W22.5 kmh W -- 29.65 in1004.1 mb 0.00 in0.0 mm 0.00 in0.0 mm 0.02 in0.5 mm
10:37 AM 32.6°F0.3°C 20.4°F-6.4°C 61% 22.0 mph NW35.4 kmh NW -- 29.65 in1004.1 mb 0.00 in0.0 mm 0.00 in0.0 mm 0.02 in0.5 mm
10:36 AM 32.6°F0.3°C 20.4°F-6.4°C 61% 13.0 mph WNW20.9 kmh WNW -- 29.66 in1004.4 mb 0.00 in0.0 mm 0.00 in0.0 mm 0.02 in0.5 mm
10:35 AM 32.6°F0.3°C 20.4°F-6.4°C 61% 20.0 mph W32.2 kmh W -- 29.65 in1004.1 mb 0.00 in0.0 mm 0.00 in0.0 mm 0.02 in0.5 mm
10:34 AM 32.7°F0.4°C 21.0°F-6.1°C 62% 18.0 mph WNW29.0 kmh WNW -- 29.65 in1004.1 mb 0.00 in0.0 mm 0.00 in0.0 mm 0.02 in0.5 mm
10:33 AM 32.6°F0.3°C 21.2°F-6.0°C 63% 13.0 mph WNW20.9 kmh WNW -- 29.65 in1004.1 mb 0.00 in0.0 mm 0.00 in0.0 mm 0.02 in0.5 mm
10:32 AM 32.6°F0.3°C 21.2°F-6.0°C 63% 15.0 mph WNW24.1 kmh WNW -- 29.65 in1004.1 mb 0.00 in0.0 mm 0.00 in0.0 mm 0.02 in0.5 mm
10:31 AM 32.6°F0.3°C 21.2°F-6.0°C 63% 12.0 mph NNW19.3 kmh NNW -- 29.65 in1004.1 mb 0.00 in0.0 mm 0.00 in0.0 mm 0.02 in0.5 mm
10:30 AM 32.5°F0.3°C 21.2°F-6.0°C 63% 12.0 mph W19.3 kmh W -- 29.65 in1004.1 mb 0.00 in0.0 mm 0.00 in0.0 mm 0.02 in0.5 mm
10:29 AM 32.5°F0.3°C 21.2°F-6.0°C 63% 16.0 mph W25.7 kmh W -- 29.64 in1003.7 mb 0.00 in0.0 mm 0.00 in0.0 mm 0.02 in0.5 mm
10:28 AM 32.5°F0.3°C 21.2°F-6.0°C 63% 10.0 mph WNW16.1 kmh WNW -- 29.65 in1004.1 mb 0.00 in0.0 mm 0.00 in0.0 mm 0.02 in0.5 mm
10:27 AM 32.5°F0.3°C 21.2°F-6.0°C 63% 15.0 mph W24.1 kmh W -- 29.65 in1004.1 mb 0.00 in0.0 mm 0.00 in0.0 mm 0.02 in0.5 mm
10:26 AM 32.5°F0.3°C 21.2°F-6.0°C 63% 12.0 mph SSW19.3 kmh SSW -- 29.65 in1004.1 mb 0.00 in0.0 mm 0.00 in0.0 mm 0.02 in0.5 mm
10:25 AM 32.2°F0.1°C 21.2°F-6.0°C 64% 15.0 mph W24.1 kmh W -- 29.64 in1003.7 mb 0.00 in0.0 mm 0.00 in0.0 mm 0.02 in0.5 mm
10:24 AM 32.2°F0.1°C 21.2°F-6.0°C 64% 19.0 mph W30.6 kmh W -- 29.64 in1003.7 mb 0.00 in0.0 mm 0.00 in0.0 mm 0.02 in0.5 mm
10:23 AM 32.2°F0.1°C 20.9°F-6.2°C 63% 17.0 mph W27.4 kmh W -- 29.64 in1003.7 mb 0.00 in0.0 mm 0.00 in0.0 mm 0.02 in0.5 mm
10:22 AM 32.2°F0.1°C 20.9°F-6.2°C 63% 17.0 mph NW27.4 kmh NW -- 29.64 in1003.7 mb 0.00 in0.0 mm 0.00 in0.0 mm 0.02 in0.5 mm
10:21 AM 32.2°F0.1°C 21.6°F-5.8°C 65% 10.0 mph NW16.1 kmh NW -- 29.64 in1003.7 mb 0.00 in0.0 mm 0.00 in0.0 mm 0.02 in0.5 mm
10:20 AM 32.2°F0.1°C 20.9°F-6.2°C 63% 10.0 mph S16.1 kmh S -- 29.64 in1003.7 mb 0.00 in0.0 mm 0.00 in0.0 mm 0.02 in0.5 mm
10:19 AM 32.2°F0.1°C 21.2°F-6.0°C 64% 13.0 mph W20.9 kmh W -- 29.63 in1003.4 mb 0.00 in0.0 mm 0.00 in0.0 mm 0.02 in0.5 mm
10:18 AM 32.2°F0.1°C 20.9°F-6.2°C 63% 16.0 mph NW25.7 kmh NW -- 29.63 in1003.4 mb 0.00 in0.0 mm 0.00 in0.0 mm 0.02 in0.5 mm
10:17 AM 32.5°F0.3°C 21.2°F-6.0°C 63% 10.0 mph NW16.1 kmh NW -- 29.63 in1003.4 mb 0.00 in0.0 mm 0.00 in0.0 mm 0.02 in0.5 mm
10:16 AM 32.5°F0.3°C 21.2°F-6.0°C 63% 17.0 mph W27.4 kmh W -- 29.63 in1003.4 mb 0.00 in0.0 mm 0.00 in0.0 mm 0.02 in0.5 mm
10:15 AM 32.5°F0.3°C 21.2°F-6.0°C 63% 24.0 mph WNW38.6 kmh WNW -- 29.63 in1003.4 mb 0.00 in0.0 mm 0.00 in0.0 mm 0.02 in0.5 mm
10:14 AM 32.7°F0.4°C 21.7°F-5.7°C 64% 10.0 mph WNW16.1 kmh WNW -- 29.63 in1003.4 mb 0.00 in0.0 mm 0.00 in0.0 mm 0.02 in0.5 mm
10:13 AM 32.6°F0.3°C 21.2°F-6.0°C 63% 20.0 mph WNW32.2 kmh WNW -- 29.63 in1003.4 mb 0.00 in0.0 mm 0.00 in0.0 mm 0.02 in0.5 mm
10:12 AM 32.6°F0.3°C 21.2°F-6.0°C 63% 16.0 mph WNW25.7 kmh WNW -- 29.63 in1003.4 mb 0.00 in0.0 mm 0.00 in0.0 mm 0.02 in0.5 mm
10:11 AM 32.6°F0.3°C 21.2°F-6.0°C 63% 15.0 mph W24.1 kmh W -- 29.62 in1003.0 mb 0.00 in0.0 mm 0.00 in0.0 mm 0.02 in0.5 mm
10:10 AM 32.6°F0.3°C 21.2°F-6.0°C 63% 10.0 mph W16.1 kmh W -- 29.62 in1003.0 mb 0.00 in0.0 mm 0.00 in0.0 mm 0.02 in0.5 mm
10:09 AM 32.9°F0.5°C 21.9°F-5.6°C 64% 14.0 mph W22.5 kmh W -- 29.62 in1003.0 mb 0.00 in0.0 mm 0.00 in0.0 mm 0.02 in0.5 mm
10:08 AM 32.9°F0.5°C 21.5°F-5.8°C 63% 15.0 mph WNW24.1 kmh WNW -- 29.63 in1003.4 mb 0.00 in0.0 mm 0.00 in0.0 mm 0.02 in0.5 mm
10:07 AM 32.9°F0.5°C 21.5°F-5.8°C 63% 18.0 mph W29.0 kmh W -- 29.62 in1003.0 mb 0.00 in0.0 mm 0.00 in0.0 mm 0.02 in0.5 mm
10:06 AM 32.9°F0.5°C 22.3°F-5.4°C 65% 19.0 mph W30.6 kmh W -- 29.63 in1003.4 mb 0.00 in0.0 mm 0.00 in0.0 mm 0.02 in0.5 mm
10:05 AM 33.0°F0.6°C 22.5°F-5.3°C 65% 18.0 mph WNW29.0 kmh WNW -- 29.62 in1003.0 mb 0.00 in0.0 mm 0.00 in0.0 mm 0.02 in0.5 mm
10:04 AM 33.1°F0.6°C 22.1°F-5.5°C 64% 16.0 mph W25.7 kmh W -- 29.63 in1003.4 mb 0.00 in0.0 mm 0.00 in0.0 mm 0.02 in0.5 mm
10:03 AM 33.0°F0.6°C 21.7°F-5.7°C 63% 10.0 mph NW16.1 kmh NW -- 29.62 in1003.0 mb 0.00 in0.0 mm 0.00 in0.0 mm 0.02 in0.5 mm
10:02 AM 33.0°F0.6°C 21.7°F-5.7°C 63% 16.0 mph W25.7 kmh W -- 29.62 in1003.0 mb 0.00 in0.0 mm 0.00 in0.0 mm 0.02 in0.5 mm
10:01 AM 33.0°F0.6°C 21.7°F-5.7°C 63% 16.0 mph WNW25.7 kmh WNW -- 29.62 in1003.0 mb 0.00 in0.0 mm 0.00 in0.0 mm 0.02 in0.5 mm
10:00 AM 33.0°F0.6°C 21.7°F-5.7°C 63% 17.0 mph NW27.4 kmh NW -- 29.62 in1003.0 mb 0.00 in0.0 mm 0.00 in0.0 mm 0.02 in0.5 mm
09:59 AM 33.1°F0.6°C 22.5°F-5.3°C 65% 17.0 mph WNW27.4 kmh WNW -- 29.62 in1003.0 mb 0.00 in0.0 mm 0.00 in0.0 mm 0.02 in0.5 mm
09:58 AM 33.0°F0.6°C 22.5°F-5.3°C 65% 13.0 mph W20.9 kmh W -- 29.62 in1003.0 mb 0.00 in0.0 mm 0.00 in0.0 mm 0.02 in0.5 mm
09:57 AM 33.0°F0.6°C 22.5°F-5.3°C 65% 15.0 mph W24.1 kmh W -- 29.62 in1003.0 mb 0.00 in0.0 mm 0.00 in0.0 mm 0.02 in0.5 mm
09:56 AM 33.0°F0.6°C 22.5°F-5.3°C 65% 18.0 mph 29.0 kmh -- 29.61 in1002.7 mb 0.00 in0.0 mm 0.00 in0.0 mm 0.02 in0.5 mm
09:55 AM 33.0°F0.6°C 22.5°F-5.3°C 65% 16.0 mph WNW25.7 kmh WNW -- 29.61 in1002.7 mb 0.00 in0.0 mm 0.00 in0.0 mm 0.02 in0.5 mm
09:54 AM 33.1°F0.6°C 22.8°F-5.1°C 66% 11.0 mph WNW17.7 kmh WNW -- 29.61 in1002.7 mb 0.00 in0.0 mm 0.00 in0.0 mm 0.02 in0.5 mm
09:53 AM 33.0°F0.6°C 22.5°F-5.3°C 65% 10.0 mph WNW16.1 kmh WNW -- 29.61 in1002.7 mb 0.00 in0.0 mm 0.00 in0.0 mm 0.02 in0.5 mm
09:52 AM 33.2°F0.7°C 22.6°F-5.2°C 65% 10.0 mph W16.1 kmh W -- 29.61 in1002.7 mb 0.00 in0.0 mm 0.00 in0.0 mm 0.02 in0.5 mm
09:51 AM 33.2°F0.7°C 22.6°F-5.2°C 65% 16.0 mph WNW25.7 kmh WNW -- 29.61 in1002.7 mb 0.00 in0.0 mm 0.00 in0.0 mm 0.02 in0.5 mm
09:50 AM 33.2°F0.7°C 22.6°F-5.2°C 65% 9.0 mph W14.5 kmh W -- 29.61 in1002.7 mb 0.00 in0.0 mm 0.00 in0.0 mm 0.02 in0.5 mm
09:49 AM 33.3°F0.7°C 23.0°F-5.0°C 66% 18.0 mph WNW29.0 kmh WNW -- 29.61 in1002.7 mb 0.00 in0.0 mm 0.00 in0.0 mm 0.02 in0.5 mm
09:48 AM 33.2°F0.7°C 22.6°F-5.2°C 65% 19.0 mph W30.6 kmh W -- 29.61 in1002.7 mb 0.00 in0.0 mm 0.00 in0.0 mm 0.02 in0.5 mm
09:47 AM 33.2°F0.7°C 22.6°F-5.2°C 65% 13.0 mph NNW20.9 kmh NNW -- 29.60 in1002.4 mb 0.00 in0.0 mm 0.00 in0.0 mm 0.02 in0.5 mm
09:46 AM 33.2°F0.7°C 22.6°F-5.2°C 65% 8.0 mph W12.9 kmh W -- 29.60 in1002.4 mb 0.00 in0.0 mm 0.00 in0.0 mm 0.02 in0.5 mm
09:45 AM 33.4°F0.8°C 22.8°F-5.1°C 65% 12.0 mph W19.3 kmh W -- 29.60 in1002.4 mb 0.00 in0.0 mm 0.00 in0.0 mm 0.02 in0.5 mm
09:44 AM 33.6°F0.9°C 23.0°F-5.0°C 65% 12.0 mph W19.3 kmh W -- 29.60 in1002.4 mb 0.00 in0.0 mm 0.00 in0.0 mm 0.02 in0.5 mm
09:43 AM 33.5°F0.8°C 22.8°F-5.1°C 65% 17.0 mph W27.4 kmh W -- 29.60 in1002.4 mb 0.00 in0.0 mm 0.00 in0.0 mm 0.02 in0.5 mm
09:42 AM 33.5°F0.8°C 22.8°F-5.1°C 65% 13.0 mph NW20.9 kmh NW -- 29.60 in1002.4 mb 0.00 in0.0 mm 0.00 in0.0 mm 0.02 in0.5 mm
09:41 AM 33.8°F1.0°C 22.4°F-5.3°C 63% 12.0 mph WNW19.3 kmh WNW -- 29.60 in1002.4 mb 0.00 in0.0 mm 0.00 in0.0 mm 0.02 in0.5 mm
09:40 AM 33.8°F1.0°C 22.4°F-5.3°C 63% 18.0 mph WNW29.0 kmh WNW -- 29.60 in1002.4 mb 0.00 in0.0 mm 0.00 in0.0 mm 0.02 in0.5 mm
09:39 AM 34.0°F1.1°C 22.9°F-5.1°C 64% 14.0 mph WNW22.5 kmh WNW -- 29.59 in1002.0 mb 0.00 in0.0 mm 0.00 in0.0 mm 0.02 in0.5 mm
09:38 AM 34.0°F1.1°C 22.6°F-5.2°C 63% 12.0 mph W19.3 kmh W -- 29.59 in1002.0 mb 0.00 in0.0 mm 0.00 in0.0 mm 0.02 in0.5 mm
09:37 AM 34.0°F1.1°C 23.3°F-4.8°C 65% 13.0 mph W20.9 kmh W -- 29.59 in1002.0 mb 0.00 in0.0 mm 0.00 in0.0 mm 0.02 in0.5 mm
09:36 AM 34.0°F1.1°C 23.3°F-4.8°C 65% 17.0 mph W27.4 kmh W -- 29.59 in1002.0 mb 0.00 in0.0 mm 0.00 in0.0 mm 0.02 in0.5 mm
09:35 AM 34.0°F1.1°C 22.6°F-5.2°C 63% 7.0 mph WNW11.3 kmh WNW -- 29.59 in1002.0 mb 0.00 in0.0 mm 0.00 in0.0 mm 0.02 in0.5 mm
09:34 AM 33.8°F1.0°C 22.8°F-5.1°C 64% 14.0 mph WNW22.5 kmh WNW -- 29.59 in1002.0 mb 0.00 in0.0 mm 0.00 in0.0 mm 0.02 in0.5 mm
09:33 AM 33.8°F1.0°C 23.1°F-4.9°C 65% 13.0 mph WNW20.9 kmh WNW -- 29.59 in1002.0 mb 0.00 in0.0 mm 0.00 in0.0 mm 0.02 in0.5 mm
09:32 AM 33.5°F0.8°C 22.8°F-5.1°C 65% 11.0 mph WNW17.7 kmh WNW -- 29.59 in1002.0 mb 0.00 in0.0 mm 0.00 in0.0 mm 0.02 in0.5 mm
09:31 AM 33.5°F0.8°C 22.8°F-5.1°C 65% 9.0 mph WNW14.5 kmh WNW -- 29.59 in1002.0 mb 0.00 in0.0 mm 0.00 in0.0 mm 0.02 in0.5 mm
09:30 AM 33.4°F0.8°C 22.8°F-5.1°C 65% 10.0 mph W16.1 kmh W -- 29.59 in1002.0 mb 0.00 in0.0 mm 0.00 in0.0 mm 0.02 in0.5 mm
09:29 AM 33.4°F0.8°C 22.8°F-5.1°C 65% 9.0 mph WNW14.5 kmh WNW -- 29.59 in1002.0 mb 0.00 in0.0 mm 0.00 in0.0 mm 0.02 in0.5 mm
09:28 AM 33.4°F0.8°C 22.8°F-5.1°C 65% 18.0 mph W29.0 kmh W -- 29.59 in1002.0 mb 0.00 in0.0 mm 0.00 in0.0 mm 0.02 in0.5 mm
09:26 AM 33.4°F0.8°C 22.8°F-5.1°C 65% 16.0 mph W25.7 kmh W -- 29.58 in1001.7 mb 0.00 in0.0 mm 0.00 in0.0 mm 0.02 in0.5 mm
09:25 AM 33.4°F0.8°C 22.8°F-5.1°C 65% 9.0 mph NW14.5 kmh NW -- 29.58 in1001.7 mb 0.00 in0.0 mm 0.00 in0.0 mm 0.02 in0.5 mm
09:24 AM 33.4°F0.8°C 22.8°F-5.1°C 65% 15.0 mph WNW24.1 kmh WNW -- 29.59 in1002.0 mb 0.00 in0.0 mm 0.00 in0.0 mm 0.02 in0.5 mm
09:23 AM 33.4°F0.8°C 22.1°F-5.5°C 63% 16.0 mph W25.7 kmh W -- 29.58 in1001.7 mb 0.00 in0.0 mm 0.00 in0.0 mm 0.02 in0.5 mm
09:22 AM 33.4°F0.8°C 22.1°F-5.5°C 63% 13.0 mph W20.9 kmh W -- 29.58 in1001.7 mb 0.00 in0.0 mm 0.00 in0.0 mm 0.02 in0.5 mm
09:21 AM 33.4°F0.8°C 22.1°F-5.5°C 63% 17.0 mph W27.4 kmh W -- 29.58 in1001.7 mb 0.00 in0.0 mm 0.00 in0.0 mm 0.02 in0.5 mm
09:20 AM 33.2°F0.7°C 21.9°F-5.6°C 63% 12.0 mph W19.3 kmh W -- 29.58 in1001.7 mb 0.00 in0.0 mm 0.00 in0.0 mm 0.02 in0.5 mm
09:19 AM 33.3°F0.7°C 22.3°F-5.4°C 64% 12.0 mph W19.3 kmh W -- 29.58 in1001.7 mb 0.00 in0.0 mm 0.00 in0.0 mm 0.02 in0.5 mm
09:18 AM 33.2°F0.7°C 21.9°F-5.6°C 63% 11.0 mph WNW17.7 kmh WNW -- 29.58 in1001.7 mb 0.00 in0.0 mm 0.00 in0.0 mm 0.02 in0.5 mm
09:17 AM 33.2°F0.7°C 22.6°F-5.2°C 65% 19.0 mph W30.6 kmh W -- 29.58 in1001.7 mb 0.00 in0.0 mm 0.00 in0.0 mm 0.02 in0.5 mm
09:16 AM 33.2°F0.7°C 22.6°F-5.2°C 65% 16.0 mph W25.7 kmh W -- 29.58 in1001.7 mb 0.00 in0.0 mm 0.00 in0.0 mm 0.02 in0.5 mm
09:15 AM 33.2°F0.7°C 22.6°F-5.2°C 65% 11.0 mph WNW17.7 kmh WNW -- 29.57 in1001.4 mb 0.00 in0.0 mm 0.00 in0.0 mm 0.02 in0.5 mm
09:14 AM 33.3°F0.7°C 22.6°F-5.2°C 65% 15.0 mph WNW24.1 kmh WNW -- 29.57 in1001.4 mb 0.00 in0.0 mm 0.00 in0.0 mm 0.02 in0.5 mm
09:13 AM 33.0°F0.6°C 22.5°F-5.3°C 65% 21.0 mph NW33.8 kmh NW -- 29.57 in1001.4 mb 0.00 in0.0 mm 0.00 in0.0 mm 0.02 in0.5 mm
09:12 AM 33.0°F0.6°C 22.5°F-5.3°C 65% 19.0 mph WNW30.6 kmh WNW -- 29.58 in1001.7 mb 0.00 in0.0 mm 0.00 in0.0 mm 0.02 in0.5 mm
09:11 AM 33.0°F0.6°C 22.5°F-5.3°C 65% 11.0 mph WNW17.7 kmh WNW -- 29.58 in1001.7 mb 0.00 in0.0 mm 0.00 in0.0 mm 0.02 in0.5 mm
09:10 AM 33.0°F0.6°C 22.5°F-5.3°C 65% 11.0 mph NW17.7 kmh NW -- 29.57 in1001.4 mb 0.00 in0.0 mm 0.00 in0.0 mm 0.02 in0.5 mm
09:09 AM 33.1°F0.6°C 22.8°F-5.1°C 66% 15.0 mph WNW24.1 kmh WNW -- 29.57 in1001.4 mb 0.00 in0.0 mm 0.00 in0.0 mm 0.02 in0.5 mm
09:08 AM 33.0°F0.6°C 22.5°F-5.3°C 65% 14.0 mph NW22.5 kmh NW -- 29.57 in1001.4 mb 0.00 in0.0 mm 0.00 in0.0 mm 0.02 in0.5 mm
09:07 AM 32.6°F0.3°C 21.9°F-5.6°C 65% 18.0 mph NW29.0 kmh NW -- 29.57 in1001.4 mb 0.00 in0.0 mm 0.00 in0.0 mm 0.02 in0.5 mm
09:06 AM 32.6°F0.3°C 21.9°F-5.6°C 65% 21.0 mph W33.8 kmh W -- 29.57 in1001.4 mb 0.00 in0.0 mm 0.00 in0.0 mm 0.02 in0.5 mm
09:05 AM 32.6°F0.3°C 22.3°F-5.4°C 66% 13.0 mph W20.9 kmh W -- 29.56 in1001.0 mb 0.00 in0.0 mm 0.00 in0.0 mm 0.02 in0.5 mm
09:04 AM 32.7°F0.4°C 22.8°F-5.1°C 67% 9.0 mph WNW14.5 kmh WNW -- 29.56 in1001.0 mb 0.00 in0.0 mm 0.00 in0.0 mm 0.02 in0.5 mm
09:03 AM 32.6°F0.3°C 22.3°F-5.4°C 66% 8.0 mph WNW12.9 kmh WNW -- 29.56 in1001.0 mb 0.00 in0.0 mm 0.00 in0.0 mm 0.02 in0.5 mm
09:02 AM 32.6°F0.3°C 22.3°F-5.4°C 66% 13.0 mph W20.9 kmh W -- 29.56 in1001.0 mb 0.00 in0.0 mm 0.00 in0.0 mm 0.02 in0.5 mm
09:01 AM 32.6°F0.3°C 22.3°F-5.4°C 66% 15.0 mph WNW24.1 kmh WNW -- 29.56 in1001.0 mb 0.00 in0.0 mm 0.00 in0.0 mm 0.02 in0.5 mm
09:00 AM 32.6°F0.3°C 22.3°F-5.4°C 66% 10.0 mph WNW16.1 kmh WNW -- 29.56 in1001.0 mb 0.00 in0.0 mm 0.00 in0.0 mm 0.02 in0.5 mm
08:59 AM 32.7°F0.4°C 22.8°F-5.1°C 67% 11.0 mph W17.7 kmh W -- 29.56 in1001.0 mb 0.00 in0.0 mm 0.00 in0.0 mm 0.02 in0.5 mm
08:58 AM 32.9°F0.5°C 22.7°F-5.2°C 66% 9.0 mph W14.5 kmh W -- 29.56 in1001.0 mb 0.00 in0.0 mm 0.00 in0.0 mm 0.02 in0.5 mm
08:57 AM 32.9°F0.5°C 22.7°F-5.2°C 66% 15.0 mph W24.1 kmh W -- 29.56 in1001.0 mb 0.00 in0.0 mm 0.00 in0.0 mm 0.02 in0.5 mm
08:56 AM 32.9°F0.5°C 22.7°F-5.2°C 66% 7.0 mph W11.3 kmh W -- 29.56 in1001.0 mb 0.00 in0.0 mm 0.00 in0.0 mm 0.02 in0.5 mm
08:55 AM 33.1°F0.6°C 23.2°F-4.9°C 67% 13.0 mph WNW20.9 kmh WNW -- 29.55 in1000.7 mb 0.00 in0.0 mm 0.00 in0.0 mm 0.02 in0.5 mm
08:54 AM 33.1°F0.6°C 23.2°F-4.9°C 67% 10.0 mph W16.1 kmh W -- 29.55 in1000.7 mb 0.00 in0.0 mm 0.00 in0.0 mm 0.02 in0.5 mm
08:53 AM 33.0°F0.6°C 22.8°F-5.1°C 66% 16.0 mph WNW25.7 kmh WNW -- 29.55 in1000.7 mb 0.00 in0.0 mm 0.00 in0.0 mm 0.02 in0.5 mm
08:52 AM 33.0°F0.6°C 22.8°F-5.1°C 66% 18.0 mph WNW29.0 kmh WNW -- 29.55 in1000.7 mb 0.00 in0.0 mm 0.00 in0.0 mm 0.02 in0.5 mm
08:51 AM 33.0°F0.6°C 22.8°F-5.1°C 66% 9.0 mph WNW14.5 kmh WNW -- 29.55 in1000.7 mb 0.00 in0.0 mm 0.00 in0.0 mm 0.02 in0.5 mm
08:50 AM 33.1°F0.6°C 23.2°F-4.9°C 67% 19.0 mph WNW30.6 kmh WNW -- 29.54 in1000.3 mb 0.00 in0.0 mm 0.00 in0.0 mm 0.02 in0.5 mm
08:49 AM 33.1°F0.6°C 23.2°F-4.9°C 67% 16.0 mph W25.7 kmh W -- 29.54 in1000.3 mb 0.00 in0.0 mm 0.00 in0.0 mm 0.02 in0.5 mm
08:48 AM 33.0°F0.6°C 22.8°F-5.1°C 66% 16.0 mph W25.7 kmh W -- 29.54 in1000.3 mb 0.00 in0.0 mm 0.00 in0.0 mm 0.02 in0.5 mm
08:47 AM 33.0°F0.6°C 22.8°F-5.1°C 66% 11.0 mph SSW17.7 kmh SSW -- 29.54 in1000.3 mb 0.00 in0.0 mm 0.00 in0.0 mm 0.02 in0.5 mm
08:45 AM 32.9°F0.5°C 23.4°F-4.8°C 68% 13.0 mph NW20.9 kmh NW -- 29.54 in1000.3 mb 0.00 in0.0 mm 0.00 in0.0 mm 0.02 in0.5 mm
08:44 AM 32.9°F0.5°C 23.7°F-4.6°C 69% 15.0 mph W24.1 kmh W -- 29.54 in1000.3 mb 0.00 in0.0 mm 0.00 in0.0 mm 0.02 in0.5 mm
08:43 AM 32.9°F0.5°C 23.7°F-4.6°C 69% 13.0 mph W20.9 kmh W -- 29.54 in1000.3 mb 0.00 in0.0 mm 0.00 in0.0 mm 0.02 in0.5 mm
08:42 AM 32.6°F0.3°C 23.4°F-4.8°C 69% 13.0 mph WNW20.9 kmh WNW -- 29.54 in1000.3 mb 0.00 in0.0 mm 0.00 in0.0 mm 0.02 in0.5 mm
08:41 AM 32.6°F0.3°C 23.7°F-4.6°C 70% 12.0 mph W19.3 kmh W -- 29.54 in1000.3 mb 0.00 in0.0 mm 0.00 in0.0 mm 0.02 in0.5 mm
08:40 AM 32.6°F0.3°C 23.7°F-4.6°C 70% 10.0 mph W16.1 kmh W -- 29.54 in1000.3 mb 0.00 in0.0 mm 0.00 in0.0 mm 0.02 in0.5 mm
08:39 AM 32.7°F0.4°C 24.2°F-4.3°C 71% 16.0 mph WNW25.7 kmh WNW -- 29.54 in1000.3 mb 0.00 in0.0 mm 0.00 in0.0 mm 0.02 in0.5 mm
08:38 AM 32.6°F0.3°C 23.7°F-4.6°C 70% 10.0 mph W16.1 kmh W -- 29.54 in1000.3 mb 0.00 in0.0 mm 0.00 in0.0 mm 0.02 in0.5 mm
08:37 AM 32.6°F0.3°C 24.1°F-4.4°C 71% 8.0 mph W12.9 kmh W -- 29.54 in1000.3 mb 0.00 in0.0 mm 0.00 in0.0 mm 0.02 in0.5 mm
08:36 AM 32.6°F0.3°C 24.1°F-4.4°C 71% 8.0 mph WSW12.9 kmh WSW -- 29.53 in1000.0 mb 0.00 in0.0 mm 0.00 in0.0 mm 0.02 in0.5 mm
08:35 AM 32.6°F0.3°C 24.1°F-4.4°C 71% 8.0 mph WNW12.9 kmh WNW -- 29.53 in1000.0 mb 0.00 in0.0 mm 0.00 in0.0 mm 0.02 in0.5 mm
08:34 AM 32.7°F0.4°C 24.6°F-4.1°C 72% 8.0 mph W12.9 kmh W -- 29.54 in1000.3 mb 0.00 in0.0 mm 0.00 in0.0 mm 0.02 in0.5 mm
08:33 AM 32.6°F0.3°C 24.1°F-4.4°C 71% 15.0 mph W24.1 kmh W -- 29.54 in1000.3 mb 0.00 in0.0 mm 0.00 in0.0 mm 0.02 in0.5 mm
08:32 AM 32.6°F0.3°C 24.1°F-4.4°C 71% 9.0 mph W14.5 kmh W -- 29.53 in1000.0 mb 0.00 in0.0 mm 0.00 in0.0 mm 0.02 in0.5 mm
08:31 AM 32.6°F0.3°C 24.1°F-4.4°C 71% 15.0 mph W24.1 kmh W -- 29.53 in1000.0 mb 0.00 in0.0 mm 0.00 in0.0 mm 0.02 in0.5 mm
08:30 AM 32.6°F0.3°C 24.7°F-4.1°C 73% 10.0 mph WNW16.1 kmh WNW -- 29.53 in1000.0 mb 0.00 in0.0 mm 0.00 in0.0 mm 0.02 in0.5 mm
08:29 AM 32.7°F0.4°C 24.9°F-3.9°C 73% 8.0 mph WNW12.9 kmh WNW -- 29.53 in1000.0 mb 0.00 in0.0 mm 0.00 in0.0 mm 0.02 in0.5 mm
08:28 AM 32.6°F0.3°C 24.7°F-4.1°C 73% 11.0 mph W17.7 kmh W -- 29.52 in999.7 mb 0.00 in0.0 mm 0.00 in0.0 mm 0.02 in0.5 mm
08:27 AM 32.6°F0.3°C 24.7°F-4.1°C 73% 13.0 mph WNW20.9 kmh WNW -- 29.52 in999.7 mb 0.00 in0.0 mm 0.00 in0.0 mm 0.02 in0.5 mm
08:26 AM 32.6°F0.3°C 24.7°F-4.1°C 73% 12.0 mph WNW19.3 kmh WNW -- 29.52 in999.7 mb 0.00 in0.0 mm 0.00 in0.0 mm 0.02 in0.5 mm
08:25 AM 32.6°F0.3°C 25.1°F-3.8°C 74% 10.0 mph WNW16.1 kmh WNW -- 29.52 in999.7 mb 0.00 in0.0 mm 0.00 in0.0 mm 0.02 in0.5 mm
08:24 AM 32.7°F0.4°C 25.2°F-3.8°C 74% 11.0 mph WNW17.7 kmh WNW -- 29.52 in999.7 mb 0.00 in0.0 mm 0.00 in0.0 mm 0.02 in0.5 mm
08:22 AM 32.9°F0.5°C 25.4°F-3.7°C 74% 10.0 mph WNW16.1 kmh WNW -- 29.52 in999.7 mb 0.00 in0.0 mm 0.00 in0.0 mm 0.02 in0.5 mm
08:21 AM 32.9°F0.5°C 25.4°F-3.7°C 74% 12.0 mph W19.3 kmh W -- 29.52 in999.7 mb 0.00 in0.0 mm 0.00 in0.0 mm 0.02 in0.5 mm
08:20 AM 32.9°F0.5°C 25.4°F-3.7°C 74% 9.0 mph WNW14.5 kmh WNW -- 29.52 in999.7 mb 0.00 in0.0 mm 0.00 in0.0 mm 0.02 in0.5 mm
08:19 AM 32.9°F0.5°C 25.4°F-3.7°C 74% 15.0 mph WNW24.1 kmh WNW -- 29.52 in999.7 mb 0.00 in0.0 mm 0.00 in0.0 mm 0.02 in0.5 mm
08:18 AM 32.9°F0.5°C 25.4°F-3.7°C 74% 13.0 mph W20.9 kmh W -- 29.51 in999.3 mb 0.00 in0.0 mm 0.00 in0.0 mm 0.02 in0.5 mm
08:17 AM 33.0°F0.6°C 25.6°F-3.6°C 74% 9.0 mph W14.5 kmh W -- 29.51 in999.3 mb 0.00 in0.0 mm 0.00 in0.0 mm 0.02 in0.5 mm
08:16 AM 33.0°F0.6°C 25.6°F-3.6°C 74% 9.0 mph W14.5 kmh W -- 29.52 in999.7 mb 0.00 in0.0 mm 0.00 in0.0 mm 0.02 in0.5 mm
08:15 AM 33.0°F0.6°C 25.9°F-3.4°C 75% 16.0 mph W25.7 kmh W -- 29.52 in999.7 mb 0.00 in0.0 mm 0.00 in0.0 mm 0.02 in0.5 mm
08:14 AM 33.1°F0.6°C 25.9°F-3.4°C 75% 15.0 mph WNW24.1 kmh WNW -- 29.51 in999.3 mb 0.00 in0.0 mm 0.00 in0.0 mm 0.02 in0.5 mm
08:13 AM 33.0°F0.6°C 25.9°F-3.4°C 75% 13.0 mph W20.9 kmh W -- 29.51 in999.3 mb 0.00 in0.0 mm 0.00 in0.0 mm 0.02 in0.5 mm
08:12 AM 33.0°F0.6°C 25.9°F-3.4°C 75% 12.0 mph W19.3 kmh W -- 29.51 in999.3 mb 0.00 in0.0 mm 0.00 in0.0 mm 0.02 in0.5 mm
08:11 AM 33.0°F0.6°C 25.9°F-3.4°C 75% 13.0 mph NW20.9 kmh NW -- 29.51 in999.3 mb 0.00 in0.0 mm 0.00 in0.0 mm 0.02 in0.5 mm
08:10 AM 33.0°F0.6°C 25.9°F-3.4°C 75% 10.0 mph W16.1 kmh W -- 29.51 in999.3 mb 0.00 in0.0 mm 0.00 in0.0 mm 0.02 in0.5 mm
08:09 AM 33.1°F0.6°C 26.2°F-3.2°C 76% 14.0 mph W22.5 kmh W -- 29.51 in999.3 mb 0.00 in0.0 mm 0.00 in0.0 mm 0.02 in0.5 mm
08:07 AM 33.0°F0.6°C 25.9°F-3.4°C 75% 10.0 mph W16.1 kmh W -- 29.51 in999.3 mb 0.00 in0.0 mm 0.00 in0.0 mm 0.02 in0.5 mm
08:06 AM 33.0°F0.6°C 25.9°F-3.4°C 75% 8.0 mph WNW12.9 kmh WNW -- 29.50 in999.0 mb 0.00 in0.0 mm 0.00 in0.0 mm 0.02 in0.5 mm
08:05 AM 33.0°F0.6°C 26.2°F-3.2°C 76% 11.0 mph W17.7 kmh W -- 29.50 in999.0 mb 0.00 in0.0 mm 0.00 in0.0 mm 0.02 in0.5 mm
08:04 AM 33.1°F0.6°C 26.6°F-3.0°C 77% 9.0 mph W14.5 kmh W -- 29.50 in999.0 mb 0.02 in0.5 mm 1.20 in30.5 mm 0.02 in0.5 mm
08:03 AM 32.9°F0.5°C 26.1°F-3.3°C 76% 12.0 mph W19.3 kmh W -- 29.51 in999.3 mb 0.00 in0.0 mm 0.00 in0.0 mm 0.02 in0.5 mm
08:02 AM 32.9°F0.5°C 26.7°F-2.9°C 78% 8.0 mph W12.9 kmh W -- 29.50 in999.0 mb 0.00 in0.0 mm 0.00 in0.0 mm 0.02 in0.5 mm
08:01 AM 32.9°F0.5°C 26.7°F-2.9°C 78% 15.0 mph NW24.1 kmh NW -- 29.50 in999.0 mb 0.00 in0.0 mm 0.00 in0.0 mm 0.02 in0.5 mm
08:00 AM 32.6°F0.3°C 26.4°F-3.1°C 78% 10.0 mph NW16.1 kmh NW -- 29.50 in999.0 mb 0.02 in0.5 mm 0.00 in0.0 mm 0.02 in0.5 mm
07:59 AM 32.7°F0.4°C 26.8°F-2.9°C 79% 12.0 mph NNW19.3 kmh NNW -- 29.50 in999.0 mb 0.02 in0.5 mm 0.00 in0.0 mm 0.02 in0.5 mm
07:58 AM 32.6°F0.3°C 26.7°F-2.9°C 79% 6.0 mph W9.7 kmh W -- 29.50 in999.0 mb 0.02 in0.5 mm 0.00 in0.0 mm 0.02 in0.5 mm
07:57 AM 32.6°F0.3°C 26.7°F-2.9°C 79% 11.0 mph WNW17.7 kmh WNW -- 29.50 in999.0 mb 0.02 in0.5 mm 0.00 in0.0 mm 0.02 in0.5 mm
07:56 AM 32.6°F0.3°C 26.7°F-2.9°C 79% 10.0 mph WNW16.1 kmh WNW -- 29.49 in998.6 mb 0.02 in0.5 mm 0.00 in0.0 mm 0.02 in0.5 mm
07:55 AM 32.6°F0.3°C 26.7°F-2.9°C 79% 9.0 mph WSW14.5 kmh WSW -- 29.49 in998.6 mb 0.02 in0.5 mm 0.00 in0.0 mm 0.02 in0.5 mm
07:54 AM 32.9°F0.5°C 27.0°F-2.8°C 79% 8.0 mph W12.9 kmh W -- 29.49 in998.6 mb 0.02 in0.5 mm 0.00 in0.0 mm 0.02 in0.5 mm
07:53 AM 32.9°F0.5°C 27.0°F-2.8°C 79% 10.0 mph WNW16.1 kmh WNW -- 29.49 in998.6 mb 0.02 in0.5 mm 0.00 in0.0 mm 0.02 in0.5 mm
07:52 AM 32.9°F0.5°C 27.0°F-2.8°C 79% 10.0 mph NNW16.1 kmh NNW -- 29.49 in998.6 mb 0.02 in0.5 mm 0.00 in0.0 mm 0.02 in0.5 mm
07:51 AM 33.0°F0.6°C 27.2°F-2.7°C 79% 8.0 mph W12.9 kmh W -- 29.49 in998.6 mb 0.02 in0.5 mm 0.00 in0.0 mm 0.02 in0.5 mm
07:50 AM 33.0°F0.6°C 27.2°F-2.7°C 79% 10.0 mph WNW16.1 kmh WNW -- 29.49 in998.6 mb 0.02 in0.5 mm 0.00 in0.0 mm 0.02 in0.5 mm
07:49 AM 33.1°F0.6°C 27.2°F-2.7°C 79% 7.0 mph W11.3 kmh W -- 29.49 in998.6 mb 0.02 in0.5 mm 0.00 in0.0 mm 0.02 in0.5 mm
07:48 AM 33.2°F0.7°C 27.1°F-2.7°C 78% 5.0 mph W8.0 kmh W -- 29.49 in998.6 mb 0.02 in0.5 mm 0.00 in0.0 mm 0.02 in0.5 mm
07:47 AM 33.2°F0.7°C 27.1°F-2.7°C 78% 11.0 mph W17.7 kmh W -- 29.49 in998.6 mb 0.02 in0.5 mm 0.00 in0.0 mm 0.02 in0.5 mm
07:46 AM 33.2°F0.7°C 27.1°F-2.7°C 78% 8.0 mph W12.9 kmh W -- 29.49 in998.6 mb 0.02 in0.5 mm 0.00 in0.0 mm 0.02 in0.5 mm
07:45 AM 33.2°F0.7°C 27.1°F-2.7°C 78% 9.0 mph W14.5 kmh W -- 29.49 in998.6 mb 0.02 in0.5 mm 0.00 in0.0 mm 0.02 in0.5 mm
07:44 AM 33.3°F0.7°C 27.1°F-2.7°C 78% 10.0 mph NW16.1 kmh NW -- 29.48 in998.3 mb 0.02 in0.5 mm 0.00 in0.0 mm 0.02 in0.5 mm
07:43 AM 33.2°F0.7°C 27.1°F-2.7°C 78% 14.0 mph NW22.5 kmh NW -- 29.48 in998.3 mb 0.02 in0.5 mm 0.00 in0.0 mm 0.02 in0.5 mm
07:42 AM 33.2°F0.7°C 26.4°F-3.1°C 76% 6.0 mph W9.7 kmh W -- 29.48 in998.3 mb 0.02 in0.5 mm 0.00 in0.0 mm 0.02 in0.5 mm
07:41 AM 33.2°F0.7°C 26.4°F-3.1°C 76% 11.0 mph W17.7 kmh W -- 29.48 in998.3 mb 0.02 in0.5 mm 0.00 in0.0 mm 0.02 in0.5 mm
07:40 AM 33.2°F0.7°C 26.4°F-3.1°C 76% 16.0 mph W25.7 kmh W -- 29.48 in998.3 mb 0.02 in0.5 mm 0.00 in0.0 mm 0.02 in0.5 mm
07:39 AM 33.3°F0.7°C 26.7°F-2.9°C 77% 11.0 mph W17.7 kmh W -- 29.48 in998.3 mb 0.02 in0.5 mm 0.00 in0.0 mm 0.02 in0.5 mm
07:38 AM 33.4°F0.8°C 26.6°F-3.0°C 76% 5.0 mph W8.0 kmh W -- 29.48 in998.3 mb 0.02 in0.5 mm 0.00 in0.0 mm 0.02 in0.5 mm
07:37 AM 33.4°F0.8°C 26.6°F-3.0°C 76% 11.0 mph W17.7 kmh W -- 29.48 in998.3 mb 0.02 in0.5 mm 0.00 in0.0 mm 0.02 in0.5 mm
07:36 AM 33.4°F0.8°C 26.6°F-3.0°C 76% 7.0 mph W11.3 kmh W -- 29.48 in998.3 mb 0.02 in0.5 mm 0.00 in0.0 mm 0.02 in0.5 mm
07:35 AM 33.4°F0.8°C 26.6°F-3.0°C 76% 15.0 mph W24.1 kmh W -- 29.48 in998.3 mb 0.02 in0.5 mm 0.00 in0.0 mm 0.02 in0.5 mm
07:34 AM 33.6°F0.9°C 27.1°F-2.7°C 77% 9.0 mph W14.5 kmh W -- 29.48 in998.3 mb 0.02 in0.5 mm 0.00 in0.0 mm 0.02 in0.5 mm
07:33 AM 33.5°F0.8°C 26.6°F-3.0°C 76% 11.0 mph W17.7 kmh W -- 29.48 in998.3 mb 0.02 in0.5 mm 0.00 in0.0 mm 0.02 in0.5 mm
07:32 AM 33.5°F0.8°C 26.6°F-3.0°C 76% 8.0 mph W12.9 kmh W -- 29.48 in998.3 mb 0.02 in0.5 mm 0.00 in0.0 mm 0.02 in0.5 mm
07:31 AM 33.5°F0.8°C 26.6°F-3.0°C 76% 14.0 mph W22.5 kmh W -- 29.48 in998.3 mb 0.02 in0.5 mm 0.00 in0.0 mm 0.02 in0.5 mm
07:30 AM 33.5°F0.8°C 26.6°F-3.0°C 76% 7.0 mph W11.3 kmh W -- 29.47 in998.0 mb 0.02 in0.5 mm 0.00 in0.0 mm 0.02 in0.5 mm
07:29 AM 33.8°F1.0°C 27.3°F-2.6°C 77% 12.0 mph NW19.3 kmh NW -- 29.47 in998.0 mb 0.02 in0.5 mm 0.00 in0.0 mm 0.02 in0.5 mm
07:28 AM 33.8°F1.0°C 26.9°F-2.8°C 76% 13.0 mph W20.9 kmh W -- 29.47 in998.0 mb 0.02 in0.5 mm 0.00 in0.0 mm 0.02 in0.5 mm
07:27 AM 34.0°F1.1°C 26.8°F-2.9°C 75% 11.0 mph W17.7 kmh W -- 29.46 in997.6 mb 0.02 in0.5 mm 0.00 in0.0 mm 0.02 in0.5 mm
07:26 AM 34.0°F1.1°C 26.8°F-2.9°C 75% 8.0 mph NW12.9 kmh NW -- 29.46 in997.6 mb 0.02 in0.5 mm 0.00 in0.0 mm 0.02 in0.5 mm
07:25 AM 34.0°F1.1°C 26.8°F-2.9°C 75% 18.0 mph WNW29.0 kmh WNW -- 29.46 in997.6 mb 0.02 in0.5 mm 0.00 in0.0 mm 0.02 in0.5 mm
07:24 AM 34.2°F1.2°C 27.3°F-2.6°C 76% 10.0 mph WNW16.1 kmh WNW -- 29.47 in998.0 mb 0.02 in0.5 mm 0.00 in0.0 mm 0.02 in0.5 mm
07:23 AM 34.2°F1.2°C 27.0°F-2.8°C 75% 9.0 mph SSW14.5 kmh SSW -- 29.46 in997.6 mb 0.02 in0.5 mm 0.00 in0.0 mm 0.02 in0.5 mm
07:22 AM 34.2°F1.2°C 27.0°F-2.8°C 75% 15.0 mph SSW24.1 kmh SSW -- 29.46 in997.6 mb 0.02 in0.5 mm 0.00 in0.0 mm 0.02 in0.5 mm
07:21 AM 34.2°F1.2°C 27.0°F-2.8°C 75% 10.0 mph W16.1 kmh W -- 29.46 in997.6 mb 0.02 in0.5 mm 0.00 in0.0 mm 0.02 in0.5 mm
07:19 AM 34.5°F1.4°C 27.6°F-2.4°C 76% 10.0 mph WNW16.1 kmh WNW -- 29.46 in997.6 mb 0.02 in0.5 mm 0.00 in0.0 mm 0.02 in0.5 mm
07:18 AM 34.5°F1.4°C 27.3°F-2.6°C 75% 20.0 mph W32.2 kmh W -- 29.46 in997.6 mb 0.02 in0.5 mm 0.00 in0.0 mm 0.02 in0.5 mm
07:17 AM 34.7°F1.5°C 27.5°F-2.5°C 75% 12.0 mph WSW19.3 kmh WSW -- 29.45 in997.3 mb 0.02 in0.5 mm 0.00 in0.0 mm 0.02 in0.5 mm
07:16 AM 34.7°F1.5°C 27.5°F-2.5°C 75% 16.0 mph W25.7 kmh W -- 29.45 in997.3 mb 0.02 in0.5 mm 0.00 in0.0 mm 0.02 in0.5 mm
07:15 AM 34.7°F1.5°C 27.5°F-2.5°C 75% 14.0 mph NNE22.5 kmh NNE -- 29.46 in997.6 mb 0.02 in0.5 mm 0.00 in0.0 mm 0.02 in0.5 mm
07:14 AM 34.7°F1.5°C 27.5°F-2.5°C 75% 12.0 mph W19.3 kmh W -- 29.45 in997.3 mb 0.02 in0.5 mm 0.00 in0.0 mm 0.02 in0.5 mm
07:12 AM 34.9°F1.6°C 27.7°F-2.4°C 75% 20.0 mph W32.2 kmh W -- 29.45 in997.3 mb 0.02 in0.5 mm 1.20 in30.5 mm 0.02 in0.5 mm
07:11 AM 34.9°F1.6°C 27.7°F-2.4°C 75% 15.0 mph E24.1 kmh E -- 29.45 in997.3 mb 0.00 in0.0 mm 0.00 in0.0 mm 0.00 in0.0 mm
07:10 AM 34.9°F1.6°C 27.7°F-2.4°C 75% 23.0 mph W37.0 kmh W -- 29.45 in997.3 mb 0.00 in0.0 mm 0.00 in0.0 mm 0.00 in0.0 mm
07:09 AM 34.9°F1.6°C 27.7°F-2.4°C 75% 14.0 mph WNW22.5 kmh WNW -- 29.45 in997.3 mb 0.00 in0.0 mm 0.00 in0.0 mm 0.00 in0.0 mm
07:08 AM 34.9°F1.6°C 27.7°F-2.4°C 75% 16.0 mph W25.7 kmh W -- 29.45 in997.3 mb 0.00 in0.0 mm 0.00 in0.0 mm 0.00 in0.0 mm
07:07 AM 34.9°F1.6°C 27.7°F-2.4°C 75% 23.0 mph WNW37.0 kmh WNW -- 29.45 in997.3 mb 0.00 in0.0 mm 0.00 in0.0 mm 0.00 in0.0 mm
07:06 AM 34.9°F1.6°C 27.7°F-2.4°C 75% 15.0 mph WNW24.1 kmh WNW -- 29.44 in997.0 mb 0.00 in0.0 mm 0.00 in0.0 mm 0.00 in0.0 mm
07:05 AM 34.9°F1.6°C 27.7°F-2.4°C 75% 13.0 mph WNW20.9 kmh WNW -- 29.45 in997.3 mb 0.00 in0.0 mm 0.00 in0.0 mm 0.00 in0.0 mm
07:04 AM 34.9°F1.6°C 27.7°F-2.4°C 75% 18.0 mph WNW29.0 kmh WNW -- 29.44 in997.0 mb 0.00 in0.0 mm 0.00 in0.0 mm 0.00 in0.0 mm
07:03 AM 34.9°F1.6°C 27.3°F-2.6°C 74% 8.0 mph W12.9 kmh W -- 29.44 in997.0 mb 0.00 in0.0 mm 0.00 in0.0 mm 0.00 in0.0 mm
07:02 AM 34.9°F1.6°C 27.3°F-2.6°C 74% 20.0 mph W32.2 kmh W -- 29.44 in997.0 mb 0.00 in0.0 mm 0.00 in0.0 mm 0.00 in0.0 mm
07:01 AM 34.9°F1.6°C 27.3°F-2.6°C 74% 12.0 mph W19.3 kmh W -- 29.44 in997.0 mb 0.00 in0.0 mm 0.00 in0.0 mm 0.00 in0.0 mm
07:00 AM 34.9°F1.6°C 27.3°F-2.6°C 74% 17.0 mph W27.4 kmh W -- 29.43 in996.6 mb 0.00 in0.0 mm 0.00 in0.0 mm 0.00 in0.0 mm
06:59 AM 34.9°F1.6°C 27.3°F-2.6°C 74% 12.0 mph WNW19.3 kmh WNW -- 29.44 in997.0 mb 0.00 in0.0 mm 0.00 in0.0 mm 0.00 in0.0 mm
06:58 AM 34.9°F1.6°C 27.0°F-2.8°C 73% 13.0 mph WNW20.9 kmh WNW -- 29.43 in996.6 mb 0.00 in0.0 mm 0.00 in0.0 mm 0.00 in0.0 mm
06:57 AM 34.9°F1.6°C 27.0°F-2.8°C 73% 17.0 mph WSW27.4 kmh WSW -- 29.43 in996.6 mb 0.00 in0.0 mm 0.00 in0.0 mm 0.00 in0.0 mm
06:56 AM 34.9°F1.6°C 27.0°F-2.8°C 73% 18.0 mph NNW29.0 kmh NNW -- 29.43 in996.6 mb 0.00 in0.0 mm 0.00 in0.0 mm 0.00 in0.0 mm
06:55 AM 34.9°F1.6°C 27.0°F-2.8°C 73% 15.0 mph W24.1 kmh W -- 29.43 in996.6 mb 0.00 in0.0 mm 0.00 in0.0 mm 0.00 in0.0 mm
06:53 AM 34.9°F1.6°C 27.0°F-2.8°C 73% 16.0 mph W25.7 kmh W -- 29.43 in996.6 mb 0.00 in0.0 mm 0.00 in0.0 mm 0.00 in0.0 mm
06:52 AM 35.0°F1.7°C 26.5°F-3.1°C 71% 11.0 mph WNW17.7 kmh WNW -- 29.42 in996.3 mb 0.00 in0.0 mm 0.00 in0.0 mm 0.00 in0.0 mm
06:51 AM 35.1°F1.7°C 26.1°F-3.3°C 70% 21.0 mph WNW33.8 kmh WNW -- 29.42 in996.3 mb 0.00 in0.0 mm 0.00 in0.0 mm 0.00 in0.0 mm
06:50 AM 35.1°F1.7°C 26.1°F-3.3°C 70% 18.0 mph W29.0 kmh W -- 29.42 in996.3 mb 0.00 in0.0 mm 0.00 in0.0 mm 0.00 in0.0 mm
06:49 AM 35.4°F1.9°C 26.8°F-2.9°C 71% 17.0 mph W27.4 kmh W -- 29.42 in996.3 mb 0.00 in0.0 mm 0.00 in0.0 mm 0.00 in0.0 mm
06:48 AM 35.5°F1.9°C 26.5°F-3.1°C 70% 16.0 mph WNW25.7 kmh WNW -- 29.42 in996.3 mb 0.00 in0.0 mm 0.00 in0.0 mm 0.00 in0.0 mm
06:47 AM 35.7°F2.1°C 26.8°F-2.9°C 70% 21.0 mph WNW33.8 kmh WNW -- 29.42 in996.3 mb 0.00 in0.0 mm 0.00 in0.0 mm 0.00 in0.0 mm
06:46 AM 35.7°F2.1°C 26.8°F-2.9°C 70% 19.0 mph WSW30.6 kmh WSW -- 29.42 in996.3 mb 0.00 in0.0 mm 0.00 in0.0 mm 0.00 in0.0 mm
06:45 AM 36.3°F2.4°C 27.0°F-2.8°C 69% 16.0 mph W25.7 kmh W -- 29.42 in996.3 mb 0.00 in0.0 mm 0.00 in0.0 mm 0.00 in0.0 mm
06:44 AM 36.3°F2.4°C 27.0°F-2.8°C 69% 21.0 mph WNW33.8 kmh WNW -- 29.41 in995.9 mb 0.00 in0.0 mm 0.00 in0.0 mm 0.00 in0.0 mm
06:43 AM 36.2°F2.3°C 26.8°F-2.9°C 69% 19.0 mph W30.6 kmh W -- 29.41 in995.9 mb 0.00 in0.0 mm 0.00 in0.0 mm 0.00 in0.0 mm
06:42 AM 36.7°F2.6°C 27.0°F-2.8°C 68% 18.0 mph W29.0 kmh W -- 29.41 in995.9 mb 0.00 in0.0 mm 0.00 in0.0 mm 0.00 in0.0 mm
06:41 AM 36.7°F2.6°C 26.3°F-3.2°C 66% 23.0 mph W37.0 kmh W -- 29.41 in995.9 mb 0.00 in0.0 mm 0.00 in0.0 mm 0.00 in0.0 mm
06:40 AM 36.9°F2.7°C 26.4°F-3.1°C 66% 18.0 mph W29.0 kmh W -- 29.41 in995.9 mb 0.00 in0.0 mm 0.00 in0.0 mm 0.00 in0.0 mm
06:39 AM 37.2°F2.9°C 27.1°F-2.7°C 67% 16.0 mph W25.7 kmh W -- 29.41 in995.9 mb 0.00 in0.0 mm 0.00 in0.0 mm 0.00 in0.0 mm
06:38 AM 37.7°F3.2°C 26.9°F-2.8°C 65% 15.0 mph WNW24.1 kmh WNW -- 29.41 in995.9 mb 0.00 in0.0 mm 0.00 in0.0 mm 0.00 in0.0 mm
06:37 AM 37.7°F3.2°C 26.9°F-2.8°C 65% 16.0 mph W25.7 kmh W -- 29.41 in995.9 mb 0.00 in0.0 mm 0.00 in0.0 mm 0.00 in0.0 mm
06:36 AM 37.7°F3.2°C 26.2°F-3.2°C 63% 23.0 mph W37.0 kmh W -- 29.40 in995.6 mb 0.00 in0.0 mm 0.00 in0.0 mm 0.00 in0.0 mm
06:35 AM 37.8°F3.2°C 26.2°F-3.2°C 63% 26.0 mph WNW41.8 kmh WNW -- 29.40 in995.6 mb 0.00 in0.0 mm 0.00 in0.0 mm 0.00 in0.0 mm
06:34 AM 37.9°F3.3°C 26.7°F-2.9°C 64% 11.0 mph WNW17.7 kmh WNW -- 29.40 in995.6 mb 0.00 in0.0 mm 0.00 in0.0 mm 0.00 in0.0 mm
06:33 AM 37.8°F3.2°C 26.2°F-3.2°C 63% 12.0 mph W19.3 kmh W -- 29.40 in995.6 mb 0.00 in0.0 mm 0.00 in0.0 mm 0.00 in0.0 mm
06:32 AM 37.7°F3.2°C 26.2°F-3.2°C 63% 20.0 mph W32.2 kmh W -- 29.40 in995.6 mb 0.00 in0.0 mm 0.00 in0.0 mm 0.00 in0.0 mm
06:31 AM 37.7°F3.2°C 26.2°F-3.2°C 63% 9.0 mph W14.5 kmh W -- 29.40 in995.6 mb 0.00 in0.0 mm 0.00 in0.0 mm 0.00 in0.0 mm
06:30 AM 37.8°F3.2°C 26.2°F-3.2°C 63% 16.0 mph W25.7 kmh W -- 29.39 in995.3 mb 0.00 in0.0 mm 0.00 in0.0 mm 0.00 in0.0 mm
06:29 AM 37.9°F3.3°C 26.3°F-3.2°C 63% 15.0 mph WNW24.1 kmh WNW -- 29.39 in995.3 mb 0.00 in0.0 mm 0.00 in0.0 mm 0.00 in0.0 mm
06:28 AM 38.0°F3.3°C 25.5°F-3.6°C 61% 11.0 mph W17.7 kmh W -- 29.38 in994.9 mb 0.00 in0.0 mm 0.00 in0.0 mm 0.00 in0.0 mm
06:27 AM 38.0°F3.3°C 25.5°F-3.6°C 61% 18.0 mph W29.0 kmh W -- 29.39 in995.3 mb 0.00 in0.0 mm 0.00 in0.0 mm 0.00 in0.0 mm
06:26 AM 38.0°F3.3°C 25.5°F-3.6°C 61% 13.0 mph W20.9 kmh W -- 29.38 in994.9 mb 0.00 in0.0 mm 0.00 in0.0 mm 0.00 in0.0 mm
06:25 AM 38.0°F3.3°C 25.5°F-3.6°C 61% 15.0 mph W24.1 kmh W -- 29.38 in994.9 mb 0.00 in0.0 mm 0.00 in0.0 mm 0.00 in0.0 mm
06:24 AM 38.1°F3.4°C 26.1°F-3.3°C 62% 12.0 mph W19.3 kmh W -- 29.38 in994.9 mb 0.00 in0.0 mm 0.00 in0.0 mm 0.00 in0.0 mm
06:23 AM 38.0°F3.3°C 26.3°F-3.2°C 63% 11.0 mph W17.7 kmh W -- 29.38 in994.9 mb 0.00 in0.0 mm 0.00 in0.0 mm 0.00 in0.0 mm
06:20 AM 38.0°F3.3°C 26.3°F-3.2°C 63% 12.0 mph W19.3 kmh W -- 29.37 in994.6 mb 0.00 in0.0 mm 0.00 in0.0 mm 0.00 in0.0 mm
06:19 AM 38.1°F3.4°C 26.5°F-3.1°C 63% 9.0 mph W14.5 kmh W -- 29.37 in994.6 mb 0.00 in0.0 mm 0.00 in0.0 mm 0.00 in0.0 mm
06:18 AM 38.0°F3.3°C 26.3°F-3.2°C 63% 8.0 mph W12.9 kmh W -- 29.36 in994.2 mb 0.00 in0.0 mm 0.00 in0.0 mm 0.00 in0.0 mm
06:17 AM 38.0°F3.3°C 26.3°F-3.2°C 63% 10.0 mph W16.1 kmh W -- 29.36 in994.2 mb 0.00 in0.0 mm 0.00 in0.0 mm 0.00 in0.0 mm
06:16 AM 38.2°F3.4°C 25.7°F-3.5°C 61% 10.0 mph W16.1 kmh W -- 29.36 in994.2 mb 0.00 in0.0 mm 0.00 in0.0 mm 0.00 in0.0 mm
06:15 AM 38.7°F3.7°C 26.2°F-3.2°C 61% 8.0 mph W12.9 kmh W -- 29.36 in994.2 mb 0.00 in0.0 mm 0.00 in0.0 mm 0.00 in0.0 mm
06:14 AM 38.7°F3.7°C 26.6°F-3.0°C 62% 10.0 mph W16.1 kmh W -- 29.35 in993.9 mb 0.00 in0.0 mm 0.00 in0.0 mm 0.00 in0.0 mm
06:13 AM 38.7°F3.7°C 26.2°F-3.2°C 61% 11.0 mph W17.7 kmh W -- 29.36 in994.2 mb 0.00 in0.0 mm 0.00 in0.0 mm 0.00 in0.0 mm
06:12 AM 39.0°F3.9°C 26.6°F-3.0°C 61% 11.0 mph W17.7 kmh W -- 29.35 in993.9 mb 0.00 in0.0 mm 0.00 in0.0 mm 0.00 in0.0 mm
06:11 AM 39.0°F3.9°C 26.6°F-3.0°C 61% 9.0 mph W14.5 kmh W -- 29.35 in993.9 mb 0.00 in0.0 mm 0.00 in0.0 mm 0.00 in0.0 mm
06:10 AM 39.0°F3.9°C 26.6°F-3.0°C 61% 11.0 mph W17.7 kmh W -- 29.35 in993.9 mb 0.00 in0.0 mm 0.00 in0.0 mm 0.00 in0.0 mm
06:09 AM 39.0°F3.9°C 27.0°F-2.8°C 62% 10.0 mph W16.1 kmh W -- 29.36 in994.2 mb 0.00 in0.0 mm 0.00 in0.0 mm 0.00 in0.0 mm
06:08 AM 39.2°F4.0°C 26.7°F-2.9°C 61% 11.0 mph W17.7 kmh W -- 29.35 in993.9 mb 0.00 in0.0 mm 0.00 in0.0 mm 0.00 in0.0 mm
06:07 AM 39.2°F4.0°C 26.7°F-2.9°C 61% 10.0 mph WNW16.1 kmh WNW -- 29.35 in993.9 mb 0.00 in0.0 mm 0.00 in0.0 mm 0.00 in0.0 mm
06:06 AM 39.4°F4.1°C 26.9°F-2.8°C 61% 9.0 mph W14.5 kmh W -- 29.35 in993.9 mb 0.00 in0.0 mm 0.00 in0.0 mm 0.00 in0.0 mm
06:05 AM 39.7°F4.3°C 27.2°F-2.7°C 61% 10.0 mph W16.1 kmh W -- 29.35 in993.9 mb 0.00 in0.0 mm 0.00 in0.0 mm 0.00 in0.0 mm
06:04 AM 39.9°F4.4°C 27.4°F-2.6°C 61% 10.0 mph W16.1 kmh W -- 29.34 in993.6 mb 0.00 in0.0 mm 0.00 in0.0 mm 0.00 in0.0 mm
06:03 AM 40.2°F4.6°C 27.3°F-2.6°C 60% 11.0 mph W17.7 kmh W -- 29.35 in993.9 mb 0.00 in0.0 mm 0.00 in0.0 mm 0.00 in0.0 mm
06:02 AM 40.2°F4.6°C 27.3°F-2.6°C 60% 9.0 mph W14.5 kmh W -- 29.34 in993.6 mb 0.00 in0.0 mm 0.00 in0.0 mm 0.00 in0.0 mm
06:01 AM 40.5°F4.7°C 27.1°F-2.7°C 59% 9.0 mph W14.5 kmh W -- 29.35 in993.9 mb 0.00 in0.0 mm 0.00 in0.0 mm 0.00 in0.0 mm
06:00 AM 40.5°F4.7°C 27.1°F-2.7°C 59% 14.0 mph W22.5 kmh W -- 29.34 in993.6 mb 0.00 in0.0 mm 0.00 in0.0 mm 0.00 in0.0 mm
05:59 AM 40.5°F4.7°C 27.5°F-2.5°C 60% 11.0 mph W17.7 kmh W -- 29.34 in993.6 mb 0.00 in0.0 mm 0.00 in0.0 mm 0.00 in0.0 mm
05:58 AM 40.5°F4.7°C 27.5°F-2.5°C 60% 11.0 mph WNW17.7 kmh WNW -- 29.34 in993.6 mb 0.00 in0.0 mm 0.00 in0.0 mm 0.00 in0.0 mm
05:57 AM 40.5°F4.7°C 27.5°F-2.5°C 60% 12.0 mph W19.3 kmh W -- 29.34 in993.6 mb 0.00 in0.0 mm 0.00 in0.0 mm 0.00 in0.0 mm
05:56 AM 40.5°F4.7°C 27.5°F-2.5°C 60% 9.0 mph W14.5 kmh W -- 29.34 in993.6 mb 0.00 in0.0 mm 0.00 in0.0 mm 0.00 in0.0 mm
05:55 AM 40.7°F4.8°C 27.7°F-2.4°C 60% 9.0 mph W14.5 kmh W -- 29.34 in993.6 mb 0.00 in0.0 mm 0.00 in0.0 mm 0.00 in0.0 mm
05:54 AM 40.8°F4.9°C 27.4°F-2.6°C 59% 7.0 mph W11.3 kmh W -- 29.33 in993.2 mb 0.00 in0.0 mm 0.00 in0.0 mm 0.00 in0.0 mm
05:53 AM 40.9°F4.9°C 27.4°F-2.6°C 59% 9.0 mph W14.5 kmh W -- 29.34 in993.6 mb 0.00 in0.0 mm 0.00 in0.0 mm 0.00 in0.0 mm
05:52 AM 40.9°F4.9°C 27.0°F-2.8°C 58% 10.0 mph W16.1 kmh W -- 29.33 in993.2 mb 0.00 in0.0 mm 0.00 in0.0 mm 0.00 in0.0 mm
05:51 AM 40.9°F4.9°C 27.4°F-2.6°C 59% 11.0 mph W17.7 kmh W -- 29.34 in993.6 mb 0.00 in0.0 mm 0.00 in0.0 mm 0.00 in0.0 mm
05:50 AM 40.9°F4.9°C 27.4°F-2.6°C 59% 7.0 mph W11.3 kmh W -- 29.34 in993.6 mb 0.00 in0.0 mm 0.00 in0.0 mm 0.00 in0.0 mm
05:49 AM 41.0°F5.0°C 27.6°F-2.4°C 59% 8.0 mph W12.9 kmh W -- 29.34 in993.6 mb 0.00 in0.0 mm 0.00 in0.0 mm 0.00 in0.0 mm
05:48 AM 41.1°F5.1°C 27.8°F-2.3°C 59% 12.0 mph W19.3 kmh W -- 29.33 in993.2 mb 0.00 in0.0 mm 0.00 in0.0 mm 0.00 in0.0 mm
05:46 AM 41.1°F5.1°C 27.8°F-2.3°C 59% 8.0 mph W12.9 kmh W -- 29.33 in993.2 mb 0.00 in0.0 mm 0.00 in0.0 mm 0.00 in0.0 mm
05:45 AM 41.0°F5.0°C 27.6°F-2.4°C 59% 11.0 mph W17.7 kmh W -- 29.33 in993.2 mb 0.00 in0.0 mm 0.00 in0.0 mm 0.00 in0.0 mm
05:44 AM 41.0°F5.0°C 27.6°F-2.4°C 59% 9.0 mph W14.5 kmh W -- 29.33 in993.2 mb 0.00 in0.0 mm 0.00 in0.0 mm 0.00 in0.0 mm
05:43 AM 40.9°F4.9°C 27.4°F-2.6°C 59% 14.0 mph W22.5 kmh W -- 29.33 in993.2 mb 0.00 in0.0 mm 0.00 in0.0 mm 0.00 in0.0 mm
05:42 AM 40.9°F4.9°C 27.4°F-2.6°C 59% 8.0 mph W12.9 kmh W -- 29.33 in993.2 mb 0.00 in0.0 mm 0.00 in0.0 mm 0.00 in0.0 mm
05:41 AM 40.7°F4.8°C 27.7°F-2.4°C 60% 10.0 mph W16.1 kmh W -- 29.33 in993.2 mb 0.00 in0.0 mm 0.00 in0.0 mm 0.00 in0.0 mm
05:40 AM 40.5°F4.7°C 27.5°F-2.5°C 60% 13.0 mph W20.9 kmh W -- 29.33 in993.2 mb 0.00 in0.0 mm 0.00 in0.0 mm 0.00 in0.0 mm
05:39 AM 40.5°F4.7°C 27.5°F-2.5°C 60% 10.0 mph W16.1 kmh W -- 29.33 in993.2 mb 0.00 in0.0 mm 0.00 in0.0 mm 0.00 in0.0 mm
05:38 AM 40.5°F4.7°C 27.5°F-2.5°C 60% 9.0 mph W14.5 kmh W -- 29.32 in992.9 mb 0.00 in0.0 mm 0.00 in0.0 mm 0.00 in0.0 mm
05:37 AM 40.2°F4.6°C 27.8°F-2.3°C 61% 10.0 mph W16.1 kmh W -- 29.32 in992.9 mb 0.00 in0.0 mm 0.00 in0.0 mm 0.00 in0.0 mm
05:36 AM 40.0°F4.4°C 27.4°F-2.6°C 61% 10.0 mph W16.1 kmh W -- 29.32 in992.9 mb 0.00 in0.0 mm 0.00 in0.0 mm 0.00 in0.0 mm
05:35 AM 40.0°F4.4°C 27.4°F-2.6°C 61% 8.0 mph W12.9 kmh W -- 29.32 in992.9 mb 0.00 in0.0 mm 0.00 in0.0 mm 0.00 in0.0 mm
05:34 AM 40.1°F4.5°C 27.2°F-2.7°C 60% 8.0 mph W12.9 kmh W -- 29.32 in992.9 mb 0.00 in0.0 mm 0.00 in0.0 mm 0.00 in0.0 mm
05:33 AM 40.0°F4.4°C 27.0°F-2.8°C 60% 7.0 mph W11.3 kmh W -- 29.32 in992.9 mb 0.00 in0.0 mm 0.00 in0.0 mm 0.00 in0.0 mm
05:32 AM 39.9°F4.4°C 27.4°F-2.6°C 61% 8.0 mph W12.9 kmh W -- 29.32 in992.9 mb 0.00 in0.0 mm 0.00 in0.0 mm 0.00 in0.0 mm
05:31 AM 39.9°F4.4°C 27.4°F-2.6°C 61% 9.0 mph W14.5 kmh W -- 29.32 in992.9 mb 0.00 in0.0 mm 0.00 in0.0 mm 0.00 in0.0 mm
05:30 AM 39.9°F4.4°C 27.4°F-2.6°C 61% 7.0 mph W11.3 kmh W -- 29.32 in992.9 mb 0.00 in0.0 mm 0.00 in0.0 mm 0.00 in0.0 mm
05:29 AM 39.5°F4.2°C 27.1°F-2.7°C 61% 9.0 mph W14.5 kmh W -- 29.32 in992.9 mb 0.00 in0.0 mm 0.00 in0.0 mm 0.00 in0.0 mm
05:28 AM 39.5°F4.2°C 27.1°F-2.7°C 61% 6.0 mph W9.7 kmh W -- 29.31 in992.6 mb 0.00 in0.0 mm 0.00 in0.0 mm 0.00 in0.0 mm
05:27 AM 39.4°F4.1°C 27.7°F-2.4°C 63% 7.0 mph W11.3 kmh W -- 29.31 in992.6 mb 0.00 in0.0 mm 0.00 in0.0 mm 0.00 in0.0 mm
05:26 AM 39.2°F4.0°C 27.5°F-2.5°C 63% 6.0 mph W9.7 kmh W -- 29.31 in992.6 mb 0.00 in0.0 mm 0.00 in0.0 mm 0.00 in0.0 mm
05:25 AM 39.2°F4.0°C 27.5°F-2.5°C 63% 5.0 mph W8.0 kmh W -- 29.31 in992.6 mb 0.00 in0.0 mm 0.00 in0.0 mm 0.00 in0.0 mm
05:24 AM 39.2°F4.0°C 27.5°F-2.5°C 63% 6.0 mph W9.7 kmh W -- 29.31 in992.6 mb 0.00 in0.0 mm 0.00 in0.0 mm 0.00 in0.0 mm
05:23 AM 39.2°F4.0°C 27.5°F-2.5°C 63% 7.0 mph W11.3 kmh W -- 29.31 in992.6 mb 0.00 in0.0 mm 0.00 in0.0 mm 0.00 in0.0 mm
05:21 AM 39.4°F4.1°C 27.7°F-2.4°C 63% 4.0 mph W6.4 kmh W -- 29.31 in992.6 mb 0.00 in0.0 mm 0.00 in0.0 mm 0.00 in0.0 mm
05:20 AM 39.4°F4.1°C 27.7°F-2.4°C 63% 3.0 mph W4.8 kmh W -- 29.31 in992.6 mb 0.00 in0.0 mm 0.00 in0.0 mm 0.00 in0.0 mm
05:18 AM 39.5°F4.2°C 27.9°F-2.3°C 63% 5.0 mph W8.0 kmh W -- 29.31 in992.6 mb 0.00 in0.0 mm 0.00 in0.0 mm 0.00 in0.0 mm
05:17 AM 39.5°F4.2°C 27.9°F-2.3°C 63% 4.0 mph W6.4 kmh W -- 29.31 in992.6 mb 0.00 in0.0 mm 0.00 in0.0 mm 0.00 in0.0 mm
05:16 AM 39.5°F4.2°C 27.9°F-2.3°C 63% 5.0 mph W8.0 kmh W -- 29.31 in992.6 mb 0.00 in0.0 mm 0.00 in0.0 mm 0.00 in0.0 mm
05:15 AM 39.7°F4.3°C 28.0°F-2.2°C 63% 5.0 mph W8.0 kmh W -- 29.31 in992.6 mb 0.00 in0.0 mm 0.00 in0.0 mm 0.00 in0.0 mm
05:14 AM 39.7°F4.3°C 28.0°F-2.2°C 63% 4.0 mph W6.4 kmh W -- 29.30 in992.2 mb 0.00 in0.0 mm 0.00 in0.0 mm 0.00 in0.0 mm
05:13 AM 39.7°F4.3°C 28.0°F-2.2°C 63% 6.0 mph W9.7 kmh W -- 29.30 in992.2 mb 0.00 in0.0 mm 0.00 in0.0 mm 0.00 in0.0 mm
05:12 AM 39.9°F4.4°C 28.2°F-2.1°C 63% 4.0 mph W6.4 kmh W -- 29.31 in992.6 mb 0.00 in0.0 mm 0.00 in0.0 mm 0.00 in0.0 mm
05:11 AM 39.9°F4.4°C 27.4°F-2.6°C 61% 4.0 mph W6.4 kmh W -- 29.31 in992.6 mb 0.00 in0.0 mm 0.00 in0.0 mm 0.00 in0.0 mm
05:10 AM 40.0°F4.4°C 27.4°F-2.6°C 61% 5.0 mph W8.0 kmh W -- 29.31 in992.6 mb 0.00 in0.0 mm 0.00 in0.0 mm 0.00 in0.0 mm
05:09 AM 40.1°F4.5°C 28.0°F-2.2°C 62% 6.0 mph W9.7 kmh W -- 29.31 in992.6 mb 0.00 in0.0 mm 0.00 in0.0 mm 0.00 in0.0 mm
05:08 AM 40.0°F4.4°C 27.4°F-2.6°C 61% 6.0 mph W9.7 kmh W -- 29.31 in992.6 mb 0.00 in0.0 mm 0.00 in0.0 mm 0.00 in0.0 mm
05:07 AM 40.0°F4.4°C 27.4°F-2.6°C 61% 5.0 mph W8.0 kmh W -- 29.31 in992.6 mb 0.00 in0.0 mm 0.00 in0.0 mm 0.00 in0.0 mm
05:05 AM 40.0°F4.4°C 27.4°F-2.6°C 61% 6.0 mph W9.7 kmh W -- 29.31 in992.6 mb 0.00 in0.0 mm 0.00 in0.0 mm 0.00 in0.0 mm
05:04 AM 40.1°F4.5°C 28.0°F-2.2°C 62% 6.0 mph W9.7 kmh W -- 29.31 in992.6 mb 0.00 in0.0 mm 0.00 in0.0 mm 0.00 in0.0 mm
05:01 AM 40.0°F4.4°C 27.4°F-2.6°C 61% 4.0 mph W6.4 kmh W -- 29.30 in992.2 mb 0.00 in0.0 mm 0.00 in0.0 mm 0.00 in0.0 mm
05:00 AM 40.0°F4.4°C 27.4°F-2.6°C 61% 5.0 mph WNW8.0 kmh WNW -- 29.30 in992.2 mb 0.00 in0.0 mm 0.00 in0.0 mm 0.00 in0.0 mm
04:59 AM 40.1°F4.5°C 28.0°F-2.2°C 62% 4.0 mph WNW6.4 kmh WNW -- 29.30 in992.2 mb 0.00 in0.0 mm 0.00 in0.0 mm 0.00 in0.0 mm
04:58 AM 40.0°F4.4°C 27.4°F-2.6°C 61% 4.0 mph W6.4 kmh W -- 29.31 in992.6 mb 0.00 in0.0 mm 0.00 in0.0 mm 0.00 in0.0 mm
04:57 AM 40.0°F4.4°C 27.4°F-2.6°C 61% 6.0 mph W9.7 kmh W -- 29.31 in992.6 mb 0.00 in0.0 mm 0.00 in0.0 mm 0.00 in0.0 mm
04:56 AM 39.9°F4.4°C 27.4°F-2.6°C 61% 5.0 mph W8.0 kmh W -- 29.30 in992.2 mb 0.00 in0.0 mm 0.00 in0.0 mm 0.00 in0.0 mm
04:55 AM 39.9°F4.4°C 27.4°F-2.6°C 61% 4.0 mph W6.4 kmh W -- 29.30 in992.2 mb 0.00 in0.0 mm 0.00 in0.0 mm 0.00 in0.0 mm
04:54 AM 39.9°F4.4°C 28.6°F-1.9°C 64% 4.0 mph W6.4 kmh W -- 29.31 in992.6 mb 0.00 in0.0 mm 0.00 in0.0 mm 0.00 in0.0 mm
04:53 AM 39.9°F4.4°C 28.2°F-2.1°C 63% 3.0 mph W4.8 kmh W -- 29.30 in992.2 mb 0.00 in0.0 mm 0.00 in0.0 mm 0.00 in0.0 mm
04:51 AM 40.0°F4.4°C 28.2°F-2.1°C 63% 4.0 mph W6.4 kmh W -- 29.30 in992.2 mb 0.00 in0.0 mm 0.00 in0.0 mm 0.00 in0.0 mm
04:50 AM 40.2°F4.6°C 28.5°F-1.9°C 63% 4.0 mph W6.4 kmh W -- 29.30 in992.2 mb 0.00 in0.0 mm 0.00 in0.0 mm 0.00 in0.0 mm
04:49 AM 40.3°F4.6°C 28.2°F-2.1°C 62% 5.0 mph W8.0 kmh W -- 29.30 in992.2 mb 0.00 in0.0 mm 0.00 in0.0 mm 0.00 in0.0 mm
04:47 AM 40.2°F4.6°C 27.8°F-2.3°C 61% 6.0 mph WNW9.7 kmh WNW -- 29.30 in992.2 mb 0.00 in0.0 mm 0.00 in0.0 mm 0.00 in0.0 mm
04:46 AM 40.2°F4.6°C 27.8°F-2.3°C 61% 7.0 mph WNW11.3 kmh WNW -- 29.30 in992.2 mb 0.00 in0.0 mm 0.00 in0.0 mm 0.00 in0.0 mm
04:45 AM 40.0°F4.4°C 27.4°F-2.6°C 61% 7.0 mph W11.3 kmh W -- 29.30 in992.2 mb 0.00 in0.0 mm 0.00 in0.0 mm 0.00 in0.0 mm
04:44 AM 40.1°F4.5°C 28.0°F-2.2°C 62% 6.0 mph WNW9.7 kmh WNW -- 29.30 in992.2 mb 0.00 in0.0 mm 0.00 in0.0 mm 0.00 in0.0 mm
04:43 AM 40.0°F4.4°C 27.4°F-2.6°C 61% 7.0 mph W11.3 kmh W -- 29.30 in992.2 mb 0.00 in0.0 mm 0.00 in0.0 mm 0.00 in0.0 mm
04:42 AM 39.9°F4.4°C 27.4°F-2.6°C 61% 8.0 mph WNW12.9 kmh WNW -- 29.30 in992.2 mb 0.00 in0.0 mm 0.00 in0.0 mm 0.00 in0.0 mm
04:41 AM 39.7°F4.3°C 27.2°F-2.7°C 61% 8.0 mph W12.9 kmh W -- 29.30 in992.2 mb 0.00 in0.0 mm 0.00 in0.0 mm 0.00 in0.0 mm
04:40 AM 39.5°F4.2°C 27.9°F-2.3°C 63% 7.0 mph W11.3 kmh W -- 29.29 in991.9 mb 0.00 in0.0 mm 0.00 in0.0 mm 0.00 in0.0 mm
04:39 AM 39.2°F4.0°C 28.3°F-2.1°C 65% 6.0 mph W9.7 kmh W -- 29.30 in992.2 mb 0.00 in0.0 mm 0.00 in0.0 mm 0.00 in0.0 mm
04:37 AM 39.0°F3.9°C 28.1°F-2.2°C 65% 6.0 mph W9.7 kmh W -- 29.30 in992.2 mb 0.00 in0.0 mm 0.00 in0.0 mm 0.00 in0.0 mm
04:36 AM 39.2°F4.0°C 28.3°F-2.1°C 65% 4.0 mph W6.4 kmh W -- 29.30 in992.2 mb 0.00 in0.0 mm 0.00 in0.0 mm 0.00 in0.0 mm
04:35 AM 39.2°F4.0°C 28.3°F-2.1°C 65% 4.0 mph WNW6.4 kmh WNW -- 29.29 in991.9 mb 0.00 in0.0 mm 0.00 in0.0 mm 0.00 in0.0 mm
04:34 AM 39.4°F4.1°C 28.5°F-1.9°C 65% 3.0 mph W4.8 kmh W -- 29.29 in991.9 mb 0.00 in0.0 mm 0.00 in0.0 mm 0.00 in0.0 mm
04:33 AM 39.4°F4.1°C 28.5°F-1.9°C 65% 4.0 mph W6.4 kmh W -- 29.29 in991.9 mb 0.00 in0.0 mm 0.00 in0.0 mm 0.00 in0.0 mm
04:32 AM 39.4°F4.1°C 27.7°F-2.4°C 63% 4.0 mph W6.4 kmh W -- 29.29 in991.9 mb 0.00 in0.0 mm 0.00 in0.0 mm 0.00 in0.0 mm
04:31 AM 39.4°F4.1°C 27.7°F-2.4°C 63% 3.0 mph WNW4.8 kmh WNW -- 29.29 in991.9 mb 0.00 in0.0 mm 0.00 in0.0 mm 0.00 in0.0 mm
04:30 AM 39.4°F4.1°C 27.7°F-2.4°C 63% 4.0 mph W6.4 kmh W -- 29.29 in991.9 mb 0.00 in0.0 mm 0.00 in0.0 mm 0.00 in0.0 mm
04:29 AM 39.4°F4.1°C 28.1°F-2.2°C 64% 4.0 mph WNW6.4 kmh WNW -- 29.29 in991.9 mb 0.00 in0.0 mm 0.00 in0.0 mm 0.00 in0.0 mm
04:27 AM 39.5°F4.2°C 27.9°F-2.3°C 63% 4.0 mph WNW6.4 kmh WNW -- 29.29 in991.9 mb 0.00 in0.0 mm 0.00 in0.0 mm 0.00 in0.0 mm
04:26 AM 39.7°F4.3°C 28.0°F-2.2°C 63% 4.0 mph W6.4 kmh W -- 29.29 in991.9 mb 0.00 in0.0 mm 0.00 in0.0 mm 0.00 in0.0 mm
04:25 AM 39.7°F4.3°C 28.0°F-2.2°C 63% 3.0 mph W4.8 kmh W -- 29.29 in991.9 mb 0.00 in0.0 mm 0.00 in0.0 mm 0.00 in0.0 mm
04:24 AM 39.9°F4.4°C 28.6°F-1.9°C 64% 3.0 mph W4.8 kmh W -- 29.29 in991.9 mb 0.00 in0.0 mm 0.00 in0.0 mm 0.00 in0.0 mm
04:23 AM 39.9°F4.4°C 28.2°F-2.1°C 63% 4.0 mph W6.4 kmh W -- 29.29 in991.9 mb 0.00 in0.0 mm 0.00 in0.0 mm 0.00 in0.0 mm
04:22 AM 40.2°F4.6°C 28.5°F-1.9°C 63% 5.0 mph W8.0 kmh W -- 29.29 in991.9 mb 0.00 in0.0 mm 0.00 in0.0 mm 0.00 in0.0 mm
04:21 AM 40.5°F4.7°C 27.9°F-2.3°C 61% 4.0 mph W6.4 kmh W -- 29.29 in991.9 mb 0.00 in0.0 mm 0.00 in0.0 mm 0.00 in0.0 mm
04:20 AM 40.5°F4.7°C 27.5°F-2.5°C 60% 8.0 mph NW12.9 kmh NW -- 29.29 in991.9 mb 0.00 in0.0 mm 0.00 in0.0 mm 0.00 in0.0 mm
04:19 AM 40.8°F4.9°C 27.9°F-2.3°C 60% 6.0 mph W9.7 kmh W -- 29.29 in991.9 mb 0.00 in0.0 mm 0.00 in0.0 mm 0.00 in0.0 mm
04:17 AM 40.7°F4.8°C 27.3°F-2.6°C 59% 7.0 mph W11.3 kmh W -- 29.28 in991.5 mb 0.00 in0.0 mm 0.00 in0.0 mm 0.00 in0.0 mm
04:16 AM 40.7°F4.8°C 27.3°F-2.6°C 59% 6.0 mph WNW9.7 kmh WNW -- 29.29 in991.9 mb 0.00 in0.0 mm 0.00 in0.0 mm 0.00 in0.0 mm
04:15 AM 40.7°F4.8°C 27.3°F-2.6°C 59% 7.0 mph W11.3 kmh W -- 29.29 in991.9 mb 0.00 in0.0 mm 0.00 in0.0 mm 0.00 in0.0 mm
04:14 AM 40.6°F4.8°C 27.3°F-2.6°C 59% 7.0 mph W11.3 kmh W -- 29.28 in991.5 mb 0.00 in0.0 mm 0.00 in0.0 mm 0.00 in0.0 mm
04:13 AM 40.5°F4.7°C 27.5°F-2.5°C 60% 9.0 mph W14.5 kmh W -- 29.28 in991.5 mb 0.00 in0.0 mm 0.00 in0.0 mm 0.00 in0.0 mm
04:12 AM 39.9°F4.4°C 27.4°F-2.6°C 61% 10.0 mph WNW16.1 kmh WNW -- 29.29 in991.9 mb 0.00 in0.0 mm 0.00 in0.0 mm 0.00 in0.0 mm
04:11 AM 39.7°F4.3°C 27.2°F-2.7°C 61% 6.0 mph WNW9.7 kmh WNW -- 29.29 in991.9 mb 0.00 in0.0 mm 0.00 in0.0 mm 0.00 in0.0 mm
04:10 AM 39.4°F4.1°C 26.9°F-2.8°C 61% 5.0 mph WNW8.0 kmh WNW -- 29.28 in991.5 mb 0.00 in0.0 mm 0.00 in0.0 mm 0.00 in0.0 mm
04:09 AM 39.0°F3.9°C 27.4°F-2.6°C 63% 4.0 mph W6.4 kmh W -- 29.28 in991.5 mb 0.00 in0.0 mm 0.00 in0.0 mm 0.00 in0.0 mm
04:08 AM 38.7°F3.7°C 27.0°F-2.8°C 63% 4.0 mph WNW6.4 kmh WNW -- 29.28 in991.5 mb 0.00 in0.0 mm 0.00 in0.0 mm 0.00 in0.0 mm
04:06 AM 38.4°F3.6°C 27.6°F-2.4°C 65% 4.0 mph W6.4 kmh W -- 29.28 in991.5 mb 0.00 in0.0 mm 0.00 in0.0 mm 0.00 in0.0 mm
04:05 AM 38.4°F3.6°C 27.6°F-2.4°C 65% 6.0 mph W9.7 kmh W -- 29.28 in991.5 mb 0.00 in0.0 mm 0.00 in0.0 mm 0.00 in0.0 mm
04:04 AM 38.3°F3.5°C 27.8°F-2.3°C 66% 7.0 mph W11.3 kmh W -- 29.28 in991.5 mb 0.00 in0.0 mm 0.00 in0.0 mm 0.00 in0.0 mm
04:03 AM 38.2°F3.4°C 27.3°F-2.6°C 65% 5.0 mph W8.0 kmh W -- 29.28 in991.5 mb 0.00 in0.0 mm 0.00 in0.0 mm 0.00 in0.0 mm
04:02 AM 37.7°F3.2°C 27.3°F-2.6°C 66% 6.0 mph W9.7 kmh W -- 29.28 in991.5 mb 0.00 in0.0 mm 0.00 in0.0 mm 0.00 in0.0 mm
04:01 AM 37.7°F3.2°C 28.0°F-2.2°C 68% 6.0 mph W9.7 kmh W -- 29.28 in991.5 mb 0.00 in0.0 mm 0.00 in0.0 mm 0.00 in0.0 mm
04:00 AM 37.5°F3.1°C 28.2°F-2.1°C 69% 8.0 mph W12.9 kmh W -- 29.28 in991.5 mb 0.00 in0.0 mm 0.00 in0.0 mm 0.00 in0.0 mm
03:59 AM 37.6°F3.1°C 28.6°F-1.9°C 70% 7.0 mph W11.3 kmh W -- 29.28 in991.5 mb 0.00 in0.0 mm 0.00 in0.0 mm 0.00 in0.0 mm
03:58 AM 37.5°F3.1°C 28.6°F-1.9°C 70% 6.0 mph W9.7 kmh W -- 29.27 in991.2 mb 0.00 in0.0 mm 0.00 in0.0 mm 0.00 in0.0 mm
03:56 AM 37.5°F3.1°C 28.6°F-1.9°C 70% 5.0 mph W8.0 kmh W -- 29.27 in991.2 mb 0.00 in0.0 mm 0.00 in0.0 mm 0.00 in0.0 mm
03:55 AM 37.5°F3.1°C 28.6°F-1.9°C 70% 6.0 mph W9.7 kmh W -- 29.27 in991.2 mb 0.00 in0.0 mm 0.00 in0.0 mm 0.00 in0.0 mm
03:54 AM 37.6°F3.1°C 28.2°F-2.1°C 69% 5.0 mph W8.0 kmh W -- 29.27 in991.2 mb 0.00 in0.0 mm 0.00 in0.0 mm 0.00 in0.0 mm
03:53 AM 37.4°F3.0°C 28.0°F-2.2°C 69% 5.0 mph W8.0 kmh W -- 29.27 in991.2 mb 0.00 in0.0 mm 0.00 in0.0 mm 0.00 in0.0 mm
03:51 AM 37.0°F2.8°C 28.1°F-2.2°C 70% 6.0 mph W9.7 kmh W -- 29.27 in991.2 mb 0.00 in0.0 mm 0.00 in0.0 mm 0.00 in0.0 mm
03:50 AM 37.0°F2.8°C 28.1°F-2.2°C 70% 8.0 mph W12.9 kmh W -- 29.27 in991.2 mb 0.00 in0.0 mm 0.00 in0.0 mm 0.00 in0.0 mm
03:48 AM 37.0°F2.8°C 28.1°F-2.2°C 70% 7.0 mph W11.3 kmh W -- 29.27 in991.2 mb 0.00 in0.0 mm 0.00 in0.0 mm 0.00 in0.0 mm
03:47 AM 37.0°F2.8°C 28.1°F-2.2°C 70% 5.0 mph WNW8.0 kmh WNW -- 29.27 in991.2 mb 0.00 in0.0 mm 0.00 in0.0 mm 0.00 in0.0 mm
03:46 AM 37.0°F2.8°C 28.1°F-2.2°C 70% 5.0 mph W8.0 kmh W -- 29.27 in991.2 mb 0.00 in0.0 mm 0.00 in0.0 mm 0.00 in0.0 mm
03:45 AM 37.0°F2.8°C 28.1°F-2.2°C 70% 7.0 mph W11.3 kmh W -- 29.27 in991.2 mb 0.00 in0.0 mm 0.00 in0.0 mm 0.00 in0.0 mm
03:44 AM 37.0°F2.8°C 28.1°F-2.2°C 70% 6.0 mph W9.7 kmh W -- 29.27 in991.2 mb 0.00 in0.0 mm 0.00 in0.0 mm 0.00 in0.0 mm
03:42 AM 37.0°F2.8°C 28.1°F-2.2°C 70% 7.0 mph W11.3 kmh W -- 29.27 in991.2 mb 0.00 in0.0 mm 0.00 in0.0 mm 0.00 in0.0 mm
03:41 AM 37.0°F2.8°C 27.3°F-2.6°C 68% 6.0 mph W9.7 kmh W -- 29.27 in991.2 mb 0.00 in0.0 mm 0.00 in0.0 mm 0.00 in0.0 mm
03:40 AM 37.0°F2.8°C 27.3°F-2.6°C 68% 6.0 mph W9.7 kmh W -- 29.26 in990.9 mb 0.00 in0.0 mm 0.00 in0.0 mm 0.00 in0.0 mm
03:39 AM 36.7°F2.6°C 27.4°F-2.6°C 69% 7.0 mph W11.3 kmh W -- 29.26 in990.9 mb 0.00 in0.0 mm 0.00 in0.0 mm 0.00 in0.0 mm
03:38 AM 36.7°F2.6°C 27.4°F-2.6°C 69% 6.0 mph WSW9.7 kmh WSW -- 29.27 in991.2 mb 0.00 in0.0 mm 0.00 in0.0 mm 0.00 in0.0 mm
03:36 AM 36.2°F2.3°C 27.2°F-2.7°C 70% 8.0 mph W12.9 kmh W -- 29.27 in991.2 mb 0.00 in0.0 mm 0.00 in0.0 mm 0.00 in0.0 mm
03:35 AM 36.1°F2.3°C 27.2°F-2.7°C 70% 7.0 mph W11.3 kmh W -- 29.27 in991.2 mb 0.00 in0.0 mm 0.00 in0.0 mm 0.00 in0.0 mm
03:34 AM 36.0°F2.2°C 27.4°F-2.6°C 71% 6.0 mph W9.7 kmh W -- 29.27 in991.2 mb 0.00 in0.0 mm 0.00 in0.0 mm 0.00 in0.0 mm
03:32 AM 35.9°F2.2°C 27.0°F-2.8°C 70% 6.0 mph W9.7 kmh W -- 29.27 in991.2 mb 0.00 in0.0 mm 0.00 in0.0 mm 0.00 in0.0 mm
03:31 AM 35.9°F2.2°C 27.0°F-2.8°C 70% 6.0 mph W9.7 kmh W -- 29.26 in990.9 mb 0.00 in0.0 mm 0.00 in0.0 mm 0.00 in0.0 mm
03:29 AM 36.0°F2.2°C 27.4°F-2.6°C 71% 5.0 mph W8.0 kmh W -- 29.27 in991.2 mb 0.00 in0.0 mm 0.00 in0.0 mm 0.00 in0.0 mm
03:28 AM 35.9°F2.2°C 27.0°F-2.8°C 70% 4.0 mph W6.4 kmh W -- 29.27 in991.2 mb 0.00 in0.0 mm 0.00 in0.0 mm 0.00 in0.0 mm
03:27 AM 35.7°F2.1°C 26.8°F-2.9°C 70% 4.0 mph W6.4 kmh W -- 29.26 in990.9 mb 0.00 in0.0 mm 0.00 in0.0 mm 0.00 in0.0 mm
03:26 AM 35.4°F1.9°C 26.5°F-3.1°C 70% 6.0 mph W9.7 kmh W -- 29.27 in991.2 mb 0.00 in0.0 mm 0.00 in0.0 mm 0.00 in0.0 mm
03:25 AM 35.1°F1.7°C 26.1°F-3.3°C 70% 4.0 mph SW6.4 kmh SW -- 29.26 in990.9 mb 0.00 in0.0 mm 0.00 in0.0 mm 0.00 in0.0 mm
03:24 AM 35.1°F1.7°C 26.5°F-3.1°C 71% 3.0 mph W4.8 kmh W -- 29.27 in991.2 mb 0.00 in0.0 mm 0.00 in0.0 mm 0.00 in0.0 mm
03:23 AM 35.0°F1.7°C 26.1°F-3.3°C 70% 5.0 mph W8.0 kmh W -- 29.27 in991.2 mb 0.00 in0.0 mm 0.00 in0.0 mm 0.00 in0.0 mm
03:22 AM 34.9°F1.6°C 26.0°F-3.3°C 70% 5.0 mph SW8.0 kmh SW -- 29.27 in991.2 mb 0.00 in0.0 mm 0.00 in0.0 mm 0.00 in0.0 mm
03:21 AM 34.7°F1.5°C 26.1°F-3.3°C 71% 4.0 mph SW6.4 kmh SW -- 29.26 in990.9 mb 0.00 in0.0 mm 0.00 in0.0 mm 0.00 in0.0 mm
03:20 AM 34.5°F1.4°C 26.7°F-2.9°C 73% 4.0 mph WNW6.4 kmh WNW -- 29.26 in990.9 mb 0.00 in0.0 mm 0.00 in0.0 mm 0.00 in0.0 mm
03:19 AM 34.5°F1.4°C 26.7°F-2.9°C 73% 3.0 mph W4.8 kmh W -- 29.26 in990.9 mb 0.00 in0.0 mm 0.00 in0.0 mm 0.00 in0.0 mm
03:18 AM 34.5°F1.4°C 26.7°F-2.9°C 73% 2.0 mph W3.2 kmh W -- 29.27 in991.2 mb 0.00 in0.0 mm 0.00 in0.0 mm 0.00 in0.0 mm
03:17 AM 34.2°F1.2°C 26.3°F-3.2°C 73% 2.0 mph SSW3.2 kmh SSW -- 29.26 in990.9 mb 0.00 in0.0 mm 0.00 in0.0 mm 0.00 in0.0 mm
03:16 AM 34.2°F1.2°C 26.6°F-3.0°C 74% 4.0 mph SW6.4 kmh SW -- 29.26 in990.9 mb 0.00 in0.0 mm 0.00 in0.0 mm 0.00 in0.0 mm
03:15 AM 34.2°F1.2°C 26.6°F-3.0°C 74% Calm Calm -- 29.26 in990.9 mb 0.00 in0.0 mm 0.00 in0.0 mm 0.00 in0.0 mm
03:14 AM 34.5°F1.4°C 27.0°F-2.8°C 74% Calm Calm -- 29.26 in990.9 mb 0.00 in0.0 mm 0.00 in0.0 mm 0.00 in0.0 mm
03:13 AM 34.5°F1.4°C 27.0°F-2.8°C 74% Calm Calm -- 29.26 in990.9 mb 0.00 in0.0 mm 0.00 in0.0 mm 0.00 in0.0 mm
03:12 AM 34.5°F1.4°C 27.0°F-2.8°C 74% Calm Calm -- 29.26 in990.9 mb 0.00 in0.0 mm 0.00 in0.0 mm 0.00 in0.0 mm
03:10 AM 34.5°F1.4°C 26.7°F-2.9°C 73% Calm Calm -- 29.26 in990.9 mb 0.00 in0.0 mm 0.00 in0.0 mm 0.00 in0.0 mm
03:09 AM 34.5°F1.4°C 26.7°F-2.9°C 73% Calm Calm -- 29.26 in990.9 mb 0.00 in0.0 mm 0.00 in0.0 mm 0.00 in0.0 mm
03:08 AM 34.5°F1.4°C 26.7°F-2.9°C 73% Calm Calm -- 29.26 in990.9 mb 0.00 in0.0 mm 0.00 in0.0 mm 0.00 in0.0 mm
03:04 AM 34.7°F1.5°C 26.8°F-2.9°C 73% Calm Calm -- 29.26 in990.9 mb 0.00 in0.0 mm 0.00 in0.0 mm 0.00 in0.0 mm
03:03 AM 34.7°F1.5°C 26.1°F-3.3°C 71% Calm Calm -- 29.26 in990.9 mb 0.00 in0.0 mm 0.00 in0.0 mm 0.00 in0.0 mm
03:00 AM 34.7°F1.5°C 26.1°F-3.3°C 71% Calm Calm -- 29.26 in990.9 mb 0.00 in0.0 mm 0.00 in0.0 mm 0.00 in0.0 mm
02:59 AM 34.9°F1.6°C 26.7°F-2.9°C 72% Calm Calm -- 29.26 in990.9 mb 0.00 in0.0 mm 0.00 in0.0 mm 0.00 in0.0 mm
02:58 AM 34.9°F1.6°C 26.3°F-3.2°C 71% Calm Calm -- 29.26 in990.9 mb 0.00 in0.0 mm 0.00 in0.0 mm 0.00 in0.0 mm
02:56 AM 34.9°F1.6°C 26.3°F-3.2°C 71% Calm Calm -- 29.26 in990.9 mb 0.00 in0.0 mm 0.00 in0.0 mm 0.00 in0.0 mm
02:55 AM 34.9°F1.6°C 26.3°F-3.2°C 71% Calm Calm -- 29.26 in990.9 mb 0.00 in0.0 mm 0.00 in0.0 mm 0.00 in0.0 mm
02:54 AM 34.9°F1.6°C 26.7°F-2.9°C 72% Calm Calm -- 29.25 in990.5 mb 0.00 in0.0 mm 0.00 in0.0 mm 0.00 in0.0 mm
02:53 AM 34.9°F1.6°C 26.3°F-3.2°C 71% Calm Calm -- 29.25 in990.5 mb 0.00 in0.0 mm 0.00 in0.0 mm 0.00 in0.0 mm
02:52 AM 35.0°F1.7°C 26.5°F-3.1°C 71% Calm Calm -- 29.26 in990.9 mb 0.00 in0.0 mm 0.00 in0.0 mm 0.00 in0.0 mm
02:51 AM 35.0°F1.7°C 26.5°F-3.1°C 71% Calm Calm -- 29.26 in990.9 mb 0.00 in0.0 mm 0.00 in0.0 mm 0.00 in0.0 mm
02:50 AM 35.0°F1.7°C 26.5°F-3.1°C 71% 1.0 mph SSW1.6 kmh SSW -- 29.26 in990.9 mb 0.00 in0.0 mm 0.00 in0.0 mm 0.00 in0.0 mm
02:49 AM 35.1°F1.7°C 26.8°F-2.9°C 72% 1.0 mph SW1.6 kmh SW -- 29.26 in990.9 mb 0.00 in0.0 mm 0.00 in0.0 mm 0.00 in0.0 mm
02:48 AM 35.0°F1.7°C 26.5°F-3.1°C 71% 1.0 mph SSW1.6 kmh SSW -- 29.25 in990.5 mb 0.00 in0.0 mm 0.00 in0.0 mm 0.00 in0.0 mm
02:46 AM 35.0°F1.7°C 26.5°F-3.1°C 71% 2.0 mph SSW3.2 kmh SSW -- 29.25 in990.5 mb 0.00 in0.0 mm 0.00 in0.0 mm 0.00 in0.0 mm
02:45 AM 35.0°F1.7°C 26.5°F-3.1°C 71% 2.0 mph SSW3.2 kmh SSW -- 29.26 in990.9 mb 0.00 in0.0 mm 0.00 in0.0 mm 0.00 in0.0 mm
02:44 AM 35.1°F1.7°C 26.8°F-2.9°C 72% 1.0 mph SSW1.6 kmh SSW -- 29.26 in990.9 mb 0.00 in0.0 mm 0.00 in0.0 mm 0.00 in0.0 mm
02:43 AM 35.0°F1.7°C 26.5°F-3.1°C 71% 2.0 mph S3.2 kmh S -- 29.25 in990.5 mb 0.00 in0.0 mm 0.00 in0.0 mm 0.00 in0.0 mm
02:42 AM 34.9°F1.6°C 26.3°F-3.2°C 71% 1.0 mph S1.6 kmh S -- 29.25 in990.5 mb 0.00 in0.0 mm 0.00 in0.0 mm 0.00 in0.0 mm
02:41 AM 34.5°F1.4°C 26.7°F-2.9°C 73% 2.0 mph S3.2 kmh S -- 29.25 in990.5 mb 0.00 in0.0 mm 0.00 in0.0 mm 0.00 in0.0 mm
02:40 AM 34.2°F1.2°C 26.6°F-3.0°C 74% Calm Calm -- 29.25 in990.5 mb 0.00 in0.0 mm 0.00 in0.0 mm 0.00 in0.0 mm
02:39 AM 34.5°F1.4°C 27.3°F-2.6°C 75% Calm Calm -- 29.26 in990.9 mb 0.00 in0.0 mm 0.00 in0.0 mm 0.00 in0.0 mm
02:38 AM 34.7°F1.5°C 27.2°F-2.7°C 74% Calm Calm -- 29.26 in990.9 mb 0.00 in0.0 mm 0.00 in0.0 mm 0.00 in0.0 mm
02:36 AM 34.9°F1.6°C 27.3°F-2.6°C 74% Calm Calm -- 29.25 in990.5 mb 0.00 in0.0 mm 0.00 in0.0 mm 0.00 in0.0 mm
02:35 AM 34.9°F1.6°C 27.3°F-2.6°C 74% 1.0 mph S1.6 kmh S -- 29.26 in990.9 mb 0.00 in0.0 mm 0.00 in0.0 mm 0.00 in0.0 mm
02:34 AM 34.9°F1.6°C 27.3°F-2.6°C 74% Calm Calm -- 29.26 in990.9 mb 0.00 in0.0 mm 0.00 in0.0 mm 0.00 in0.0 mm
02:33 AM 34.9°F1.6°C 27.3°F-2.6°C 74% 1.0 mph SSW1.6 kmh SSW -- 29.26 in990.9 mb 0.00 in0.0 mm 0.00 in0.0 mm 0.00 in0.0 mm
02:32 AM 34.9°F1.6°C 27.3°F-2.6°C 74% 1.0 mph SW1.6 kmh SW -- 29.26 in990.9 mb 0.00 in0.0 mm 0.00 in0.0 mm 0.00 in0.0 mm
02:31 AM 34.9°F1.6°C 27.3°F-2.6°C 74% 2.0 mph SW3.2 kmh SW -- 29.25 in990.5 mb 0.00 in0.0 mm 0.00 in0.0 mm 0.00 in0.0 mm
02:30 AM 34.9°F1.6°C 27.3°F-2.6°C 74% Calm Calm -- 29.25 in990.5 mb 0.00 in0.0 mm 0.00 in0.0 mm 0.00 in0.0 mm
02:29 AM 34.9°F1.6°C 27.3°F-2.6°C 74% Calm Calm -- 29.26 in990.9 mb 0.00 in0.0 mm 0.00 in0.0 mm 0.00 in0.0 mm
02:28 AM 34.9°F1.6°C 27.3°F-2.6°C 74% Calm Calm -- 29.26 in990.9 mb 0.00 in0.0 mm 0.00 in0.0 mm 0.00 in0.0 mm
02:25 AM 35.0°F1.7°C 27.5°F-2.5°C 74% Calm Calm -- 29.26 in990.9 mb 0.00 in0.0 mm 0.00 in0.0 mm 0.00 in0.0 mm
02:24 AM 35.1°F1.7°C 27.5°F-2.5°C 74% Calm Calm -- 29.26 in990.9 mb 0.00 in0.0 mm 0.00 in0.0 mm 0.00 in0.0 mm
02:23 AM 35.0°F1.7°C 27.5°F-2.5°C 74% Calm Calm -- 29.25 in990.5 mb 0.00 in0.0 mm 0.00 in0.0 mm 0.00 in0.0 mm
02:22 AM 35.0°F1.7°C 27.8°F-2.3°C 75% Calm Calm -- 29.25 in990.5 mb 0.00 in0.0 mm 0.00 in0.0 mm 0.00 in0.0 mm
02:21 AM 35.0°F1.7°C 27.8°F-2.3°C 75% Calm Calm -- 29.26 in990.9 mb 0.00 in0.0 mm 0.00 in0.0 mm 0.00 in0.0 mm
02:20 AM 35.1°F1.7°C 27.8°F-2.3°C 75% Calm Calm -- 29.26 in990.9 mb 0.00 in0.0 mm 0.00 in0.0 mm 0.00 in0.0 mm
02:19 AM 35.4°F1.9°C 27.9°F-2.3°C 74% Calm Calm -- 29.26 in990.9 mb 0.00 in0.0 mm 0.00 in0.0 mm 0.00 in0.0 mm
02:17 AM 35.5°F1.9°C 27.5°F-2.5°C 73% Calm Calm -- 29.25 in990.5 mb 0.00 in0.0 mm 0.00 in0.0 mm 0.00 in0.0 mm
02:16 AM 35.5°F1.9°C 27.9°F-2.3°C 74% Calm Calm -- 29.25 in990.5 mb 0.00 in0.0 mm 0.00 in0.0 mm 0.00 in0.0 mm
02:15 AM 35.5°F1.9°C 27.9°F-2.3°C 74% Calm Calm -- 29.25 in990.5 mb 0.00 in0.0 mm 0.00 in0.0 mm 0.00 in0.0 mm
02:14 AM 35.8°F2.1°C 28.2°F-2.1°C 74% Calm Calm -- 29.25 in990.5 mb 0.00 in0.0 mm 0.00 in0.0 mm 0.00 in0.0 mm
02:13 AM 35.7°F2.1°C 28.2°F-2.1°C 74% Calm Calm -- 29.25 in990.5 mb 0.00 in0.0 mm 0.00 in0.0 mm 0.00 in0.0 mm
02:12 AM 35.7°F2.1°C 28.2°F-2.1°C 74% Calm Calm -- 29.25 in990.5 mb 0.00 in0.0 mm 0.00 in0.0 mm 0.00 in0.0 mm
02:11 AM 35.9°F2.2°C 28.4°F-2.0°C 74% Calm Calm -- 29.25 in990.5 mb 0.00 in0.0 mm 0.00 in0.0 mm 0.00 in0.0 mm
02:10 AM 35.9°F2.2°C 28.0°F-2.2°C 73% Calm Calm -- 29.25 in990.5 mb 0.00 in0.0 mm 0.00 in0.0 mm 0.00 in0.0 mm
02:09 AM 36.0°F2.2°C 28.0°F-2.2°C 73% Calm Calm -- 29.25 in990.5 mb 0.00 in0.0 mm 0.00 in0.0 mm 0.00 in0.0 mm
02:08 AM 35.9°F2.2°C 28.0°F-2.2°C 73% Calm Calm -- 29.25 in990.5 mb 0.00 in0.0 mm 0.00 in0.0 mm 0.00 in0.0 mm
02:07 AM 36.1°F2.3°C 28.2°F-2.1°C 73% Calm Calm -- 29.25 in990.5 mb 0.00 in0.0 mm 0.00 in0.0 mm 0.00 in0.0 mm
02:06 AM 36.1°F2.3°C 28.2°F-2.1°C 73% Calm Calm -- 29.25 in990.5 mb 0.00 in0.0 mm 0.00 in0.0 mm 0.00 in0.0 mm
02:05 AM 36.3°F2.4°C 28.7°F-1.8°C 74% Calm Calm -- 29.25 in990.5 mb 0.00 in0.0 mm 0.00 in0.0 mm 0.00 in0.0 mm
02:04 AM 36.3°F2.4°C 28.7°F-1.8°C 74% Calm Calm -- 29.25 in990.5 mb 0.00 in0.0 mm 0.00 in0.0 mm 0.00 in0.0 mm
02:03 AM 36.2°F2.3°C 28.6°F-1.9°C 74% Calm Calm -- 29.25 in990.5 mb 0.00 in0.0 mm 0.00 in0.0 mm 0.00 in0.0 mm
02:02 AM 36.5°F2.5°C 28.9°F-1.7°C 74% Calm Calm -- 29.25 in990.5 mb 0.00 in0.0 mm 0.00 in0.0 mm 0.00 in0.0 mm
02:00 AM 36.5°F2.5°C 28.9°F-1.7°C 74% Calm Calm -- 29.26 in990.9 mb 0.00 in0.0 mm 0.00 in0.0 mm 0.00 in0.0 mm
01:58 AM 36.5°F2.5°C 28.9°F-1.7°C 74% Calm Calm -- 29.25 in990.5 mb 0.00 in0.0 mm 0.00 in0.0 mm 0.00 in0.0 mm
01:57 AM 37.0°F2.8°C 29.1°F-1.6°C 73% Calm Calm -- 29.25 in990.5 mb 0.00 in0.0 mm 0.00 in0.0 mm 0.00 in0.0 mm
01:56 AM 37.0°F2.8°C 29.1°F-1.6°C 73% Calm Calm -- 29.25 in990.5 mb 0.00 in0.0 mm 0.00 in0.0 mm 0.00 in0.0 mm
01:55 AM 37.0°F2.8°C 29.1°F-1.6°C 73% Calm Calm -- 29.25 in990.5 mb 0.00 in0.0 mm 0.00 in0.0 mm 0.00 in0.0 mm
01:53 AM 37.0°F2.8°C 29.1°F-1.6°C 73% Calm Calm -- 29.26 in990.9 mb 0.00 in0.0 mm 0.00 in0.0 mm 0.00 in0.0 mm
01:52 AM 37.0°F2.8°C 29.1°F-1.6°C 73% 1.0 mph WNW1.6 kmh WNW -- 29.26 in990.9 mb 0.00 in0.0 mm 0.00 in0.0 mm 0.00 in0.0 mm
01:51 AM 37.2°F2.9°C 29.3°F-1.5°C 73% 2.0 mph W3.2 kmh W -- 29.25 in990.5 mb 0.00 in0.0 mm 0.00 in0.0 mm 0.00 in0.0 mm
01:50 AM 37.2°F2.9°C 28.6°F-1.9°C 71% 2.0 mph SW3.2 kmh SW -- 29.25 in990.5 mb 0.00 in0.0 mm 0.00 in0.0 mm 0.00 in0.0 mm
01:49 AM 37.6°F3.1°C 28.9°F-1.7°C 71% Calm Calm -- 29.25 in990.5 mb 0.00 in0.0 mm 0.00 in0.0 mm 0.00 in0.0 mm
01:48 AM 37.7°F3.2°C 28.7°F-1.8°C 70% Calm Calm -- 29.25 in990.5 mb 0.00 in0.0 mm 0.00 in0.0 mm 0.00 in0.0 mm
01:47 AM 37.7°F3.2°C 28.7°F-1.8°C 70% Calm Calm -- 29.25 in990.5 mb 0.00 in0.0 mm 0.00 in0.0 mm 0.00 in0.0 mm
01:46 AM 37.7°F3.2°C 28.4°F-2.0°C 69% Calm Calm -- 29.25 in990.5 mb 0.00 in0.0 mm 0.00 in0.0 mm 0.00 in0.0 mm
01:45 AM 37.7°F3.2°C 28.4°F-2.0°C 69% 2.0 mph WNW3.2 kmh WNW -- 29.25 in990.5 mb 0.00 in0.0 mm 0.00 in0.0 mm 0.00 in0.0 mm
01:44 AM 37.8°F3.2°C 28.4°F-2.0°C 69% Calm Calm -- 29.25 in990.5 mb 0.00 in0.0 mm 0.00 in0.0 mm 0.00 in0.0 mm
01:43 AM 37.8°F3.2°C 28.4°F-2.0°C 69% 3.0 mph W4.8 kmh W -- 29.25 in990.5 mb 0.00 in0.0 mm 0.00 in0.0 mm 0.00 in0.0 mm
01:42 AM 38.0°F3.3°C 28.2°F-2.1°C 68% 2.0 mph WNW3.2 kmh WNW -- 29.25 in990.5 mb 0.00 in0.0 mm 0.00 in0.0 mm 0.00 in0.0 mm
01:41 AM 38.2°F3.4°C 27.6°F-2.4°C 66% Calm Calm -- 29.25 in990.5 mb 0.00 in0.0 mm 0.00 in0.0 mm 0.00 in0.0 mm
01:40 AM 38.2°F3.4°C 27.6°F-2.4°C 66% Calm Calm -- 29.25 in990.5 mb 0.00 in0.0 mm 0.00 in0.0 mm 0.00 in0.0 mm
01:39 AM 38.3°F3.5°C 28.2°F-2.1°C 67% Calm Calm -- 29.25 in990.5 mb 0.00 in0.0 mm 0.00 in0.0 mm 0.00 in0.0 mm
01:38 AM 38.2°F3.4°C 27.6°F-2.4°C 66% Calm Calm -- 29.25 in990.5 mb 0.00 in0.0 mm 0.00 in0.0 mm 0.00 in0.0 mm
01:37 AM 38.4°F3.6°C 28.0°F-2.2°C 66% 2.0 mph WNW3.2 kmh WNW -- 29.25 in990.5 mb 0.00 in0.0 mm 0.00 in0.0 mm 0.00 in0.0 mm
01:36 AM 38.4°F3.6°C 28.0°F-2.2°C 66% 2.0 mph NW3.2 kmh NW -- 29.25 in990.5 mb 0.00 in0.0 mm 0.00 in0.0 mm 0.00 in0.0 mm
01:35 AM 38.4°F3.6°C 28.0°F-2.2°C 66% 2.0 mph 3.2 kmh -- 29.25 in990.5 mb 0.00 in0.0 mm 0.00 in0.0 mm 0.00 in0.0 mm
01:34 AM 38.7°F3.7°C 28.5°F-1.9°C 67% 2.0 mph NNE3.2 kmh NNE -- 29.25 in990.5 mb 0.00 in0.0 mm 0.00 in0.0 mm 0.00 in0.0 mm
01:33 AM 38.7°F3.7°C 28.2°F-2.1°C 66% 2.0 mph 3.2 kmh -- 29.25 in990.5 mb 0.00 in0.0 mm 0.00 in0.0 mm 0.00 in0.0 mm
01:32 AM 38.7°F3.7°C 27.8°F-2.3°C 65% Calm Calm -- 29.25 in990.5 mb 0.00 in0.0 mm 0.00 in0.0 mm 0.00 in0.0 mm
01:31 AM 38.7°F3.7°C 27.8°F-2.3°C 65% 3.0 mph NNW4.8 kmh NNW -- 29.26 in990.9 mb 0.00 in0.0 mm 0.00 in0.0 mm 0.00 in0.0 mm
01:30 AM 38.7°F3.7°C 27.8°F-2.3°C 65% 5.0 mph NW8.0 kmh NW -- 29.25 in990.5 mb 0.00 in0.0 mm 0.00 in0.0 mm 0.00 in0.0 mm
01:29 AM 38.8°F3.8°C 27.9°F-2.3°C 65% 4.0 mph 6.4 kmh -- 29.25 in990.5 mb 0.00 in0.0 mm 0.00 in0.0 mm 0.00 in0.0 mm
01:28 AM 38.7°F3.7°C 27.8°F-2.3°C 65% 2.0 mph NW3.2 kmh NW -- 29.25 in990.5 mb 0.00 in0.0 mm 0.00 in0.0 mm 0.00 in0.0 mm
01:27 AM 38.7°F3.7°C 27.8°F-2.3°C 65% 2.0 mph WSW3.2 kmh WSW -- 29.25 in990.5 mb 0.00 in0.0 mm 0.00 in0.0 mm 0.00 in0.0 mm
01:26 AM 39.0°F3.9°C 28.1°F-2.2°C 65% 3.0 mph W4.8 kmh W -- 29.25 in990.5 mb 0.00 in0.0 mm 0.00 in0.0 mm 0.00 in0.0 mm
01:25 AM 39.0°F3.9°C 28.1°F-2.2°C 65% 5.0 mph WNW8.0 kmh WNW -- 29.25 in990.5 mb 0.00 in0.0 mm 0.00 in0.0 mm 0.00 in0.0 mm
01:24 AM 39.2°F4.0°C 28.3°F-2.1°C 65% 4.0 mph NW6.4 kmh NW -- 29.24 in990.2 mb 0.00 in0.0 mm 0.00 in0.0 mm 0.00 in0.0 mm
01:23 AM 39.4°F4.1°C 26.9°F-2.8°C 61% Calm Calm -- 29.24 in990.2 mb 0.00 in0.0 mm 0.00 in0.0 mm 0.00 in0.0 mm
01:22 AM 39.4°F4.1°C 26.9°F-2.8°C 61% 1.0 mph NNE1.6 kmh NNE -- 29.24 in990.2 mb 0.00 in0.0 mm 0.00 in0.0 mm 0.00 in0.0 mm
01:21 AM 39.4°F4.1°C 27.7°F-2.4°C 63% 2.0 mph NNE3.2 kmh NNE -- 29.24 in990.2 mb 0.00 in0.0 mm 0.00 in0.0 mm 0.00 in0.0 mm
01:20 AM 39.5°F4.2°C 27.9°F-2.3°C 63% 2.0 mph ENE3.2 kmh ENE -- 29.24 in990.2 mb 0.00 in0.0 mm 0.00 in0.0 mm 0.00 in0.0 mm
01:19 AM 39.6°F4.2°C 28.3°F-2.1°C 64% 1.0 mph NE1.6 kmh NE -- 29.24 in990.2 mb 0.00 in0.0 mm 0.00 in0.0 mm 0.00 in0.0 mm
01:18 AM 39.7°F4.3°C 28.0°F-2.2°C 63% 2.0 mph NE3.2 kmh NE -- 29.24 in990.2 mb 0.00 in0.0 mm 0.00 in0.0 mm 0.00 in0.0 mm
01:17 AM 39.7°F4.3°C 28.0°F-2.2°C 63% 2.0 mph NNE3.2 kmh NNE -- 29.25 in990.5 mb 0.00 in0.0 mm 0.00 in0.0 mm 0.00 in0.0 mm
01:16 AM 39.9°F4.4°C 27.4°F-2.6°C 61% 4.0 mph NNE6.4 kmh NNE -- 29.24 in990.2 mb 0.00 in0.0 mm 0.00 in0.0 mm 0.00 in0.0 mm
01:15 AM 39.9°F4.4°C 27.4°F-2.6°C 61% 3.0 mph NNE4.8 kmh NNE -- 29.24 in990.2 mb 0.00 in0.0 mm 0.00 in0.0 mm 0.00 in0.0 mm
01:14 AM 40.1°F4.5°C 28.0°F-2.2°C 62% 3.0 mph 4.8 kmh -- 29.24 in990.2 mb 0.00 in0.0 mm 0.00 in0.0 mm 0.00 in0.0 mm
01:13 AM 40.2°F4.6°C 27.8°F-2.3°C 61% 3.0 mph ENE4.8 kmh ENE -- 29.24 in990.2 mb 0.00 in0.0 mm 0.00 in0.0 mm 0.00 in0.0 mm
01:12 AM 40.5°F4.7°C 27.9°F-2.3°C 61% 5.0 mph NE8.0 kmh NE -- 29.24 in990.2 mb 0.00 in0.0 mm 0.00 in0.0 mm 0.00 in0.0 mm
01:11 AM 40.5°F4.7°C 27.1°F-2.7°C 59% 3.0 mph NNW4.8 kmh NNW -- 29.24 in990.2 mb 0.00 in0.0 mm 0.00 in0.0 mm 0.00 in0.0 mm
01:10 AM 40.5°F4.7°C 26.7°F-2.9°C 58% 2.0 mph 3.2 kmh -- 29.24 in990.2 mb 0.00 in0.0 mm 0.00 in0.0 mm 0.00 in0.0 mm
01:09 AM 40.6°F4.8°C 26.9°F-2.8°C 58% 3.0 mph W4.8 kmh W -- 29.24 in990.2 mb 0.00 in0.0 mm 0.00 in0.0 mm 0.00 in0.0 mm
01:08 AM 40.7°F4.8°C 26.9°F-2.8°C 58% 3.0 mph W4.8 kmh W -- 29.24 in990.2 mb 0.00 in0.0 mm 0.00 in0.0 mm 0.00 in0.0 mm
01:07 AM 40.7°F4.8°C 26.0°F-3.3°C 56% 5.0 mph WNW8.0 kmh WNW -- 29.24 in990.2 mb 0.00 in0.0 mm 0.00 in0.0 mm 0.00 in0.0 mm
01:06 AM 40.7°F4.8°C 26.0°F-3.3°C 56% 6.0 mph SW9.7 kmh SW -- 29.24 in990.2 mb 0.00 in0.0 mm 0.00 in0.0 mm 0.00 in0.0 mm
01:05 AM 40.7°F4.8°C 26.0°F-3.3°C 56% 6.0 mph WSW9.7 kmh WSW -- 29.24 in990.2 mb 0.00 in0.0 mm 0.00 in0.0 mm 0.00 in0.0 mm
01:04 AM 40.8°F4.9°C 26.6°F-3.0°C 57% 6.0 mph WSW9.7 kmh WSW -- 29.24 in990.2 mb 0.00 in0.0 mm 0.00 in0.0 mm 0.00 in0.0 mm
01:03 AM 40.7°F4.8°C 26.0°F-3.3°C 56% 8.0 mph WSW12.9 kmh WSW -- 29.24 in990.2 mb 0.00 in0.0 mm 0.00 in0.0 mm 0.00 in0.0 mm
01:01 AM 40.7°F4.8°C 26.0°F-3.3°C 56% 7.0 mph SSW11.3 kmh SSW -- 29.24 in990.2 mb 0.00 in0.0 mm 0.00 in0.0 mm 0.00 in0.0 mm
01:00 AM 40.7°F4.8°C 26.0°F-3.3°C 56% 5.0 mph SSW8.0 kmh SSW -- 29.24 in990.2 mb 0.00 in0.0 mm 0.00 in0.0 mm 0.00 in0.0 mm
12:59 AM 40.8°F4.9°C 26.6°F-3.0°C 57% 6.0 mph S9.7 kmh S -- 29.24 in990.2 mb 0.00 in0.0 mm 0.00 in0.0 mm 0.00 in0.0 mm
12:58 AM 40.7°F4.8°C 26.0°F-3.3°C 56% 7.0 mph SW11.3 kmh SW -- 29.23 in989.8 mb 0.00 in0.0 mm 0.00 in0.0 mm 0.00 in0.0 mm
12:57 AM 40.7°F4.8°C 26.0°F-3.3°C 56% 8.0 mph SW12.9 kmh SW -- 29.24 in990.2 mb 0.00 in0.0 mm 0.00 in0.0 mm 0.00 in0.0 mm
12:56 AM 40.7°F4.8°C 26.0°F-3.3°C 56% 7.0 mph W11.3 kmh W -- 29.24 in990.2 mb 0.00 in0.0 mm 0.00 in0.0 mm 0.00 in0.0 mm
12:55 AM 40.7°F4.8°C 26.0°F-3.3°C 56% 6.0 mph W9.7 kmh W -- 29.24 in990.2 mb 0.00 in0.0 mm 0.00 in0.0 mm 0.00 in0.0 mm
12:54 AM 40.8°F4.9°C 26.6°F-3.0°C 57% 6.0 mph WSW9.7 kmh WSW -- 29.24 in990.2 mb 0.00 in0.0 mm 0.00 in0.0 mm 0.00 in0.0 mm
12:53 AM 40.7°F4.8°C 26.0°F-3.3°C 56% 6.0 mph SW9.7 kmh SW -- 29.24 in990.2 mb 0.00 in0.0 mm 0.00 in0.0 mm 0.00 in0.0 mm
12:52 AM 40.5°F4.7°C 25.8°F-3.4°C 56% 6.0 mph SW9.7 kmh SW -- 29.23 in989.8 mb 0.00 in0.0 mm 0.00 in0.0 mm 0.00 in0.0 mm
12:51 AM 40.5°F4.7°C 25.8°F-3.4°C 56% 3.0 mph SW4.8 kmh SW -- 29.24 in990.2 mb 0.00 in0.0 mm 0.00 in0.0 mm 0.00 in0.0 mm
12:50 AM 40.5°F4.7°C 25.8°F-3.4°C 56% 5.0 mph SW8.0 kmh SW -- 29.24 in990.2 mb 0.00 in0.0 mm 0.00 in0.0 mm 0.00 in0.0 mm
12:49 AM 40.6°F4.8°C 26.4°F-3.1°C 57% 7.0 mph SSE11.3 kmh SSE -- 29.23 in989.8 mb 0.00 in0.0 mm 0.00 in0.0 mm 0.00 in0.0 mm
12:48 AM 40.5°F4.7°C 25.8°F-3.4°C 56% 5.0 mph S8.0 kmh S -- 29.23 in989.8 mb 0.00 in0.0 mm 0.00 in0.0 mm 0.00 in0.0 mm
12:47 AM 40.5°F4.7°C 25.8°F-3.4°C 56% 5.0 mph SW8.0 kmh SW -- 29.23 in989.8 mb 0.00 in0.0 mm 0.00 in0.0 mm 0.00 in0.0 mm
12:46 AM 40.5°F4.7°C 25.8°F-3.4°C 56% 7.0 mph SSW11.3 kmh SSW -- 29.23 in989.8 mb 0.00 in0.0 mm 0.00 in0.0 mm 0.00 in0.0 mm
12:45 AM 40.5°F4.7°C 26.7°F-2.9°C 58% 8.0 mph SSW12.9 kmh SSW -- 29.23 in989.8 mb 0.00 in0.0 mm 0.00 in0.0 mm 0.00 in0.0 mm
12:44 AM 40.5°F4.7°C 26.7°F-2.9°C 58% 6.0 mph SSW9.7 kmh SSW -- 29.23 in989.8 mb 0.00 in0.0 mm 0.00 in0.0 mm 0.00 in0.0 mm
12:43 AM 40.5°F4.7°C 26.7°F-2.9°C 58% 7.0 mph SSW11.3 kmh SSW -- 29.24 in990.2 mb 0.00 in0.0 mm 0.00 in0.0 mm 0.00 in0.0 mm
12:42 AM 40.5°F4.7°C 26.7°F-2.9°C 58% 8.0 mph SSW12.9 kmh SSW -- 29.24 in990.2 mb 0.00 in0.0 mm 0.00 in0.0 mm 0.00 in0.0 mm
12:41 AM 40.5°F4.7°C 26.7°F-2.9°C 58% 8.0 mph SW12.9 kmh SW -- 29.23 in989.8 mb 0.00 in0.0 mm 0.00 in0.0 mm 0.00 in0.0 mm
12:40 AM 40.5°F4.7°C 26.7°F-2.9°C 58% 6.0 mph WSW9.7 kmh WSW -- 29.23 in989.8 mb 0.00 in0.0 mm 0.00 in0.0 mm 0.00 in0.0 mm
12:39 AM 40.5°F4.7°C 26.7°F-2.9°C 58% 9.0 mph SSW14.5 kmh SSW -- 29.23 in989.8 mb 0.00 in0.0 mm 0.00 in0.0 mm 0.00 in0.0 mm
12:38 AM 40.5°F4.7°C 26.7°F-2.9°C 58% 8.0 mph SSW12.9 kmh SSW -- 29.23 in989.8 mb 0.00 in0.0 mm 0.00 in0.0 mm 0.00 in0.0 mm
12:37 AM 40.5°F4.7°C 26.7°F-2.9°C 58% 6.0 mph SW9.7 kmh SW -- 29.24 in990.2 mb 0.00 in0.0 mm 0.00 in0.0 mm 0.00 in0.0 mm
12:36 AM 40.5°F4.7°C 26.7°F-2.9°C 58% 9.0 mph SW14.5 kmh SW -- 29.24 in990.2 mb 0.00 in0.0 mm 0.00 in0.0 mm 0.00 in0.0 mm
12:35 AM 40.5°F4.7°C 26.7°F-2.9°C 58% 4.0 mph SW6.4 kmh SW -- 29.23 in989.8 mb 0.00 in0.0 mm 0.00 in0.0 mm 0.00 in0.0 mm
12:34 AM 40.5°F4.7°C 26.7°F-2.9°C 58% 8.0 mph SW12.9 kmh SW -- 29.23 in989.8 mb 0.00 in0.0 mm 0.00 in0.0 mm 0.00 in0.0 mm
12:33 AM 40.5°F4.7°C 26.7°F-2.9°C 58% 5.0 mph SW8.0 kmh SW -- 29.23 in989.8 mb 0.00 in0.0 mm 0.00 in0.0 mm 0.00 in0.0 mm
12:32 AM 40.5°F4.7°C 26.7°F-2.9°C 58% 8.0 mph SW12.9 kmh SW -- 29.23 in989.8 mb 0.00 in0.0 mm 0.00 in0.0 mm 0.00 in0.0 mm
12:31 AM 40.5°F4.7°C 26.7°F-2.9°C 58% 6.0 mph SSW9.7 kmh SSW -- 29.23 in989.8 mb 0.00 in0.0 mm 0.00 in0.0 mm 0.00 in0.0 mm
12:30 AM 40.5°F4.7°C 26.7°F-2.9°C 58% 6.0 mph SW9.7 kmh SW -- 29.24 in990.2 mb 0.00 in0.0 mm 0.00 in0.0 mm 0.00 in0.0 mm
12:29 AM 40.5°F4.7°C 26.7°F-2.9°C 58% 6.0 mph WSW9.7 kmh WSW -- 29.23 in989.8 mb 0.00 in0.0 mm 0.00 in0.0 mm 0.00 in0.0 mm
12:28 AM 40.5°F4.7°C 26.7°F-2.9°C 58% 7.0 mph SW11.3 kmh SW -- 29.23 in989.8 mb 0.00 in0.0 mm 0.00 in0.0 mm 0.00 in0.0 mm
12:27 AM 40.5°F4.7°C 26.7°F-2.9°C 58% 9.0 mph SSW14.5 kmh SSW -- 29.23 in989.8 mb 0.00 in0.0 mm 0.00 in0.0 mm 0.00 in0.0 mm
12:26 AM 40.5°F4.7°C 26.7°F-2.9°C 58% 6.0 mph SE9.7 kmh SE -- 29.23 in989.8 mb 0.00 in0.0 mm 0.00 in0.0 mm 0.00 in0.0 mm
12:25 AM 40.5°F4.7°C 27.1°F-2.7°C 59% 8.0 mph SSW12.9 kmh SSW -- 29.23 in989.8 mb 0.00 in0.0 mm 0.00 in0.0 mm 0.00 in0.0 mm
12:24 AM 40.3°F4.6°C 26.9°F-2.8°C 59% 8.0 mph SSW12.9 kmh SSW -- 29.23 in989.8 mb 0.00 in0.0 mm 0.00 in0.0 mm 0.00 in0.0 mm
12:23 AM 40.2°F4.6°C 26.9°F-2.8°C 59% 5.0 mph SSW8.0 kmh SSW -- 29.23 in989.8 mb 0.00 in0.0 mm 0.00 in0.0 mm 0.00 in0.0 mm
12:22 AM 40.2°F4.6°C 26.9°F-2.8°C 59% 7.0 mph S11.3 kmh S -- 29.23 in989.8 mb 0.00 in0.0 mm 0.00 in0.0 mm 0.00 in0.0 mm
12:21 AM 40.2°F4.6°C 26.9°F-2.8°C 59% 8.0 mph SW12.9 kmh SW -- 29.24 in990.2 mb 0.00 in0.0 mm 0.00 in0.0 mm 0.00 in0.0 mm
12:20 AM 40.2°F4.6°C 26.9°F-2.8°C 59% 8.0 mph SSW12.9 kmh SSW -- 29.24 in990.2 mb 0.00 in0.0 mm 0.00 in0.0 mm 0.00 in0.0 mm
12:19 AM 40.3°F4.6°C 26.9°F-2.8°C 59% 9.0 mph SW14.5 kmh SW -- 29.23 in989.8 mb 0.00 in0.0 mm 0.00 in0.0 mm 0.00 in0.0 mm
12:18 AM 40.2°F4.6°C 26.9°F-2.8°C 59% 8.0 mph WSW12.9 kmh WSW -- 29.23 in989.8 mb 0.00 in0.0 mm 0.00 in0.0 mm 0.00 in0.0 mm
12:17 AM 40.2°F4.6°C 26.9°F-2.8°C 59% 6.0 mph SSW9.7 kmh SSW -- 29.24 in990.2 mb 0.00 in0.0 mm 0.00 in0.0 mm 0.00 in0.0 mm
12:16 AM 40.5°F4.7°C 27.1°F-2.7°C 59% 8.0 mph S12.9 kmh S -- 29.24 in990.2 mb 0.00 in0.0 mm 0.00 in0.0 mm 0.00 in0.0 mm
12:15 AM 40.5°F4.7°C 27.1°F-2.7°C 59% 7.0 mph SW11.3 kmh SW -- 29.24 in990.2 mb 0.00 in0.0 mm 0.00 in0.0 mm 0.00 in0.0 mm
12:14 AM 40.5°F4.7°C 27.1°F-2.7°C 59% 8.0 mph WSW12.9 kmh WSW -- 29.24 in990.2 mb 0.00 in0.0 mm 0.00 in0.0 mm 0.00 in0.0 mm
12:13 AM 40.5°F4.7°C 27.1°F-2.7°C 59% 9.0 mph SW14.5 kmh SW -- 29.23 in989.8 mb 0.00 in0.0 mm 0.00 in0.0 mm 0.00 in0.0 mm
12:12 AM 40.5°F4.7°C 27.1°F-2.7°C 59% 8.0 mph SW12.9 kmh SW -- 29.23 in989.8 mb 0.00 in0.0 mm 0.00 in0.0 mm 0.00 in0.0 mm
12:11 AM 40.5°F4.7°C 27.1°F-2.7°C 59% 7.0 mph SW11.3 kmh SW -- 29.24 in990.2 mb 0.00 in0.0 mm 0.00 in0.0 mm 0.00 in0.0 mm
12:10 AM 40.5°F4.7°C 27.1°F-2.7°C 59% 5.0 mph S8.0 kmh S -- 29.24 in990.2 mb 0.00 in0.0 mm 0.00 in0.0 mm 0.00 in0.0 mm
12:09 AM 40.5°F4.7°C 27.1°F-2.7°C 59% 7.0 mph SSW11.3 kmh SSW -- 29.24 in990.2 mb 0.00 in0.0 mm 0.00 in0.0 mm 0.00 in0.0 mm
12:08 AM 40.5°F4.7°C 27.1°F-2.7°C 59% 5.0 mph SW8.0 kmh SW -- 29.24 in990.2 mb 0.00 in0.0 mm 0.00 in0.0 mm 0.00 in0.0 mm
12:07 AM 40.5°F4.7°C 27.1°F-2.7°C 59% 4.0 mph SSW6.4 kmh SSW -- 29.24 in990.2 mb 0.00 in0.0 mm 0.00 in0.0 mm 0.00 in0.0 mm
12:06 AM 40.5°F4.7°C 27.1°F-2.7°C 59% 4.0 mph SW6.4 kmh SW -- 29.24 in990.2 mb 0.00 in0.0 mm 0.00 in0.0 mm 0.00 in0.0 mm
12:05 AM 40.5°F4.7°C 27.1°F-2.7°C 59% 5.0 mph S8.0 kmh S -- 29.24 in990.2 mb 0.00 in0.0 mm 0.00 in0.0 mm 0.00 in0.0 mm
12:04 AM 40.6°F4.8°C 27.3°F-2.6°C 59% 5.0 mph SW8.0 kmh SW -- 29.23 in989.8 mb 0.00 in0.0 mm 0.00 in0.0 mm 0.00 in0.0 mm
12:03 AM 40.5°F4.7°C 27.1°F-2.7°C 59% 5.0 mph SSW8.0 kmh SSW -- 29.24 in990.2 mb 0.00 in0.0 mm 0.00 in0.0 mm 0.00 in0.0 mm
12:02 AM 40.5°F4.7°C 27.1°F-2.7°C 59% 4.0 mph WSW6.4 kmh WSW -- 29.24 in990.2 mb 0.00 in0.0 mm 0.00 in0.0 mm 0.00 in0.0 mm
12:01 AM 40.5°F4.7°C 27.1°F-2.7°C 59% 5.0 mph SSW8.0 kmh SSW -- 29.24 in990.2 mb 0.00 in0.0 mm 0.00 in0.0 mm 0.00 in0.0 mm
12:00 AM 40.5°F4.7°C 27.1°F-2.7°C 59% 7.0 mph SSW11.3 kmh SSW -- 29.24 in990.2 mb 0.00 in0.0 mm 0.00 in0.0 mm 0.00 in0.0 mm